<?xml version="1.0" encoding="UTF-8" standalone="no" ?>
<gpx xmlns="http://www.topografix.com/GPX/1/1" xmlns:xsi="http://www.w3.org/2001/XMLSchema-instance" xsi:schemaLocation="http://www.topografix.com/GPX/1/1 http://www.topografix.com/GPX/1/1/gpx.xsd" version="1.1" creator="VisuGPX - https://www.visugpx.com">
  <metadata>
    <name>2021-06-27 07:56:00</name>
    <desc><![CDATA[Palama, Ouides, sentier découverte, Etoile, Grand Sanguin, Petit Sanguin, Etoile sud, Jacquot, conduite gaz, sentier Julien

<p>Heure de départ: 07:56 27 juin 2021<br/>Heure d'arrivée: 12:51 27 juin 2021<br/>Distance: 31,5 km (04:55)<br/>Temps déplacement: 03:28<br/>Vitesse moyenne: 6,4 km/h<br/>Vitesse moyenne mouv.: 9,06 km/h<br/>Vitesse Max.: 33,86 km/h<br/>Altitude minimale: 152 m<br/>Altitude maximale: 571 m<br/>Vitesse de montée: 294,5 m/h<br/>Vitesse de descente: 586,5 m/h<br/>Gain d'altitude: 868 m<br/>Perte d'altitude: 870 m<br/>Temps de montée: 02:56<br/>Temps de descente: 01:29<br/></p><hr align="center" width="480" style="height: 2px; width: 517px"/>]]></desc>
  </metadata>
  <wpt lat="43.35152" lon="5.44432">
    <ele>156.28</ele>
    <name><![CDATA[0000168]]></name>
    <type><![CDATA[Point de départ]]></type>
  </wpt>
  <wpt lat="43.35161" lon="5.4444">
    <ele>152.33</ele>
    <name><![CDATA[0000169]]></name>
    <desc><![CDATA[<p><br /><h3>Nom: Segment: 1</h3><br />Heure de départ: 07:56 27 juin 2021<br/>Heure d'arrivée: 12:51 27 juin 2021<br/>Distance: 31,5km (04:55)<br/>Temps déplacement: 03:28<br/>Vitesse moyenne: 6,4 km/h<br/>Vitesse moyenne mouv.: 9,06 km/h<br/>Vitesse Max.: 33,86 km/h<br/>Altitude minimale: 152 m<br/>Altitude maximale: 571 m<br/>Vitesse de montée: 294,5 m/h<br/>Vitesse de descente: 586,5 m/h<br/>Gain d'altitude: 868 m<br/>Perte d'altitude: 870 m<br/>Temps de montée: 02:56<br/>Temps de descente: 01:29<br/></p>]]></desc>
    <type><![CDATA[Point d'arrivée]]></type>
  </wpt>
  <trk>
    <name><![CDATA[2021-06-27 07:56:00]]></name>
    <desc><![CDATA[<p>Heure de départ: 07:56 27 juin 2021<br/>Heure d'arrivée: 12:51 27 juin 2021<br/>Distance: 31,5 km (04:55)<br/>Temps déplacement: 03:28<br/>Vitesse moyenne: 6,4 km/h<br/>Vitesse moyenne mouv.: 9,06 km/h<br/>Vitesse Max.: 33,86 km/h<br/>Altitude minimale: 152 m<br/>Altitude maximale: 571 m<br/>Vitesse de montée: 294,5 m/h<br/>Vitesse de descente: 586,5 m/h<br/>Gain d'altitude: 868 m<br/>Perte d'altitude: 870 m<br/>Temps de montée: 02:56<br/>Temps de descente: 01:29<br/></p><hr align="center" width="480" style="height: 2px; width: 517px"/>]]></desc>
    <trkseg>
      <trkpt lat="43.35152" lon="5.44432">
        <ele>156.19</ele>
        <time>2021-06-27T05:56:02.000Z</time>
      </trkpt>
      <trkpt lat="43.35164" lon="5.44452">
        <ele>157.96</ele>
        <time>2021-06-27T05:57:06.000Z</time>
      </trkpt>
      <trkpt lat="43.35182" lon="5.44448">
        <ele>158.51</ele>
        <time>2021-06-27T05:57:34.000Z</time>
      </trkpt>
      <trkpt lat="43.35202" lon="5.44438">
        <ele>159.22</ele>
        <time>2021-06-27T05:57:39.000Z</time>
      </trkpt>
      <trkpt lat="43.35221" lon="5.4443">
        <ele>160.11</ele>
        <time>2021-06-27T05:57:46.000Z</time>
      </trkpt>
      <trkpt lat="43.35232" lon="5.44453">
        <ele>160.97</ele>
        <time>2021-06-27T05:57:52.000Z</time>
      </trkpt>
      <trkpt lat="43.3524" lon="5.44481">
        <ele>161.82</ele>
        <time>2021-06-27T05:57:58.000Z</time>
      </trkpt>
      <trkpt lat="43.35245" lon="5.44509">
        <ele>162.69</ele>
        <time>2021-06-27T05:58:04.000Z</time>
      </trkpt>
      <trkpt lat="43.35249" lon="5.44536">
        <ele>163.53</ele>
        <time>2021-06-27T05:58:10.000Z</time>
      </trkpt>
      <trkpt lat="43.3525" lon="5.44564">
        <ele>164.61</ele>
        <time>2021-06-27T05:58:16.000Z</time>
      </trkpt>
      <trkpt lat="43.35254" lon="5.44588">
        <ele>165.27</ele>
        <time>2021-06-27T05:58:21.000Z</time>
      </trkpt>
      <trkpt lat="43.35263" lon="5.44612">
        <ele>165.89</ele>
        <time>2021-06-27T05:58:26.000Z</time>
      </trkpt>
      <trkpt lat="43.35274" lon="5.44633">
        <ele>166.57</ele>
        <time>2021-06-27T05:58:31.000Z</time>
      </trkpt>
      <trkpt lat="43.35284" lon="5.44654">
        <ele>167.4</ele>
        <time>2021-06-27T05:58:36.000Z</time>
      </trkpt>
      <trkpt lat="43.35294" lon="5.44679">
        <ele>168.01</ele>
        <time>2021-06-27T05:58:41.000Z</time>
      </trkpt>
      <trkpt lat="43.35304" lon="5.44703">
        <ele>168.57</ele>
        <time>2021-06-27T05:58:46.000Z</time>
      </trkpt>
      <trkpt lat="43.35312" lon="5.44728">
        <ele>169.11</ele>
        <time>2021-06-27T05:58:51.000Z</time>
      </trkpt>
      <trkpt lat="43.35321" lon="5.44755">
        <ele>169.64</ele>
        <time>2021-06-27T05:58:56.000Z</time>
      </trkpt>
      <trkpt lat="43.35328" lon="5.44782">
        <ele>170.06</ele>
        <time>2021-06-27T05:59:01.000Z</time>
      </trkpt>
      <trkpt lat="43.35337" lon="5.4481">
        <ele>170.2</ele>
        <time>2021-06-27T05:59:06.000Z</time>
      </trkpt>
      <trkpt lat="43.35346" lon="5.44839">
        <ele>169.15</ele>
        <time>2021-06-27T05:59:10.000Z</time>
      </trkpt>
      <trkpt lat="43.35357" lon="5.44861">
        <ele>168.12</ele>
        <time>2021-06-27T05:59:13.000Z</time>
      </trkpt>
      <trkpt lat="43.3537" lon="5.44885">
        <ele>167.23</ele>
        <time>2021-06-27T05:59:16.000Z</time>
      </trkpt>
      <trkpt lat="43.35381" lon="5.44909">
        <ele>167.02</ele>
        <time>2021-06-27T05:59:19.000Z</time>
      </trkpt>
      <trkpt lat="43.3539" lon="5.44937">
        <ele>167.94</ele>
        <time>2021-06-27T05:59:23.000Z</time>
      </trkpt>
      <trkpt lat="43.35401" lon="5.44958">
        <ele>169.49</ele>
        <time>2021-06-27T05:59:27.000Z</time>
      </trkpt>
      <trkpt lat="43.35418" lon="5.44978">
        <ele>170.73</ele>
        <time>2021-06-27T05:59:32.000Z</time>
      </trkpt>
      <trkpt lat="43.35437" lon="5.44996">
        <ele>171.53</ele>
        <time>2021-06-27T05:59:37.000Z</time>
      </trkpt>
      <trkpt lat="43.35452" lon="5.45018">
        <ele>172.41</ele>
        <time>2021-06-27T05:59:42.000Z</time>
      </trkpt>
      <trkpt lat="43.35466" lon="5.45036">
        <ele>172.97</ele>
        <time>2021-06-27T05:59:46.000Z</time>
      </trkpt>
      <trkpt lat="43.35481" lon="5.45051">
        <ele>173.44</ele>
        <time>2021-06-27T05:59:50.000Z</time>
      </trkpt>
      <trkpt lat="43.35496" lon="5.45068">
        <ele>174.02</ele>
        <time>2021-06-27T05:59:54.000Z</time>
      </trkpt>
      <trkpt lat="43.3551" lon="5.45084">
        <ele>174.47</ele>
        <time>2021-06-27T05:59:58.000Z</time>
      </trkpt>
      <trkpt lat="43.35526" lon="5.45102">
        <ele>174.89</ele>
        <time>2021-06-27T06:00:03.000Z</time>
      </trkpt>
      <trkpt lat="43.35539" lon="5.45122">
        <ele>174.11</ele>
        <time>2021-06-27T06:06:08.000Z</time>
      </trkpt>
      <trkpt lat="43.35554" lon="5.4514">
        <ele>174.28</ele>
        <time>2021-06-27T06:06:15.000Z</time>
      </trkpt>
      <trkpt lat="43.35571" lon="5.45156">
        <ele>174.61</ele>
        <time>2021-06-27T06:06:22.000Z</time>
      </trkpt>
      <trkpt lat="43.35586" lon="5.45135">
        <ele>175.06</ele>
        <time>2021-06-27T06:06:28.000Z</time>
      </trkpt>
      <trkpt lat="43.35592" lon="5.45111">
        <ele>176.01</ele>
        <time>2021-06-27T06:06:34.000Z</time>
      </trkpt>
      <trkpt lat="43.35599" lon="5.45085">
        <ele>176.7</ele>
        <time>2021-06-27T06:06:40.000Z</time>
      </trkpt>
      <trkpt lat="43.35616" lon="5.45076">
        <ele>177.41</ele>
        <time>2021-06-27T06:06:46.000Z</time>
      </trkpt>
      <trkpt lat="43.35634" lon="5.45086">
        <ele>177.91</ele>
        <time>2021-06-27T06:06:51.000Z</time>
      </trkpt>
      <trkpt lat="43.35651" lon="5.45096">
        <ele>178.58</ele>
        <time>2021-06-27T06:06:56.000Z</time>
      </trkpt>
      <trkpt lat="43.35669" lon="5.45105">
        <ele>179.1</ele>
        <time>2021-06-27T06:07:01.000Z</time>
      </trkpt>
      <trkpt lat="43.35687" lon="5.45108">
        <ele>179.64</ele>
        <time>2021-06-27T06:07:06.000Z</time>
      </trkpt>
      <trkpt lat="43.35703" lon="5.45095">
        <ele>180.51</ele>
        <time>2021-06-27T06:07:13.000Z</time>
      </trkpt>
      <trkpt lat="43.35707" lon="5.45067">
        <ele>181.49</ele>
        <time>2021-06-27T06:07:20.000Z</time>
      </trkpt>
      <trkpt lat="43.35711" lon="5.45039">
        <ele>181.89</ele>
        <time>2021-06-27T06:07:26.000Z</time>
      </trkpt>
      <trkpt lat="43.35716" lon="5.45012">
        <ele>182.22</ele>
        <time>2021-06-27T06:07:32.000Z</time>
      </trkpt>
      <trkpt lat="43.35722" lon="5.44985">
        <ele>182.41</ele>
        <time>2021-06-27T06:07:38.000Z</time>
      </trkpt>
      <trkpt lat="43.35739" lon="5.44974">
        <ele>183.17</ele>
        <time>2021-06-27T06:07:46.000Z</time>
      </trkpt>
      <trkpt lat="43.35759" lon="5.44982">
        <ele>183.85</ele>
        <time>2021-06-27T06:07:52.000Z</time>
      </trkpt>
      <trkpt lat="43.35777" lon="5.44989">
        <ele>184.52</ele>
        <time>2021-06-27T06:07:58.000Z</time>
      </trkpt>
      <trkpt lat="43.35795" lon="5.44996">
        <ele>185</ele>
        <time>2021-06-27T06:08:04.000Z</time>
      </trkpt>
      <trkpt lat="43.35815" lon="5.45002">
        <ele>185.59</ele>
        <time>2021-06-27T06:08:11.000Z</time>
      </trkpt>
      <trkpt lat="43.35834" lon="5.45009">
        <ele>186.47</ele>
        <time>2021-06-27T06:08:18.000Z</time>
      </trkpt>
      <trkpt lat="43.35853" lon="5.45016">
        <ele>187.06</ele>
        <time>2021-06-27T06:08:25.000Z</time>
      </trkpt>
      <trkpt lat="43.35866" lon="5.44998">
        <ele>187.62</ele>
        <time>2021-06-27T06:08:33.000Z</time>
      </trkpt>
      <trkpt lat="43.35872" lon="5.4497">
        <ele>187.74</ele>
        <time>2021-06-27T06:08:39.000Z</time>
      </trkpt>
      <trkpt lat="43.35878" lon="5.44945">
        <ele>187.98</ele>
        <time>2021-06-27T06:08:45.000Z</time>
      </trkpt>
      <trkpt lat="43.35885" lon="5.44919">
        <ele>187.94</ele>
        <time>2021-06-27T06:08:51.000Z</time>
      </trkpt>
      <trkpt lat="43.35891" lon="5.44888">
        <ele>185.23</ele>
        <time>2021-06-27T06:08:56.000Z</time>
      </trkpt>
      <trkpt lat="43.35901" lon="5.44864">
        <ele>182.85</ele>
        <time>2021-06-27T06:09:00.000Z</time>
      </trkpt>
      <trkpt lat="43.35921" lon="5.44853">
        <ele>182.63</ele>
        <time>2021-06-27T06:09:05.000Z</time>
      </trkpt>
      <trkpt lat="43.35939" lon="5.4485">
        <ele>183.22</ele>
        <time>2021-06-27T06:09:10.000Z</time>
      </trkpt>
      <trkpt lat="43.3596" lon="5.44847">
        <ele>184.05</ele>
        <time>2021-06-27T06:09:16.000Z</time>
      </trkpt>
      <trkpt lat="43.3598" lon="5.44844">
        <ele>184.67</ele>
        <time>2021-06-27T06:09:22.000Z</time>
      </trkpt>
      <trkpt lat="43.35999" lon="5.44838">
        <ele>185.44</ele>
        <time>2021-06-27T06:09:29.000Z</time>
      </trkpt>
      <trkpt lat="43.36019" lon="5.44833">
        <ele>185.94</ele>
        <time>2021-06-27T06:09:36.000Z</time>
      </trkpt>
      <trkpt lat="43.3604" lon="5.44826">
        <ele>186.51</ele>
        <time>2021-06-27T06:09:42.000Z</time>
      </trkpt>
      <trkpt lat="43.3606" lon="5.44819">
        <ele>187.2</ele>
        <time>2021-06-27T06:09:48.000Z</time>
      </trkpt>
      <trkpt lat="43.36078" lon="5.44813">
        <ele>188.34</ele>
        <time>2021-06-27T06:09:55.000Z</time>
      </trkpt>
      <trkpt lat="43.36098" lon="5.44802">
        <ele>189.57</ele>
        <time>2021-06-27T06:10:02.000Z</time>
      </trkpt>
      <trkpt lat="43.36114" lon="5.44788">
        <ele>190.21</ele>
        <time>2021-06-27T06:10:08.000Z</time>
      </trkpt>
      <trkpt lat="43.36132" lon="5.44777">
        <ele>190.86</ele>
        <time>2021-06-27T06:10:15.000Z</time>
      </trkpt>
      <trkpt lat="43.3615" lon="5.44769">
        <ele>191.65</ele>
        <time>2021-06-27T06:10:22.000Z</time>
      </trkpt>
      <trkpt lat="43.36168" lon="5.44764">
        <ele>193.24</ele>
        <time>2021-06-27T06:10:29.000Z</time>
      </trkpt>
      <trkpt lat="43.36187" lon="5.44757">
        <ele>194.16</ele>
        <time>2021-06-27T06:10:35.000Z</time>
      </trkpt>
      <trkpt lat="43.36207" lon="5.44748">
        <ele>194.88</ele>
        <time>2021-06-27T06:10:42.000Z</time>
      </trkpt>
      <trkpt lat="43.36227" lon="5.44743">
        <ele>195.51</ele>
        <time>2021-06-27T06:10:49.000Z</time>
      </trkpt>
      <trkpt lat="43.36245" lon="5.44739">
        <ele>196.08</ele>
        <time>2021-06-27T06:10:55.000Z</time>
      </trkpt>
      <trkpt lat="43.36265" lon="5.44737">
        <ele>196.57</ele>
        <time>2021-06-27T06:11:02.000Z</time>
      </trkpt>
      <trkpt lat="43.36285" lon="5.44735">
        <ele>197.47</ele>
        <time>2021-06-27T06:11:10.000Z</time>
      </trkpt>
      <trkpt lat="43.36305" lon="5.44729">
        <ele>198.06</ele>
        <time>2021-06-27T06:11:17.000Z</time>
      </trkpt>
      <trkpt lat="43.36323" lon="5.44721">
        <ele>198.28</ele>
        <time>2021-06-27T06:11:22.000Z</time>
      </trkpt>
      <trkpt lat="43.36342" lon="5.44714">
        <ele>199.02</ele>
        <time>2021-06-27T06:11:28.000Z</time>
      </trkpt>
      <trkpt lat="43.36361" lon="5.44704">
        <ele>199.64</ele>
        <time>2021-06-27T06:11:35.000Z</time>
      </trkpt>
      <trkpt lat="43.3638" lon="5.44697">
        <ele>200.47</ele>
        <time>2021-06-27T06:11:42.000Z</time>
      </trkpt>
      <trkpt lat="43.36399" lon="5.447">
        <ele>201.44</ele>
        <time>2021-06-27T06:11:48.000Z</time>
      </trkpt>
      <trkpt lat="43.36419" lon="5.44706">
        <ele>202.53</ele>
        <time>2021-06-27T06:11:56.000Z</time>
      </trkpt>
      <trkpt lat="43.36437" lon="5.44708">
        <ele>202.89</ele>
        <time>2021-06-27T06:12:02.000Z</time>
      </trkpt>
      <trkpt lat="43.36456" lon="5.44704">
        <ele>203.26</ele>
        <time>2021-06-27T06:12:08.000Z</time>
      </trkpt>
      <trkpt lat="43.36474" lon="5.447">
        <ele>203.77</ele>
        <time>2021-06-27T06:12:14.000Z</time>
      </trkpt>
      <trkpt lat="43.36492" lon="5.447">
        <ele>204.48</ele>
        <time>2021-06-27T06:12:20.000Z</time>
      </trkpt>
      <trkpt lat="43.36512" lon="5.44701">
        <ele>204.91</ele>
        <time>2021-06-27T06:12:28.000Z</time>
      </trkpt>
      <trkpt lat="43.36532" lon="5.44694">
        <ele>205.46</ele>
        <time>2021-06-27T06:12:35.000Z</time>
      </trkpt>
      <trkpt lat="43.3654" lon="5.44672">
        <ele>206.36</ele>
        <time>2021-06-27T06:12:42.000Z</time>
      </trkpt>
      <trkpt lat="43.3655" lon="5.44651">
        <ele>207.22</ele>
        <time>2021-06-27T06:12:48.000Z</time>
      </trkpt>
      <trkpt lat="43.36566" lon="5.44638">
        <ele>208.26</ele>
        <time>2021-06-27T06:12:55.000Z</time>
      </trkpt>
      <trkpt lat="43.36585" lon="5.44641">
        <ele>209.07</ele>
        <time>2021-06-27T06:13:02.000Z</time>
      </trkpt>
      <trkpt lat="43.36599" lon="5.44659">
        <ele>210.08</ele>
        <time>2021-06-27T06:13:09.000Z</time>
      </trkpt>
      <trkpt lat="43.36618" lon="5.4467">
        <ele>210.9</ele>
        <time>2021-06-27T06:13:16.000Z</time>
      </trkpt>
      <trkpt lat="43.36636" lon="5.44675">
        <ele>211.7</ele>
        <time>2021-06-27T06:13:22.000Z</time>
      </trkpt>
      <trkpt lat="43.36656" lon="5.44679">
        <ele>212.81</ele>
        <time>2021-06-27T06:13:29.000Z</time>
      </trkpt>
      <trkpt lat="43.36675" lon="5.44688">
        <ele>214</ele>
        <time>2021-06-27T06:13:36.000Z</time>
      </trkpt>
      <trkpt lat="43.36691" lon="5.44705">
        <ele>215.12</ele>
        <time>2021-06-27T06:13:44.000Z</time>
      </trkpt>
      <trkpt lat="43.36711" lon="5.44714">
        <ele>216.03</ele>
        <time>2021-06-27T06:13:52.000Z</time>
      </trkpt>
      <trkpt lat="43.36728" lon="5.44722">
        <ele>216.98</ele>
        <time>2021-06-27T06:13:59.000Z</time>
      </trkpt>
      <trkpt lat="43.36742" lon="5.44739">
        <ele>217.85</ele>
        <time>2021-06-27T06:14:06.000Z</time>
      </trkpt>
      <trkpt lat="43.36755" lon="5.44757">
        <ele>218.84</ele>
        <time>2021-06-27T06:14:14.000Z</time>
      </trkpt>
      <trkpt lat="43.3677" lon="5.44775">
        <ele>219.61</ele>
        <time>2021-06-27T06:14:21.000Z</time>
      </trkpt>
      <trkpt lat="43.36782" lon="5.44794">
        <ele>221.19</ele>
        <time>2021-06-27T06:14:29.000Z</time>
      </trkpt>
      <trkpt lat="43.36799" lon="5.44806">
        <ele>222.54</ele>
        <time>2021-06-27T06:14:37.000Z</time>
      </trkpt>
      <trkpt lat="43.36817" lon="5.44799">
        <ele>224.28</ele>
        <time>2021-06-27T06:14:46.000Z</time>
      </trkpt>
      <trkpt lat="43.36837" lon="5.44798">
        <ele>226.64</ele>
        <time>2021-06-27T06:14:57.000Z</time>
      </trkpt>
      <trkpt lat="43.36853" lon="5.44811">
        <ele>227.86</ele>
        <time>2021-06-27T06:15:05.000Z</time>
      </trkpt>
      <trkpt lat="43.36866" lon="5.44831">
        <ele>228.83</ele>
        <time>2021-06-27T06:15:13.000Z</time>
      </trkpt>
      <trkpt lat="43.3688" lon="5.44847">
        <ele>229.98</ele>
        <time>2021-06-27T06:15:21.000Z</time>
      </trkpt>
      <trkpt lat="43.36898" lon="5.44853">
        <ele>231.3</ele>
        <time>2021-06-27T06:15:30.000Z</time>
      </trkpt>
      <trkpt lat="43.36918" lon="5.44849">
        <ele>233.12</ele>
        <time>2021-06-27T06:15:39.000Z</time>
      </trkpt>
      <trkpt lat="43.36936" lon="5.44857">
        <ele>233.62</ele>
        <time>2021-06-27T06:15:47.000Z</time>
      </trkpt>
      <trkpt lat="43.36952" lon="5.44872">
        <ele>234.29</ele>
        <time>2021-06-27T06:15:55.000Z</time>
      </trkpt>
      <trkpt lat="43.36971" lon="5.44873">
        <ele>235.56</ele>
        <time>2021-06-27T06:16:04.000Z</time>
      </trkpt>
      <trkpt lat="43.36987" lon="5.44858">
        <ele>237.01</ele>
        <time>2021-06-27T06:16:13.000Z</time>
      </trkpt>
      <trkpt lat="43.37003" lon="5.44845">
        <ele>238.96</ele>
        <time>2021-06-27T06:16:23.000Z</time>
      </trkpt>
      <trkpt lat="43.37021" lon="5.44839">
        <ele>241.59</ele>
        <time>2021-06-27T06:16:35.000Z</time>
      </trkpt>
      <trkpt lat="43.37039" lon="5.44834">
        <ele>244.63</ele>
        <time>2021-06-27T06:16:48.000Z</time>
      </trkpt>
      <trkpt lat="43.37056" lon="5.4483">
        <ele>246.98</ele>
        <time>2021-06-27T06:17:00.000Z</time>
      </trkpt>
      <trkpt lat="43.37076" lon="5.44826">
        <ele>249.35</ele>
        <time>2021-06-27T06:17:13.000Z</time>
      </trkpt>
      <trkpt lat="43.37094" lon="5.44825">
        <ele>251.89</ele>
        <time>2021-06-27T06:17:27.000Z</time>
      </trkpt>
      <trkpt lat="43.37114" lon="5.44823">
        <ele>254.02</ele>
        <time>2021-06-27T06:17:38.000Z</time>
      </trkpt>
      <trkpt lat="43.37132" lon="5.44823">
        <ele>255.36</ele>
        <time>2021-06-27T06:17:48.000Z</time>
      </trkpt>
      <trkpt lat="43.37152" lon="5.44823">
        <ele>256.17</ele>
        <time>2021-06-27T06:17:57.000Z</time>
      </trkpt>
      <trkpt lat="43.3717" lon="5.44824">
        <ele>256.31</ele>
        <time>2021-06-27T06:18:05.000Z</time>
      </trkpt>
      <trkpt lat="43.3719" lon="5.44829">
        <ele>256.59</ele>
        <time>2021-06-27T06:18:14.000Z</time>
      </trkpt>
      <trkpt lat="43.37207" lon="5.44837">
        <ele>256.83</ele>
        <time>2021-06-27T06:18:22.000Z</time>
      </trkpt>
      <trkpt lat="43.37228" lon="5.44843">
        <ele>257.59</ele>
        <time>2021-06-27T06:18:30.000Z</time>
      </trkpt>
      <trkpt lat="43.37243" lon="5.44858">
        <ele>257.44</ele>
        <time>2021-06-27T06:18:35.000Z</time>
      </trkpt>
      <trkpt lat="43.37259" lon="5.44871">
        <ele>258.74</ele>
        <time>2021-06-27T06:20:43.000Z</time>
      </trkpt>
      <trkpt lat="43.37278" lon="5.44877">
        <ele>260.56</ele>
        <time>2021-06-27T06:20:53.000Z</time>
      </trkpt>
      <trkpt lat="43.37296" lon="5.44874">
        <ele>262.22</ele>
        <time>2021-06-27T06:21:02.000Z</time>
      </trkpt>
      <trkpt lat="43.37316" lon="5.44869">
        <ele>263.87</ele>
        <time>2021-06-27T06:21:11.000Z</time>
      </trkpt>
      <trkpt lat="43.37334" lon="5.4486">
        <ele>265.29</ele>
        <time>2021-06-27T06:21:20.000Z</time>
      </trkpt>
      <trkpt lat="43.37353" lon="5.44856">
        <ele>267.65</ele>
        <time>2021-06-27T06:21:30.000Z</time>
      </trkpt>
      <trkpt lat="43.37372" lon="5.44846">
        <ele>269.55</ele>
        <time>2021-06-27T06:21:40.000Z</time>
      </trkpt>
      <trkpt lat="43.3739" lon="5.44838">
        <ele>271.12</ele>
        <time>2021-06-27T06:21:50.000Z</time>
      </trkpt>
      <trkpt lat="43.37408" lon="5.44835">
        <ele>272.37</ele>
        <time>2021-06-27T06:21:59.000Z</time>
      </trkpt>
      <trkpt lat="43.37426" lon="5.44831">
        <ele>273.96</ele>
        <time>2021-06-27T06:22:09.000Z</time>
      </trkpt>
      <trkpt lat="43.37445" lon="5.44832">
        <ele>276.11</ele>
        <time>2021-06-27T06:22:21.000Z</time>
      </trkpt>
      <trkpt lat="43.37463" lon="5.44835">
        <ele>277.74</ele>
        <time>2021-06-27T06:22:31.000Z</time>
      </trkpt>
      <trkpt lat="43.37481" lon="5.44837">
        <ele>279.72</ele>
        <time>2021-06-27T06:22:41.000Z</time>
      </trkpt>
      <trkpt lat="43.37499" lon="5.44842">
        <ele>281.45</ele>
        <time>2021-06-27T06:22:53.000Z</time>
      </trkpt>
      <trkpt lat="43.37518" lon="5.44844">
        <ele>283.93</ele>
        <time>2021-06-27T06:23:07.000Z</time>
      </trkpt>
      <trkpt lat="43.37537" lon="5.44842">
        <ele>286.34</ele>
        <time>2021-06-27T06:23:21.000Z</time>
      </trkpt>
      <trkpt lat="43.37555" lon="5.44841">
        <ele>288.5</ele>
        <time>2021-06-27T06:23:33.000Z</time>
      </trkpt>
      <trkpt lat="43.37573" lon="5.44835">
        <ele>291.15</ele>
        <time>2021-06-27T06:23:44.000Z</time>
      </trkpt>
      <trkpt lat="43.37592" lon="5.4484">
        <ele>293.75</ele>
        <time>2021-06-27T06:24:00.000Z</time>
      </trkpt>
      <trkpt lat="43.3761" lon="5.44845">
        <ele>295.05</ele>
        <time>2021-06-27T06:24:10.000Z</time>
      </trkpt>
      <trkpt lat="43.37628" lon="5.44852">
        <ele>298.75</ele>
        <time>2021-06-27T06:24:24.000Z</time>
      </trkpt>
      <trkpt lat="43.37645" lon="5.44865">
        <ele>301.81</ele>
        <time>2021-06-27T06:24:40.000Z</time>
      </trkpt>
      <trkpt lat="43.37661" lon="5.44878">
        <ele>303.31</ele>
        <time>2021-06-27T06:24:54.000Z</time>
      </trkpt>
      <trkpt lat="43.37675" lon="5.44897">
        <ele>305.02</ele>
        <time>2021-06-27T06:25:07.000Z</time>
      </trkpt>
      <trkpt lat="43.37688" lon="5.44916">
        <ele>307.24</ele>
        <time>2021-06-27T06:25:21.000Z</time>
      </trkpt>
      <trkpt lat="43.37697" lon="5.44938">
        <ele>309.23</ele>
        <time>2021-06-27T06:25:34.000Z</time>
      </trkpt>
      <trkpt lat="43.3771" lon="5.44955">
        <ele>311.62</ele>
        <time>2021-06-27T06:25:47.000Z</time>
      </trkpt>
      <trkpt lat="43.37719" lon="5.44977">
        <ele>313.37</ele>
        <time>2021-06-27T06:26:01.000Z</time>
      </trkpt>
      <trkpt lat="43.37711" lon="5.44999">
        <ele>314.66</ele>
        <time>2021-06-27T06:26:12.000Z</time>
      </trkpt>
      <trkpt lat="43.3771" lon="5.45025">
        <ele>317.51</ele>
        <time>2021-06-27T06:26:29.000Z</time>
      </trkpt>
      <trkpt lat="43.3771" lon="5.4505">
        <ele>320.06</ele>
        <time>2021-06-27T06:26:44.000Z</time>
      </trkpt>
      <trkpt lat="43.37721" lon="5.45072">
        <ele>322.05</ele>
        <time>2021-06-27T06:26:58.000Z</time>
      </trkpt>
      <trkpt lat="43.37732" lon="5.45093">
        <ele>323.25</ele>
        <time>2021-06-27T06:27:12.000Z</time>
      </trkpt>
      <trkpt lat="43.37745" lon="5.4511">
        <ele>324.54</ele>
        <time>2021-06-27T06:27:24.000Z</time>
      </trkpt>
      <trkpt lat="43.37734" lon="5.4513">
        <ele>326.21</ele>
        <time>2021-06-27T06:29:01.000Z</time>
      </trkpt>
      <trkpt lat="43.37714" lon="5.45124">
        <ele>325.23</ele>
        <time>2021-06-27T06:36:05.000Z</time>
      </trkpt>
      <trkpt lat="43.37698" lon="5.45107">
        <ele>324.82</ele>
        <time>2021-06-27T06:36:12.000Z</time>
      </trkpt>
      <trkpt lat="43.3768" lon="5.45092">
        <ele>323.68</ele>
        <time>2021-06-27T06:36:17.000Z</time>
      </trkpt>
      <trkpt lat="43.37669" lon="5.45072">
        <ele>323.69</ele>
        <time>2021-06-27T06:36:23.000Z</time>
      </trkpt>
      <trkpt lat="43.37662" lon="5.45048">
        <ele>325.29</ele>
        <time>2021-06-27T06:36:31.000Z</time>
      </trkpt>
      <trkpt lat="43.37647" lon="5.45029">
        <ele>326.41</ele>
        <time>2021-06-27T06:36:38.000Z</time>
      </trkpt>
      <trkpt lat="43.37631" lon="5.45016">
        <ele>327.62</ele>
        <time>2021-06-27T06:36:45.000Z</time>
      </trkpt>
      <trkpt lat="43.37613" lon="5.45019">
        <ele>329.22</ele>
        <time>2021-06-27T06:36:53.000Z</time>
      </trkpt>
      <trkpt lat="43.376" lon="5.45038">
        <ele>330.29</ele>
        <time>2021-06-27T06:37:00.000Z</time>
      </trkpt>
      <trkpt lat="43.37586" lon="5.45057">
        <ele>331.98</ele>
        <time>2021-06-27T06:37:08.000Z</time>
      </trkpt>
      <trkpt lat="43.37572" lon="5.45073">
        <ele>333.42</ele>
        <time>2021-06-27T06:37:16.000Z</time>
      </trkpt>
      <trkpt lat="43.37563" lon="5.45097">
        <ele>333.83</ele>
        <time>2021-06-27T06:37:25.000Z</time>
      </trkpt>
      <trkpt lat="43.37559" lon="5.45121">
        <ele>333.67</ele>
        <time>2021-06-27T06:37:35.000Z</time>
      </trkpt>
      <trkpt lat="43.3757" lon="5.45142">
        <ele>334.1</ele>
        <time>2021-06-27T06:37:44.000Z</time>
      </trkpt>
      <trkpt lat="43.37585" lon="5.45159">
        <ele>334.5</ele>
        <time>2021-06-27T06:37:52.000Z</time>
      </trkpt>
      <trkpt lat="43.37596" lon="5.45181">
        <ele>335.35</ele>
        <time>2021-06-27T06:38:01.000Z</time>
      </trkpt>
      <trkpt lat="43.37598" lon="5.45206">
        <ele>336.76</ele>
        <time>2021-06-27T06:38:09.000Z</time>
      </trkpt>
      <trkpt lat="43.37593" lon="5.45232">
        <ele>338.78</ele>
        <time>2021-06-27T06:38:19.000Z</time>
      </trkpt>
      <trkpt lat="43.3758" lon="5.4525">
        <ele>338.74</ele>
        <time>2021-06-27T06:38:28.000Z</time>
      </trkpt>
      <trkpt lat="43.37566" lon="5.4527">
        <ele>338.63</ele>
        <time>2021-06-27T06:38:35.000Z</time>
      </trkpt>
      <trkpt lat="43.37554" lon="5.4529">
        <ele>337.82</ele>
        <time>2021-06-27T06:38:42.000Z</time>
      </trkpt>
      <trkpt lat="43.37537" lon="5.45303">
        <ele>337.13</ele>
        <time>2021-06-27T06:38:47.000Z</time>
      </trkpt>
      <trkpt lat="43.3752" lon="5.45315">
        <ele>335.8</ele>
        <time>2021-06-27T06:38:53.000Z</time>
      </trkpt>
      <trkpt lat="43.37502" lon="5.45328">
        <ele>334.04</ele>
        <time>2021-06-27T06:38:59.000Z</time>
      </trkpt>
      <trkpt lat="43.37484" lon="5.45334">
        <ele>331.77</ele>
        <time>2021-06-27T06:39:04.000Z</time>
      </trkpt>
      <trkpt lat="43.37464" lon="5.45334">
        <ele>329.05</ele>
        <time>2021-06-27T06:39:11.000Z</time>
      </trkpt>
      <trkpt lat="43.37445" lon="5.45335">
        <ele>326.41</ele>
        <time>2021-06-27T06:39:16.000Z</time>
      </trkpt>
      <trkpt lat="43.37424" lon="5.45331">
        <ele>325.58</ele>
        <time>2021-06-27T06:39:21.000Z</time>
      </trkpt>
      <trkpt lat="43.37406" lon="5.45324">
        <ele>324.11</ele>
        <time>2021-06-27T06:39:27.000Z</time>
      </trkpt>
      <trkpt lat="43.3742" lon="5.45343">
        <ele>322.65</ele>
        <time>2021-06-27T06:39:38.000Z</time>
      </trkpt>
      <trkpt lat="43.37436" lon="5.45355">
        <ele>321.1</ele>
        <time>2021-06-27T06:39:44.000Z</time>
      </trkpt>
      <trkpt lat="43.37456" lon="5.45366">
        <ele>318.45</ele>
        <time>2021-06-27T06:39:50.000Z</time>
      </trkpt>
      <trkpt lat="43.37475" lon="5.45378">
        <ele>317.44</ele>
        <time>2021-06-27T06:39:55.000Z</time>
      </trkpt>
      <trkpt lat="43.37492" lon="5.45387">
        <ele>319.45</ele>
        <time>2021-06-27T06:40:02.000Z</time>
      </trkpt>
      <trkpt lat="43.37511" lon="5.45382">
        <ele>320.97</ele>
        <time>2021-06-27T06:40:11.000Z</time>
      </trkpt>
      <trkpt lat="43.37529" lon="5.45374">
        <ele>321.23</ele>
        <time>2021-06-27T06:40:19.000Z</time>
      </trkpt>
      <trkpt lat="43.37546" lon="5.45366">
        <ele>321.44</ele>
        <time>2021-06-27T06:40:26.000Z</time>
      </trkpt>
      <trkpt lat="43.37563" lon="5.45355">
        <ele>322.3</ele>
        <time>2021-06-27T06:40:34.000Z</time>
      </trkpt>
      <trkpt lat="43.3758" lon="5.45348">
        <ele>322.56</ele>
        <time>2021-06-27T06:40:41.000Z</time>
      </trkpt>
      <trkpt lat="43.37601" lon="5.45349">
        <ele>322.58</ele>
        <time>2021-06-27T06:40:49.000Z</time>
      </trkpt>
      <trkpt lat="43.3762" lon="5.4535">
        <ele>323.47</ele>
        <time>2021-06-27T06:40:57.000Z</time>
      </trkpt>
      <trkpt lat="43.37641" lon="5.45353">
        <ele>322.17</ele>
        <time>2021-06-27T06:41:05.000Z</time>
      </trkpt>
      <trkpt lat="43.3766" lon="5.45354">
        <ele>322.18</ele>
        <time>2021-06-27T06:41:11.000Z</time>
      </trkpt>
      <trkpt lat="43.37678" lon="5.45356">
        <ele>321.33</ele>
        <time>2021-06-27T06:41:16.000Z</time>
      </trkpt>
      <trkpt lat="43.37698" lon="5.45362">
        <ele>322.15</ele>
        <time>2021-06-27T06:41:22.000Z</time>
      </trkpt>
      <trkpt lat="43.37717" lon="5.45369">
        <ele>322.46</ele>
        <time>2021-06-27T06:41:29.000Z</time>
      </trkpt>
      <trkpt lat="43.37702" lon="5.45384">
        <ele>317.3</ele>
        <time>2021-06-27T06:41:52.000Z</time>
      </trkpt>
      <trkpt lat="43.37684" lon="5.45388">
        <ele>312.35</ele>
        <time>2021-06-27T06:41:59.000Z</time>
      </trkpt>
      <trkpt lat="43.37665" lon="5.45388">
        <ele>308.97</ele>
        <time>2021-06-27T06:42:08.000Z</time>
      </trkpt>
      <trkpt lat="43.37677" lon="5.45409">
        <ele>307.53</ele>
        <time>2021-06-27T06:42:16.000Z</time>
      </trkpt>
      <trkpt lat="43.37693" lon="5.4542">
        <ele>308.35</ele>
        <time>2021-06-27T06:42:25.000Z</time>
      </trkpt>
      <trkpt lat="43.37712" lon="5.4542">
        <ele>307.13</ele>
        <time>2021-06-27T06:42:38.000Z</time>
      </trkpt>
      <trkpt lat="43.37731" lon="5.45424">
        <ele>308.84</ele>
        <time>2021-06-27T06:42:48.000Z</time>
      </trkpt>
      <trkpt lat="43.37741" lon="5.45402">
        <ele>309.53</ele>
        <time>2021-06-27T06:42:57.000Z</time>
      </trkpt>
      <trkpt lat="43.37759" lon="5.45391">
        <ele>310.93</ele>
        <time>2021-06-27T06:43:05.000Z</time>
      </trkpt>
      <trkpt lat="43.37772" lon="5.45372">
        <ele>312.08</ele>
        <time>2021-06-27T06:43:20.000Z</time>
      </trkpt>
      <trkpt lat="43.37787" lon="5.45357">
        <ele>311.97</ele>
        <time>2021-06-27T06:43:33.000Z</time>
      </trkpt>
      <trkpt lat="43.37805" lon="5.4536">
        <ele>314.5</ele>
        <time>2021-06-27T06:43:46.000Z</time>
      </trkpt>
      <trkpt lat="43.37823" lon="5.45353">
        <ele>316.34</ele>
        <time>2021-06-27T06:43:59.000Z</time>
      </trkpt>
      <trkpt lat="43.37836" lon="5.45335">
        <ele>316.68</ele>
        <time>2021-06-27T06:44:07.000Z</time>
      </trkpt>
      <trkpt lat="43.37853" lon="5.45326">
        <ele>317.53</ele>
        <time>2021-06-27T06:44:17.000Z</time>
      </trkpt>
      <trkpt lat="43.37872" lon="5.4532">
        <ele>317.81</ele>
        <time>2021-06-27T06:44:28.000Z</time>
      </trkpt>
      <trkpt lat="43.3789" lon="5.45312">
        <ele>318.37</ele>
        <time>2021-06-27T06:44:37.000Z</time>
      </trkpt>
      <trkpt lat="43.37909" lon="5.45316">
        <ele>319.41</ele>
        <time>2021-06-27T06:44:47.000Z</time>
      </trkpt>
      <trkpt lat="43.37912" lon="5.45291">
        <ele>322.2</ele>
        <time>2021-06-27T06:46:17.000Z</time>
      </trkpt>
      <trkpt lat="43.37896" lon="5.45276">
        <ele>324.11</ele>
        <time>2021-06-27T06:46:27.000Z</time>
      </trkpt>
      <trkpt lat="43.37881" lon="5.45261">
        <ele>326.5</ele>
        <time>2021-06-27T06:46:37.000Z</time>
      </trkpt>
      <trkpt lat="43.37863" lon="5.4525">
        <ele>329</ele>
        <time>2021-06-27T06:46:49.000Z</time>
      </trkpt>
      <trkpt lat="43.37845" lon="5.45247">
        <ele>331.49</ele>
        <time>2021-06-27T06:47:00.000Z</time>
      </trkpt>
      <trkpt lat="43.37826" lon="5.45247">
        <ele>334.22</ele>
        <time>2021-06-27T06:47:12.000Z</time>
      </trkpt>
      <trkpt lat="43.37807" lon="5.45248">
        <ele>336.68</ele>
        <time>2021-06-27T06:47:23.000Z</time>
      </trkpt>
      <trkpt lat="43.37787" lon="5.45246">
        <ele>339.78</ele>
        <time>2021-06-27T06:47:36.000Z</time>
      </trkpt>
      <trkpt lat="43.37769" lon="5.45242">
        <ele>342.38</ele>
        <time>2021-06-27T06:47:49.000Z</time>
      </trkpt>
      <trkpt lat="43.37779" lon="5.45221">
        <ele>343.6</ele>
        <time>2021-06-27T06:48:13.000Z</time>
      </trkpt>
      <trkpt lat="43.37798" lon="5.45223">
        <ele>344.29</ele>
        <time>2021-06-27T06:48:30.000Z</time>
      </trkpt>
      <trkpt lat="43.37818" lon="5.45219">
        <ele>344.39</ele>
        <time>2021-06-27T06:48:40.000Z</time>
      </trkpt>
      <trkpt lat="43.37836" lon="5.45213">
        <ele>344.87</ele>
        <time>2021-06-27T06:48:47.000Z</time>
      </trkpt>
      <trkpt lat="43.37856" lon="5.45211">
        <ele>344.45</ele>
        <time>2021-06-27T06:48:54.000Z</time>
      </trkpt>
      <trkpt lat="43.37876" lon="5.45213">
        <ele>344.62</ele>
        <time>2021-06-27T06:49:00.000Z</time>
      </trkpt>
      <trkpt lat="43.37896" lon="5.45221">
        <ele>344.4</ele>
        <time>2021-06-27T06:49:06.000Z</time>
      </trkpt>
      <trkpt lat="43.37912" lon="5.45235">
        <ele>344.59</ele>
        <time>2021-06-27T06:49:12.000Z</time>
      </trkpt>
      <trkpt lat="43.37929" lon="5.45245">
        <ele>344.22</ele>
        <time>2021-06-27T06:49:18.000Z</time>
      </trkpt>
      <trkpt lat="43.37947" lon="5.45254">
        <ele>343.72</ele>
        <time>2021-06-27T06:49:23.000Z</time>
      </trkpt>
      <trkpt lat="43.37965" lon="5.45265">
        <ele>343.63</ele>
        <time>2021-06-27T06:49:28.000Z</time>
      </trkpt>
      <trkpt lat="43.3798" lon="5.45283">
        <ele>344.45</ele>
        <time>2021-06-27T06:49:34.000Z</time>
      </trkpt>
      <trkpt lat="43.37988" lon="5.45306">
        <ele>344.69</ele>
        <time>2021-06-27T06:49:40.000Z</time>
      </trkpt>
      <trkpt lat="43.38" lon="5.45328">
        <ele>344.39</ele>
        <time>2021-06-27T06:49:45.000Z</time>
      </trkpt>
      <trkpt lat="43.38013" lon="5.45349">
        <ele>344.94</ele>
        <time>2021-06-27T06:49:51.000Z</time>
      </trkpt>
      <trkpt lat="43.38029" lon="5.45367">
        <ele>344.67</ele>
        <time>2021-06-27T06:49:57.000Z</time>
      </trkpt>
      <trkpt lat="43.3804" lon="5.45391">
        <ele>345.03</ele>
        <time>2021-06-27T06:50:03.000Z</time>
      </trkpt>
      <trkpt lat="43.38051" lon="5.4541">
        <ele>345.61</ele>
        <time>2021-06-27T06:50:09.000Z</time>
      </trkpt>
      <trkpt lat="43.38065" lon="5.45431">
        <ele>345.79</ele>
        <time>2021-06-27T06:50:15.000Z</time>
      </trkpt>
      <trkpt lat="43.38079" lon="5.45451">
        <ele>345.38</ele>
        <time>2021-06-27T06:50:21.000Z</time>
      </trkpt>
      <trkpt lat="43.38096" lon="5.45463">
        <ele>345.05</ele>
        <time>2021-06-27T06:50:26.000Z</time>
      </trkpt>
      <trkpt lat="43.38116" lon="5.45462">
        <ele>344.89</ele>
        <time>2021-06-27T06:50:31.000Z</time>
      </trkpt>
      <trkpt lat="43.38135" lon="5.45457">
        <ele>344.79</ele>
        <time>2021-06-27T06:50:36.000Z</time>
      </trkpt>
      <trkpt lat="43.38153" lon="5.45451">
        <ele>344.59</ele>
        <time>2021-06-27T06:50:41.000Z</time>
      </trkpt>
      <trkpt lat="43.38174" lon="5.45442">
        <ele>344.33</ele>
        <time>2021-06-27T06:50:46.000Z</time>
      </trkpt>
      <trkpt lat="43.38191" lon="5.45425">
        <ele>344.02</ele>
        <time>2021-06-27T06:50:51.000Z</time>
      </trkpt>
      <trkpt lat="43.38207" lon="5.45408">
        <ele>344.09</ele>
        <time>2021-06-27T06:50:56.000Z</time>
      </trkpt>
      <trkpt lat="43.38224" lon="5.45393">
        <ele>343.66</ele>
        <time>2021-06-27T06:51:01.000Z</time>
      </trkpt>
      <trkpt lat="43.38239" lon="5.4538">
        <ele>343.62</ele>
        <time>2021-06-27T06:51:05.000Z</time>
      </trkpt>
      <trkpt lat="43.38254" lon="5.45359">
        <ele>343.8</ele>
        <time>2021-06-27T06:51:11.000Z</time>
      </trkpt>
      <trkpt lat="43.38272" lon="5.45351">
        <ele>343.92</ele>
        <time>2021-06-27T06:51:17.000Z</time>
      </trkpt>
      <trkpt lat="43.38285" lon="5.45332">
        <ele>345.5</ele>
        <time>2021-06-27T06:51:27.000Z</time>
      </trkpt>
      <trkpt lat="43.383" lon="5.45318">
        <ele>346.97</ele>
        <time>2021-06-27T06:51:39.000Z</time>
      </trkpt>
      <trkpt lat="43.38317" lon="5.45309">
        <ele>348.23</ele>
        <time>2021-06-27T06:51:48.000Z</time>
      </trkpt>
      <trkpt lat="43.38336" lon="5.45302">
        <ele>349.68</ele>
        <time>2021-06-27T06:51:58.000Z</time>
      </trkpt>
      <trkpt lat="43.38355" lon="5.45303">
        <ele>351.55</ele>
        <time>2021-06-27T06:52:07.000Z</time>
      </trkpt>
      <trkpt lat="43.38371" lon="5.45293">
        <ele>352.79</ele>
        <time>2021-06-27T06:52:16.000Z</time>
      </trkpt>
      <trkpt lat="43.38385" lon="5.45273">
        <ele>353.4</ele>
        <time>2021-06-27T06:52:25.000Z</time>
      </trkpt>
      <trkpt lat="43.38401" lon="5.45256">
        <ele>353.11</ele>
        <time>2021-06-27T06:52:32.000Z</time>
      </trkpt>
      <trkpt lat="43.3842" lon="5.45245">
        <ele>353.7</ele>
        <time>2021-06-27T06:52:40.000Z</time>
      </trkpt>
      <trkpt lat="43.38437" lon="5.45236">
        <ele>354.64</ele>
        <time>2021-06-27T06:52:49.000Z</time>
      </trkpt>
      <trkpt lat="43.38455" lon="5.45225">
        <ele>355.4</ele>
        <time>2021-06-27T06:52:59.000Z</time>
      </trkpt>
      <trkpt lat="43.38473" lon="5.45219">
        <ele>356.76</ele>
        <time>2021-06-27T06:53:09.000Z</time>
      </trkpt>
      <trkpt lat="43.38492" lon="5.45224">
        <ele>358.54</ele>
        <time>2021-06-27T06:53:20.000Z</time>
      </trkpt>
      <trkpt lat="43.3851" lon="5.4522">
        <ele>359.16</ele>
        <time>2021-06-27T06:53:30.000Z</time>
      </trkpt>
      <trkpt lat="43.38529" lon="5.45215">
        <ele>359.84</ele>
        <time>2021-06-27T06:53:40.000Z</time>
      </trkpt>
      <trkpt lat="43.38545" lon="5.45206">
        <ele>360.6</ele>
        <time>2021-06-27T06:53:49.000Z</time>
      </trkpt>
      <trkpt lat="43.38563" lon="5.45196">
        <ele>361.62</ele>
        <time>2021-06-27T06:53:59.000Z</time>
      </trkpt>
      <trkpt lat="43.38581" lon="5.4519">
        <ele>362.59</ele>
        <time>2021-06-27T06:54:09.000Z</time>
      </trkpt>
      <trkpt lat="43.38598" lon="5.4518">
        <ele>364.14</ele>
        <time>2021-06-27T06:54:19.000Z</time>
      </trkpt>
      <trkpt lat="43.38613" lon="5.45165">
        <ele>364.92</ele>
        <time>2021-06-27T06:54:28.000Z</time>
      </trkpt>
      <trkpt lat="43.38628" lon="5.4515">
        <ele>365.36</ele>
        <time>2021-06-27T06:54:37.000Z</time>
      </trkpt>
      <trkpt lat="43.38644" lon="5.4514">
        <ele>366.55</ele>
        <time>2021-06-27T06:54:46.000Z</time>
      </trkpt>
      <trkpt lat="43.38663" lon="5.45138">
        <ele>367.98</ele>
        <time>2021-06-27T06:54:58.000Z</time>
      </trkpt>
      <trkpt lat="43.38682" lon="5.45132">
        <ele>368.78</ele>
        <time>2021-06-27T06:55:07.000Z</time>
      </trkpt>
      <trkpt lat="43.38701" lon="5.45129">
        <ele>369.86</ele>
        <time>2021-06-27T06:55:18.000Z</time>
      </trkpt>
      <trkpt lat="43.3872" lon="5.45124">
        <ele>371.41</ele>
        <time>2021-06-27T06:55:30.000Z</time>
      </trkpt>
      <trkpt lat="43.38739" lon="5.45117">
        <ele>372.94</ele>
        <time>2021-06-27T06:55:40.000Z</time>
      </trkpt>
      <trkpt lat="43.38757" lon="5.45108">
        <ele>373.98</ele>
        <time>2021-06-27T06:55:50.000Z</time>
      </trkpt>
      <trkpt lat="43.38774" lon="5.45097">
        <ele>375.04</ele>
        <time>2021-06-27T06:56:00.000Z</time>
      </trkpt>
      <trkpt lat="43.38791" lon="5.45086">
        <ele>375.92</ele>
        <time>2021-06-27T06:56:10.000Z</time>
      </trkpt>
      <trkpt lat="43.38807" lon="5.45072">
        <ele>376.74</ele>
        <time>2021-06-27T06:56:21.000Z</time>
      </trkpt>
      <trkpt lat="43.38822" lon="5.45058">
        <ele>377.42</ele>
        <time>2021-06-27T06:56:31.000Z</time>
      </trkpt>
      <trkpt lat="43.38834" lon="5.45038">
        <ele>377.79</ele>
        <time>2021-06-27T06:56:40.000Z</time>
      </trkpt>
      <trkpt lat="43.38847" lon="5.45018">
        <ele>379.3</ele>
        <time>2021-06-27T06:56:51.000Z</time>
      </trkpt>
      <trkpt lat="43.38863" lon="5.45003">
        <ele>380.53</ele>
        <time>2021-06-27T06:57:01.000Z</time>
      </trkpt>
      <trkpt lat="43.3888" lon="5.44993">
        <ele>381.96</ele>
        <time>2021-06-27T06:57:11.000Z</time>
      </trkpt>
      <trkpt lat="43.38895" lon="5.44977">
        <ele>382.96</ele>
        <time>2021-06-27T06:57:22.000Z</time>
      </trkpt>
      <trkpt lat="43.38909" lon="5.4496">
        <ele>383.72</ele>
        <time>2021-06-27T06:57:32.000Z</time>
      </trkpt>
      <trkpt lat="43.38923" lon="5.44942">
        <ele>385</ele>
        <time>2021-06-27T06:57:43.000Z</time>
      </trkpt>
      <trkpt lat="43.38939" lon="5.4493">
        <ele>388.3</ele>
        <time>2021-06-27T06:57:56.000Z</time>
      </trkpt>
      <trkpt lat="43.38953" lon="5.44913">
        <ele>390.82</ele>
        <time>2021-06-27T06:58:08.000Z</time>
      </trkpt>
      <trkpt lat="43.38963" lon="5.4489">
        <ele>393.62</ele>
        <time>2021-06-27T06:58:20.000Z</time>
      </trkpt>
      <trkpt lat="43.38978" lon="5.44874">
        <ele>396.18</ele>
        <time>2021-06-27T06:58:33.000Z</time>
      </trkpt>
      <trkpt lat="43.38996" lon="5.44866">
        <ele>397.29</ele>
        <time>2021-06-27T06:58:46.000Z</time>
      </trkpt>
      <trkpt lat="43.39014" lon="5.44856">
        <ele>397.69</ele>
        <time>2021-06-27T06:59:15.000Z</time>
      </trkpt>
      <trkpt lat="43.39032" lon="5.44847">
        <ele>398.13</ele>
        <time>2021-06-27T06:59:26.000Z</time>
      </trkpt>
      <trkpt lat="43.3905" lon="5.44839">
        <ele>398.82</ele>
        <time>2021-06-27T07:06:37.000Z</time>
      </trkpt>
      <trkpt lat="43.39069" lon="5.44833">
        <ele>400.73</ele>
        <time>2021-06-27T07:06:48.000Z</time>
      </trkpt>
      <trkpt lat="43.39087" lon="5.44827">
        <ele>403.88</ele>
        <time>2021-06-27T07:06:59.000Z</time>
      </trkpt>
      <trkpt lat="43.39067" lon="5.4482">
        <ele>406.04</ele>
        <time>2021-06-27T07:07:20.000Z</time>
      </trkpt>
      <trkpt lat="43.39048" lon="5.44817">
        <ele>406.33</ele>
        <time>2021-06-27T07:07:27.000Z</time>
      </trkpt>
      <trkpt lat="43.39033" lon="5.44802">
        <ele>407.06</ele>
        <time>2021-06-27T07:07:35.000Z</time>
      </trkpt>
      <trkpt lat="43.39022" lon="5.44825">
        <ele>407.17</ele>
        <time>2021-06-27T07:07:42.000Z</time>
      </trkpt>
      <trkpt lat="43.39004" lon="5.44836">
        <ele>407.61</ele>
        <time>2021-06-27T07:07:48.000Z</time>
      </trkpt>
      <trkpt lat="43.38985" lon="5.44841">
        <ele>408.05</ele>
        <time>2021-06-27T07:07:54.000Z</time>
      </trkpt>
      <trkpt lat="43.38966" lon="5.44851">
        <ele>408.39</ele>
        <time>2021-06-27T07:08:01.000Z</time>
      </trkpt>
      <trkpt lat="43.38946" lon="5.44856">
        <ele>408.76</ele>
        <time>2021-06-27T07:08:08.000Z</time>
      </trkpt>
      <trkpt lat="43.38927" lon="5.44863">
        <ele>409.14</ele>
        <time>2021-06-27T07:08:15.000Z</time>
      </trkpt>
      <trkpt lat="43.3891" lon="5.44876">
        <ele>409.42</ele>
        <time>2021-06-27T07:08:21.000Z</time>
      </trkpt>
      <trkpt lat="43.38893" lon="5.44883">
        <ele>409.69</ele>
        <time>2021-06-27T07:08:27.000Z</time>
      </trkpt>
      <trkpt lat="43.38874" lon="5.44883">
        <ele>410.41</ele>
        <time>2021-06-27T07:08:33.000Z</time>
      </trkpt>
      <trkpt lat="43.38856" lon="5.44891">
        <ele>410.77</ele>
        <time>2021-06-27T07:08:39.000Z</time>
      </trkpt>
      <trkpt lat="43.38851" lon="5.44917">
        <ele>410.66</ele>
        <time>2021-06-27T07:08:45.000Z</time>
      </trkpt>
      <trkpt lat="43.38839" lon="5.44936">
        <ele>411.57</ele>
        <time>2021-06-27T07:08:51.000Z</time>
      </trkpt>
      <trkpt lat="43.38821" lon="5.44948">
        <ele>411.71</ele>
        <time>2021-06-27T07:08:58.000Z</time>
      </trkpt>
      <trkpt lat="43.38804" lon="5.44956">
        <ele>412.41</ele>
        <time>2021-06-27T07:09:04.000Z</time>
      </trkpt>
      <trkpt lat="43.38784" lon="5.44964">
        <ele>412.76</ele>
        <time>2021-06-27T07:09:10.000Z</time>
      </trkpt>
      <trkpt lat="43.38768" lon="5.44978">
        <ele>413.09</ele>
        <time>2021-06-27T07:09:16.000Z</time>
      </trkpt>
      <trkpt lat="43.3875" lon="5.44986">
        <ele>413.23</ele>
        <time>2021-06-27T07:09:22.000Z</time>
      </trkpt>
      <trkpt lat="43.38732" lon="5.44991">
        <ele>413.81</ele>
        <time>2021-06-27T07:09:28.000Z</time>
      </trkpt>
      <trkpt lat="43.38714" lon="5.45">
        <ele>414.15</ele>
        <time>2021-06-27T07:09:34.000Z</time>
      </trkpt>
      <trkpt lat="43.38694" lon="5.45005">
        <ele>415.02</ele>
        <time>2021-06-27T07:09:41.000Z</time>
      </trkpt>
      <trkpt lat="43.38674" lon="5.4501">
        <ele>415.29</ele>
        <time>2021-06-27T07:09:47.000Z</time>
      </trkpt>
      <trkpt lat="43.38655" lon="5.45011">
        <ele>415.32</ele>
        <time>2021-06-27T07:09:53.000Z</time>
      </trkpt>
      <trkpt lat="43.38636" lon="5.45011">
        <ele>415.74</ele>
        <time>2021-06-27T07:09:59.000Z</time>
      </trkpt>
      <trkpt lat="43.38616" lon="5.45013">
        <ele>416.02</ele>
        <time>2021-06-27T07:10:05.000Z</time>
      </trkpt>
      <trkpt lat="43.38595" lon="5.45015">
        <ele>416.41</ele>
        <time>2021-06-27T07:10:11.000Z</time>
      </trkpt>
      <trkpt lat="43.38576" lon="5.4502">
        <ele>416.76</ele>
        <time>2021-06-27T07:10:17.000Z</time>
      </trkpt>
      <trkpt lat="43.38557" lon="5.45024">
        <ele>417.36</ele>
        <time>2021-06-27T07:10:23.000Z</time>
      </trkpt>
      <trkpt lat="43.38539" lon="5.45028">
        <ele>417.59</ele>
        <time>2021-06-27T07:10:29.000Z</time>
      </trkpt>
      <trkpt lat="43.3852" lon="5.45027">
        <ele>418.13</ele>
        <time>2021-06-27T07:10:35.000Z</time>
      </trkpt>
      <trkpt lat="43.38502" lon="5.4502">
        <ele>418.62</ele>
        <time>2021-06-27T07:10:41.000Z</time>
      </trkpt>
      <trkpt lat="43.38485" lon="5.45011">
        <ele>418.98</ele>
        <time>2021-06-27T07:10:47.000Z</time>
      </trkpt>
      <trkpt lat="43.38466" lon="5.45007">
        <ele>418.91</ele>
        <time>2021-06-27T07:10:53.000Z</time>
      </trkpt>
      <trkpt lat="43.38446" lon="5.45005">
        <ele>419.8</ele>
        <time>2021-06-27T07:11:00.000Z</time>
      </trkpt>
      <trkpt lat="43.38426" lon="5.44999">
        <ele>420</ele>
        <time>2021-06-27T07:11:08.000Z</time>
      </trkpt>
      <trkpt lat="43.38432" lon="5.44971">
        <ele>417.98</ele>
        <time>2021-06-27T07:11:14.000Z</time>
      </trkpt>
      <trkpt lat="43.38446" lon="5.44948">
        <ele>417.22</ele>
        <time>2021-06-27T07:11:18.000Z</time>
      </trkpt>
      <trkpt lat="43.38457" lon="5.44919">
        <ele>415.84</ele>
        <time>2021-06-27T07:11:22.000Z</time>
      </trkpt>
      <trkpt lat="43.38461" lon="5.44887">
        <ele>415.97</ele>
        <time>2021-06-27T07:11:26.000Z</time>
      </trkpt>
      <trkpt lat="43.38455" lon="5.44857">
        <ele>414.87</ele>
        <time>2021-06-27T07:11:30.000Z</time>
      </trkpt>
      <trkpt lat="43.38441" lon="5.4483">
        <ele>414.34</ele>
        <time>2021-06-27T07:11:34.000Z</time>
      </trkpt>
      <trkpt lat="43.38431" lon="5.448">
        <ele>413.27</ele>
        <time>2021-06-27T07:11:38.000Z</time>
      </trkpt>
      <trkpt lat="43.38429" lon="5.44772">
        <ele>411.6</ele>
        <time>2021-06-27T07:11:41.000Z</time>
      </trkpt>
      <trkpt lat="43.38433" lon="5.44743">
        <ele>410.65</ele>
        <time>2021-06-27T07:11:44.000Z</time>
      </trkpt>
      <trkpt lat="43.38443" lon="5.44719">
        <ele>410.7</ele>
        <time>2021-06-27T07:11:47.000Z</time>
      </trkpt>
      <trkpt lat="43.38457" lon="5.44693">
        <ele>410.65</ele>
        <time>2021-06-27T07:11:51.000Z</time>
      </trkpt>
      <trkpt lat="43.38469" lon="5.44671">
        <ele>411.55</ele>
        <time>2021-06-27T07:11:56.000Z</time>
      </trkpt>
      <trkpt lat="43.38482" lon="5.44647">
        <ele>412.03</ele>
        <time>2021-06-27T07:12:02.000Z</time>
      </trkpt>
      <trkpt lat="43.38496" lon="5.44624">
        <ele>412.75</ele>
        <time>2021-06-27T07:12:08.000Z</time>
      </trkpt>
      <trkpt lat="43.38511" lon="5.44604">
        <ele>413.05</ele>
        <time>2021-06-27T07:12:14.000Z</time>
      </trkpt>
      <trkpt lat="43.38525" lon="5.44582">
        <ele>413.23</ele>
        <time>2021-06-27T07:12:20.000Z</time>
      </trkpt>
      <trkpt lat="43.38538" lon="5.44563">
        <ele>413.38</ele>
        <time>2021-06-27T07:12:25.000Z</time>
      </trkpt>
      <trkpt lat="43.38523" lon="5.44546">
        <ele>412.98</ele>
        <time>2021-06-27T07:12:31.000Z</time>
      </trkpt>
      <trkpt lat="43.38506" lon="5.44555">
        <ele>412.94</ele>
        <time>2021-06-27T07:12:34.000Z</time>
      </trkpt>
      <trkpt lat="43.38488" lon="5.4456">
        <ele>412.62</ele>
        <time>2021-06-27T07:12:38.000Z</time>
      </trkpt>
      <trkpt lat="43.38467" lon="5.44568">
        <ele>412.27</ele>
        <time>2021-06-27T07:12:43.000Z</time>
      </trkpt>
      <trkpt lat="43.38447" lon="5.44573">
        <ele>412.56</ele>
        <time>2021-06-27T07:12:48.000Z</time>
      </trkpt>
      <trkpt lat="43.38426" lon="5.44575">
        <ele>412.21</ele>
        <time>2021-06-27T07:12:53.000Z</time>
      </trkpt>
      <trkpt lat="43.38406" lon="5.44582">
        <ele>412.12</ele>
        <time>2021-06-27T07:12:58.000Z</time>
      </trkpt>
      <trkpt lat="43.38386" lon="5.44591">
        <ele>411.74</ele>
        <time>2021-06-27T07:13:03.000Z</time>
      </trkpt>
      <trkpt lat="43.38364" lon="5.44591">
        <ele>411.25</ele>
        <time>2021-06-27T07:13:08.000Z</time>
      </trkpt>
      <trkpt lat="43.38352" lon="5.44568">
        <ele>410.81</ele>
        <time>2021-06-27T07:13:13.000Z</time>
      </trkpt>
      <trkpt lat="43.38354" lon="5.44541">
        <ele>410.93</ele>
        <time>2021-06-27T07:13:18.000Z</time>
      </trkpt>
      <trkpt lat="43.38355" lon="5.44513">
        <ele>410.48</ele>
        <time>2021-06-27T07:13:23.000Z</time>
      </trkpt>
      <trkpt lat="43.38353" lon="5.44488">
        <ele>410.54</ele>
        <time>2021-06-27T07:13:27.000Z</time>
      </trkpt>
      <trkpt lat="43.3835" lon="5.44459">
        <ele>410.3</ele>
        <time>2021-06-27T07:13:32.000Z</time>
      </trkpt>
      <trkpt lat="43.38346" lon="5.44435">
        <ele>410.29</ele>
        <time>2021-06-27T07:13:36.000Z</time>
      </trkpt>
      <trkpt lat="43.38342" lon="5.44409">
        <ele>410</ele>
        <time>2021-06-27T07:13:40.000Z</time>
      </trkpt>
      <trkpt lat="43.38329" lon="5.44387">
        <ele>409.58</ele>
        <time>2021-06-27T07:13:44.000Z</time>
      </trkpt>
      <trkpt lat="43.38312" lon="5.44376">
        <ele>409.41</ele>
        <time>2021-06-27T07:13:48.000Z</time>
      </trkpt>
      <trkpt lat="43.38293" lon="5.44376">
        <ele>409.31</ele>
        <time>2021-06-27T07:13:52.000Z</time>
      </trkpt>
      <trkpt lat="43.38274" lon="5.44382">
        <ele>409.28</ele>
        <time>2021-06-27T07:13:56.000Z</time>
      </trkpt>
      <trkpt lat="43.38258" lon="5.44394">
        <ele>409.17</ele>
        <time>2021-06-27T07:14:00.000Z</time>
      </trkpt>
      <trkpt lat="43.38237" lon="5.44404">
        <ele>408.74</ele>
        <time>2021-06-27T07:14:05.000Z</time>
      </trkpt>
      <trkpt lat="43.38216" lon="5.44399">
        <ele>408.53</ele>
        <time>2021-06-27T07:14:10.000Z</time>
      </trkpt>
      <trkpt lat="43.382" lon="5.44378">
        <ele>408.23</ele>
        <time>2021-06-27T07:14:15.000Z</time>
      </trkpt>
      <trkpt lat="43.38191" lon="5.4435">
        <ele>407.42</ele>
        <time>2021-06-27T07:14:20.000Z</time>
      </trkpt>
      <trkpt lat="43.3819" lon="5.44319">
        <ele>406.97</ele>
        <time>2021-06-27T07:14:25.000Z</time>
      </trkpt>
      <trkpt lat="43.38195" lon="5.44292">
        <ele>406.62</ele>
        <time>2021-06-27T07:14:30.000Z</time>
      </trkpt>
      <trkpt lat="43.38202" lon="5.44264">
        <ele>405.98</ele>
        <time>2021-06-27T07:14:35.000Z</time>
      </trkpt>
      <trkpt lat="43.38201" lon="5.44235">
        <ele>405.73</ele>
        <time>2021-06-27T07:14:40.000Z</time>
      </trkpt>
      <trkpt lat="43.38194" lon="5.44206">
        <ele>405.28</ele>
        <time>2021-06-27T07:14:45.000Z</time>
      </trkpt>
      <trkpt lat="43.38182" lon="5.44186">
        <ele>405.17</ele>
        <time>2021-06-27T07:14:49.000Z</time>
      </trkpt>
      <trkpt lat="43.38161" lon="5.4418">
        <ele>404.79</ele>
        <time>2021-06-27T07:14:54.000Z</time>
      </trkpt>
      <trkpt lat="43.38141" lon="5.44187">
        <ele>404.62</ele>
        <time>2021-06-27T07:14:59.000Z</time>
      </trkpt>
      <trkpt lat="43.38122" lon="5.44188">
        <ele>404.17</ele>
        <time>2021-06-27T07:15:04.000Z</time>
      </trkpt>
      <trkpt lat="43.38103" lon="5.44187">
        <ele>404.25</ele>
        <time>2021-06-27T07:25:56.000Z</time>
      </trkpt>
      <trkpt lat="43.38089" lon="5.44204">
        <ele>402.51</ele>
        <time>2021-06-27T07:26:00.000Z</time>
      </trkpt>
      <trkpt lat="43.38073" lon="5.44219">
        <ele>398.71</ele>
        <time>2021-06-27T07:26:05.000Z</time>
      </trkpt>
      <trkpt lat="43.3806" lon="5.44242">
        <ele>395.88</ele>
        <time>2021-06-27T07:26:11.000Z</time>
      </trkpt>
      <trkpt lat="43.38049" lon="5.44264">
        <ele>392.01</ele>
        <time>2021-06-27T07:26:16.000Z</time>
      </trkpt>
      <trkpt lat="43.38036" lon="5.44286">
        <ele>387.65</ele>
        <time>2021-06-27T07:26:22.000Z</time>
      </trkpt>
      <trkpt lat="43.38022" lon="5.44305">
        <ele>382.85</ele>
        <time>2021-06-27T07:26:27.000Z</time>
      </trkpt>
      <trkpt lat="43.38015" lon="5.4433">
        <ele>379.35</ele>
        <time>2021-06-27T07:26:32.000Z</time>
      </trkpt>
      <trkpt lat="43.38003" lon="5.44351">
        <ele>376.44</ele>
        <time>2021-06-27T07:26:37.000Z</time>
      </trkpt>
      <trkpt lat="43.37986" lon="5.44368">
        <ele>373.91</ele>
        <time>2021-06-27T07:26:43.000Z</time>
      </trkpt>
      <trkpt lat="43.37966" lon="5.44373">
        <ele>370.4</ele>
        <time>2021-06-27T07:26:48.000Z</time>
      </trkpt>
      <trkpt lat="43.37953" lon="5.44391">
        <ele>369.13</ele>
        <time>2021-06-27T07:26:52.000Z</time>
      </trkpt>
      <trkpt lat="43.37939" lon="5.44409">
        <ele>368.16</ele>
        <time>2021-06-27T07:26:57.000Z</time>
      </trkpt>
      <trkpt lat="43.3792" lon="5.44411">
        <ele>366.43</ele>
        <time>2021-06-27T07:27:02.000Z</time>
      </trkpt>
      <trkpt lat="43.37903" lon="5.444">
        <ele>361.84</ele>
        <time>2021-06-27T07:27:14.000Z</time>
      </trkpt>
      <trkpt lat="43.37897" lon="5.44373">
        <ele>359.03</ele>
        <time>2021-06-27T07:27:21.000Z</time>
      </trkpt>
      <trkpt lat="43.37891" lon="5.44347">
        <ele>356.37</ele>
        <time>2021-06-27T07:27:28.000Z</time>
      </trkpt>
      <trkpt lat="43.37883" lon="5.44323">
        <ele>352.8</ele>
        <time>2021-06-27T07:27:35.000Z</time>
      </trkpt>
      <trkpt lat="43.37881" lon="5.44296">
        <ele>349.97</ele>
        <time>2021-06-27T07:27:43.000Z</time>
      </trkpt>
      <trkpt lat="43.3788" lon="5.4427">
        <ele>348.43</ele>
        <time>2021-06-27T07:27:50.000Z</time>
      </trkpt>
      <trkpt lat="43.37865" lon="5.44253">
        <ele>348.27</ele>
        <time>2021-06-27T07:27:55.000Z</time>
      </trkpt>
      <trkpt lat="43.37848" lon="5.44239">
        <ele>347.48</ele>
        <time>2021-06-27T07:28:01.000Z</time>
      </trkpt>
      <trkpt lat="43.37829" lon="5.44232">
        <ele>345.08</ele>
        <time>2021-06-27T07:28:08.000Z</time>
      </trkpt>
      <trkpt lat="43.37811" lon="5.44228">
        <ele>341.94</ele>
        <time>2021-06-27T07:28:14.000Z</time>
      </trkpt>
      <trkpt lat="43.37793" lon="5.4422">
        <ele>338.56</ele>
        <time>2021-06-27T07:28:20.000Z</time>
      </trkpt>
      <trkpt lat="43.37788" lon="5.44192">
        <ele>336.19</ele>
        <time>2021-06-27T07:28:26.000Z</time>
      </trkpt>
      <trkpt lat="43.37796" lon="5.44165">
        <ele>333.71</ele>
        <time>2021-06-27T07:28:32.000Z</time>
      </trkpt>
      <trkpt lat="43.37805" lon="5.4414">
        <ele>330.41</ele>
        <time>2021-06-27T07:28:37.000Z</time>
      </trkpt>
      <trkpt lat="43.37812" lon="5.44117">
        <ele>326.72</ele>
        <time>2021-06-27T07:28:43.000Z</time>
      </trkpt>
      <trkpt lat="43.37794" lon="5.44117">
        <ele>325.35</ele>
        <time>2021-06-27T07:28:46.000Z</time>
      </trkpt>
      <trkpt lat="43.37777" lon="5.44126">
        <ele>325.16</ele>
        <time>2021-06-27T07:28:49.000Z</time>
      </trkpt>
      <trkpt lat="43.37759" lon="5.44139">
        <ele>325.76</ele>
        <time>2021-06-27T07:28:54.000Z</time>
      </trkpt>
      <trkpt lat="43.37741" lon="5.44149">
        <ele>324.94</ele>
        <time>2021-06-27T07:28:58.000Z</time>
      </trkpt>
      <trkpt lat="43.37723" lon="5.4416">
        <ele>324.75</ele>
        <time>2021-06-27T07:29:02.000Z</time>
      </trkpt>
      <trkpt lat="43.37705" lon="5.44157">
        <ele>324.06</ele>
        <time>2021-06-27T07:29:07.000Z</time>
      </trkpt>
      <trkpt lat="43.37685" lon="5.44158">
        <ele>324.93</ele>
        <time>2021-06-27T07:29:12.000Z</time>
      </trkpt>
      <trkpt lat="43.37666" lon="5.4415">
        <ele>325.34</ele>
        <time>2021-06-27T07:29:18.000Z</time>
      </trkpt>
      <trkpt lat="43.37652" lon="5.44134">
        <ele>324.69</ele>
        <time>2021-06-27T07:29:22.000Z</time>
      </trkpt>
      <trkpt lat="43.37638" lon="5.44114">
        <ele>324.29</ele>
        <time>2021-06-27T07:29:26.000Z</time>
      </trkpt>
      <trkpt lat="43.37629" lon="5.4409">
        <ele>324.64</ele>
        <time>2021-06-27T07:29:31.000Z</time>
      </trkpt>
      <trkpt lat="43.37623" lon="5.44065">
        <ele>325.44</ele>
        <time>2021-06-27T07:29:37.000Z</time>
      </trkpt>
      <trkpt lat="43.37611" lon="5.44046">
        <ele>328.94</ele>
        <time>2021-06-27T07:29:50.000Z</time>
      </trkpt>
      <trkpt lat="43.37596" lon="5.44032">
        <ele>329.28</ele>
        <time>2021-06-27T07:29:58.000Z</time>
      </trkpt>
      <trkpt lat="43.37593" lon="5.44005">
        <ele>329.9</ele>
        <time>2021-06-27T07:30:07.000Z</time>
      </trkpt>
      <trkpt lat="43.37587" lon="5.43979">
        <ele>329.82</ele>
        <time>2021-06-27T07:30:16.000Z</time>
      </trkpt>
      <trkpt lat="43.37587" lon="5.43952">
        <ele>329.51</ele>
        <time>2021-06-27T07:30:23.000Z</time>
      </trkpt>
      <trkpt lat="43.37595" lon="5.43928">
        <ele>328.78</ele>
        <time>2021-06-27T07:30:29.000Z</time>
      </trkpt>
      <trkpt lat="43.3761" lon="5.43907">
        <ele>327.55</ele>
        <time>2021-06-27T07:30:34.000Z</time>
      </trkpt>
      <trkpt lat="43.3762" lon="5.43883">
        <ele>326.88</ele>
        <time>2021-06-27T07:30:39.000Z</time>
      </trkpt>
      <trkpt lat="43.37631" lon="5.4386">
        <ele>324.8</ele>
        <time>2021-06-27T07:30:45.000Z</time>
      </trkpt>
      <trkpt lat="43.3764" lon="5.43837">
        <ele>320.88</ele>
        <time>2021-06-27T07:30:51.000Z</time>
      </trkpt>
      <trkpt lat="43.37622" lon="5.43827">
        <ele>319.39</ele>
        <time>2021-06-27T07:30:57.000Z</time>
      </trkpt>
      <trkpt lat="43.37604" lon="5.43833">
        <ele>319.04</ele>
        <time>2021-06-27T07:31:02.000Z</time>
      </trkpt>
      <trkpt lat="43.37584" lon="5.43841">
        <ele>319.47</ele>
        <time>2021-06-27T07:31:08.000Z</time>
      </trkpt>
      <trkpt lat="43.37566" lon="5.43851">
        <ele>319.89</ele>
        <time>2021-06-27T07:31:14.000Z</time>
      </trkpt>
      <trkpt lat="43.37547" lon="5.43858">
        <ele>319.73</ele>
        <time>2021-06-27T07:31:20.000Z</time>
      </trkpt>
      <trkpt lat="43.3753" lon="5.43871">
        <ele>320.02</ele>
        <time>2021-06-27T07:31:26.000Z</time>
      </trkpt>
      <trkpt lat="43.37512" lon="5.43884">
        <ele>319.97</ele>
        <time>2021-06-27T07:31:33.000Z</time>
      </trkpt>
      <trkpt lat="43.37498" lon="5.43899">
        <ele>320.1</ele>
        <time>2021-06-27T07:31:40.000Z</time>
      </trkpt>
      <trkpt lat="43.3748" lon="5.43914">
        <ele>320.48</ele>
        <time>2021-06-27T07:31:48.000Z</time>
      </trkpt>
      <trkpt lat="43.37464" lon="5.43931">
        <ele>320.09</ele>
        <time>2021-06-27T07:31:54.000Z</time>
      </trkpt>
      <trkpt lat="43.3745" lon="5.43953">
        <ele>320.15</ele>
        <time>2021-06-27T07:31:59.000Z</time>
      </trkpt>
      <trkpt lat="43.37438" lon="5.43976">
        <ele>321.28</ele>
        <time>2021-06-27T07:32:06.000Z</time>
      </trkpt>
      <trkpt lat="43.37425" lon="5.43998">
        <ele>322.47</ele>
        <time>2021-06-27T07:32:12.000Z</time>
      </trkpt>
      <trkpt lat="43.37411" lon="5.44017">
        <ele>323.62</ele>
        <time>2021-06-27T07:32:19.000Z</time>
      </trkpt>
      <trkpt lat="43.37397" lon="5.44034">
        <ele>323.46</ele>
        <time>2021-06-27T07:32:25.000Z</time>
      </trkpt>
      <trkpt lat="43.3738" lon="5.44048">
        <ele>323.52</ele>
        <time>2021-06-27T07:32:31.000Z</time>
      </trkpt>
      <trkpt lat="43.37361" lon="5.44053">
        <ele>323.79</ele>
        <time>2021-06-27T07:32:38.000Z</time>
      </trkpt>
      <trkpt lat="43.37361" lon="5.44028">
        <ele>325.18</ele>
        <time>2021-06-27T07:32:49.000Z</time>
      </trkpt>
      <trkpt lat="43.37376" lon="5.44012">
        <ele>325.86</ele>
        <time>2021-06-27T07:32:56.000Z</time>
      </trkpt>
      <trkpt lat="43.37384" lon="5.43988">
        <ele>327.86</ele>
        <time>2021-06-27T07:33:07.000Z</time>
      </trkpt>
      <trkpt lat="43.37381" lon="5.43963">
        <ele>328.61</ele>
        <time>2021-06-27T07:33:13.000Z</time>
      </trkpt>
      <trkpt lat="43.37382" lon="5.43936">
        <ele>329.32</ele>
        <time>2021-06-27T07:33:20.000Z</time>
      </trkpt>
      <trkpt lat="43.37387" lon="5.4391">
        <ele>329.71</ele>
        <time>2021-06-27T07:33:27.000Z</time>
      </trkpt>
      <trkpt lat="43.37388" lon="5.43885">
        <ele>330.11</ele>
        <time>2021-06-27T07:33:34.000Z</time>
      </trkpt>
      <trkpt lat="43.37391" lon="5.4386">
        <ele>330.77</ele>
        <time>2021-06-27T07:33:42.000Z</time>
      </trkpt>
      <trkpt lat="43.37394" lon="5.43835">
        <ele>331.48</ele>
        <time>2021-06-27T07:33:50.000Z</time>
      </trkpt>
      <trkpt lat="43.37402" lon="5.4381">
        <ele>332.6</ele>
        <time>2021-06-27T07:33:59.000Z</time>
      </trkpt>
      <trkpt lat="43.37411" lon="5.43789">
        <ele>333.48</ele>
        <time>2021-06-27T07:34:13.000Z</time>
      </trkpt>
      <trkpt lat="43.37426" lon="5.4377">
        <ele>333.92</ele>
        <time>2021-06-27T07:34:31.000Z</time>
      </trkpt>
      <trkpt lat="43.37438" lon="5.43752">
        <ele>334.03</ele>
        <time>2021-06-27T07:34:39.000Z</time>
      </trkpt>
      <trkpt lat="43.37452" lon="5.43733">
        <ele>334.43</ele>
        <time>2021-06-27T07:34:48.000Z</time>
      </trkpt>
      <trkpt lat="43.37461" lon="5.43711">
        <ele>334.24</ele>
        <time>2021-06-27T07:34:55.000Z</time>
      </trkpt>
      <trkpt lat="43.37469" lon="5.43688">
        <ele>334.1</ele>
        <time>2021-06-27T07:35:02.000Z</time>
      </trkpt>
      <trkpt lat="43.37476" lon="5.43664">
        <ele>334.13</ele>
        <time>2021-06-27T07:35:11.000Z</time>
      </trkpt>
      <trkpt lat="43.37473" lon="5.43689">
        <ele>335.69</ele>
        <time>2021-06-27T07:35:24.000Z</time>
      </trkpt>
      <trkpt lat="43.37467" lon="5.43714">
        <ele>336.18</ele>
        <time>2021-06-27T07:35:31.000Z</time>
      </trkpt>
      <trkpt lat="43.37463" lon="5.43739">
        <ele>337.74</ele>
        <time>2021-06-27T07:35:39.000Z</time>
      </trkpt>
      <trkpt lat="43.37463" lon="5.43765">
        <ele>340.12</ele>
        <time>2021-06-27T07:35:49.000Z</time>
      </trkpt>
      <trkpt lat="43.37471" lon="5.43787">
        <ele>341.52</ele>
        <time>2021-06-27T07:36:00.000Z</time>
      </trkpt>
      <trkpt lat="43.37488" lon="5.43796">
        <ele>342.04</ele>
        <time>2021-06-27T07:36:27.000Z</time>
      </trkpt>
      <trkpt lat="43.37505" lon="5.43787">
        <ele>344.01</ele>
        <time>2021-06-27T07:46:09.000Z</time>
      </trkpt>
      <trkpt lat="43.3752" lon="5.43771">
        <ele>345.95</ele>
        <time>2021-06-27T07:46:20.000Z</time>
      </trkpt>
      <trkpt lat="43.37537" lon="5.43756">
        <ele>347.34</ele>
        <time>2021-06-27T07:46:30.000Z</time>
      </trkpt>
      <trkpt lat="43.37551" lon="5.4374">
        <ele>348.9</ele>
        <time>2021-06-27T07:46:40.000Z</time>
      </trkpt>
      <trkpt lat="43.37565" lon="5.43725">
        <ele>350.94</ele>
        <time>2021-06-27T07:46:53.000Z</time>
      </trkpt>
      <trkpt lat="43.3758" lon="5.43707">
        <ele>352.71</ele>
        <time>2021-06-27T07:47:04.000Z</time>
      </trkpt>
      <trkpt lat="43.3759" lon="5.43687">
        <ele>354.87</ele>
        <time>2021-06-27T07:47:15.000Z</time>
      </trkpt>
      <trkpt lat="43.37598" lon="5.43664">
        <ele>356.98</ele>
        <time>2021-06-27T07:47:27.000Z</time>
      </trkpt>
      <trkpt lat="43.37607" lon="5.43641">
        <ele>359.24</ele>
        <time>2021-06-27T07:47:42.000Z</time>
      </trkpt>
      <trkpt lat="43.37615" lon="5.43618">
        <ele>361.02</ele>
        <time>2021-06-27T07:47:54.000Z</time>
      </trkpt>
      <trkpt lat="43.37618" lon="5.43592">
        <ele>362.61</ele>
        <time>2021-06-27T07:48:04.000Z</time>
      </trkpt>
      <trkpt lat="43.3763" lon="5.43572">
        <ele>364.85</ele>
        <time>2021-06-27T07:48:16.000Z</time>
      </trkpt>
      <trkpt lat="43.37646" lon="5.43559">
        <ele>366.44</ele>
        <time>2021-06-27T07:48:28.000Z</time>
      </trkpt>
      <trkpt lat="43.37663" lon="5.43545">
        <ele>368.36</ele>
        <time>2021-06-27T07:48:41.000Z</time>
      </trkpt>
      <trkpt lat="43.37678" lon="5.43532">
        <ele>369.44</ele>
        <time>2021-06-27T07:48:52.000Z</time>
      </trkpt>
      <trkpt lat="43.37693" lon="5.43516">
        <ele>370.53</ele>
        <time>2021-06-27T07:49:02.000Z</time>
      </trkpt>
      <trkpt lat="43.3771" lon="5.43506">
        <ele>371.2</ele>
        <time>2021-06-27T07:49:11.000Z</time>
      </trkpt>
      <trkpt lat="43.37726" lon="5.4349">
        <ele>372.24</ele>
        <time>2021-06-27T07:49:20.000Z</time>
      </trkpt>
      <trkpt lat="43.37735" lon="5.43467">
        <ele>373.57</ele>
        <time>2021-06-27T07:49:30.000Z</time>
      </trkpt>
      <trkpt lat="43.37744" lon="5.43444">
        <ele>375.12</ele>
        <time>2021-06-27T07:49:39.000Z</time>
      </trkpt>
      <trkpt lat="43.37755" lon="5.43422">
        <ele>376.86</ele>
        <time>2021-06-27T07:49:49.000Z</time>
      </trkpt>
      <trkpt lat="43.37765" lon="5.43401">
        <ele>378.37</ele>
        <time>2021-06-27T07:49:58.000Z</time>
      </trkpt>
      <trkpt lat="43.37775" lon="5.43377">
        <ele>379.12</ele>
        <time>2021-06-27T07:50:07.000Z</time>
      </trkpt>
      <trkpt lat="43.37783" lon="5.43352">
        <ele>379.93</ele>
        <time>2021-06-27T07:50:16.000Z</time>
      </trkpt>
      <trkpt lat="43.37789" lon="5.43327">
        <ele>381.34</ele>
        <time>2021-06-27T07:50:25.000Z</time>
      </trkpt>
      <trkpt lat="43.37795" lon="5.43303">
        <ele>382.42</ele>
        <time>2021-06-27T07:50:33.000Z</time>
      </trkpt>
      <trkpt lat="43.37802" lon="5.43278">
        <ele>383.5</ele>
        <time>2021-06-27T07:50:42.000Z</time>
      </trkpt>
      <trkpt lat="43.37812" lon="5.43257">
        <ele>384.57</ele>
        <time>2021-06-27T07:50:50.000Z</time>
      </trkpt>
      <trkpt lat="43.37825" lon="5.43239">
        <ele>386.55</ele>
        <time>2021-06-27T07:51:00.000Z</time>
      </trkpt>
      <trkpt lat="43.37837" lon="5.43218">
        <ele>388.06</ele>
        <time>2021-06-27T07:51:10.000Z</time>
      </trkpt>
      <trkpt lat="43.37849" lon="5.43196">
        <ele>390.19</ele>
        <time>2021-06-27T07:51:21.000Z</time>
      </trkpt>
      <trkpt lat="43.37861" lon="5.43176">
        <ele>392.16</ele>
        <time>2021-06-27T07:51:31.000Z</time>
      </trkpt>
      <trkpt lat="43.37872" lon="5.43155">
        <ele>393.67</ele>
        <time>2021-06-27T07:51:40.000Z</time>
      </trkpt>
      <trkpt lat="43.37882" lon="5.43132">
        <ele>395.81</ele>
        <time>2021-06-27T07:51:51.000Z</time>
      </trkpt>
      <trkpt lat="43.37893" lon="5.43109">
        <ele>397.72</ele>
        <time>2021-06-27T07:52:01.000Z</time>
      </trkpt>
      <trkpt lat="43.37904" lon="5.43088">
        <ele>399.41</ele>
        <time>2021-06-27T07:52:11.000Z</time>
      </trkpt>
      <trkpt lat="43.37917" lon="5.43068">
        <ele>401.24</ele>
        <time>2021-06-27T07:52:22.000Z</time>
      </trkpt>
      <trkpt lat="43.37934" lon="5.43053">
        <ele>403.05</ele>
        <time>2021-06-27T07:52:33.000Z</time>
      </trkpt>
      <trkpt lat="43.37952" lon="5.43054">
        <ele>403.93</ele>
        <time>2021-06-27T07:52:42.000Z</time>
      </trkpt>
      <trkpt lat="43.37971" lon="5.43061">
        <ele>405.32</ele>
        <time>2021-06-27T07:52:51.000Z</time>
      </trkpt>
      <trkpt lat="43.3799" lon="5.43063">
        <ele>406.3</ele>
        <time>2021-06-27T07:53:00.000Z</time>
      </trkpt>
      <trkpt lat="43.38008" lon="5.43056">
        <ele>408.62</ele>
        <time>2021-06-27T07:53:11.000Z</time>
      </trkpt>
      <trkpt lat="43.38026" lon="5.43056">
        <ele>409.9</ele>
        <time>2021-06-27T07:57:17.000Z</time>
      </trkpt>
      <trkpt lat="43.38034" lon="5.43033">
        <ele>410.55</ele>
        <time>2021-06-27T08:01:18.000Z</time>
      </trkpt>
      <trkpt lat="43.38045" lon="5.43013">
        <ele>412.33</ele>
        <time>2021-06-27T08:01:29.000Z</time>
      </trkpt>
      <trkpt lat="43.3806" lon="5.42995">
        <ele>414.52</ele>
        <time>2021-06-27T08:01:43.000Z</time>
      </trkpt>
      <trkpt lat="43.38066" lon="5.42971">
        <ele>416.86</ele>
        <time>2021-06-27T08:01:55.000Z</time>
      </trkpt>
      <trkpt lat="43.38061" lon="5.42946">
        <ele>417.87</ele>
        <time>2021-06-27T08:02:05.000Z</time>
      </trkpt>
      <trkpt lat="43.38044" lon="5.42936">
        <ele>420.12</ele>
        <time>2021-06-27T08:02:15.000Z</time>
      </trkpt>
      <trkpt lat="43.38026" lon="5.42928">
        <ele>422.03</ele>
        <time>2021-06-27T08:02:26.000Z</time>
      </trkpt>
      <trkpt lat="43.38008" lon="5.42916">
        <ele>422.39</ele>
        <time>2021-06-27T08:02:35.000Z</time>
      </trkpt>
      <trkpt lat="43.37991" lon="5.42903">
        <ele>423.3</ele>
        <time>2021-06-27T08:02:44.000Z</time>
      </trkpt>
      <trkpt lat="43.37975" lon="5.42893">
        <ele>424.07</ele>
        <time>2021-06-27T08:02:52.000Z</time>
      </trkpt>
      <trkpt lat="43.37958" lon="5.4288">
        <ele>425.05</ele>
        <time>2021-06-27T08:03:01.000Z</time>
      </trkpt>
      <trkpt lat="43.37941" lon="5.42867">
        <ele>426.2</ele>
        <time>2021-06-27T08:03:10.000Z</time>
      </trkpt>
      <trkpt lat="43.37924" lon="5.42854">
        <ele>427.01</ele>
        <time>2021-06-27T08:03:18.000Z</time>
      </trkpt>
      <trkpt lat="43.37909" lon="5.42839">
        <ele>427.56</ele>
        <time>2021-06-27T08:03:26.000Z</time>
      </trkpt>
      <trkpt lat="43.37897" lon="5.42819">
        <ele>428.23</ele>
        <time>2021-06-27T08:03:33.000Z</time>
      </trkpt>
      <trkpt lat="43.37906" lon="5.42795">
        <ele>429.84</ele>
        <time>2021-06-27T08:03:42.000Z</time>
      </trkpt>
      <trkpt lat="43.37923" lon="5.42784">
        <ele>430.81</ele>
        <time>2021-06-27T08:03:49.000Z</time>
      </trkpt>
      <trkpt lat="43.37939" lon="5.42774">
        <ele>432.49</ele>
        <time>2021-06-27T08:03:57.000Z</time>
      </trkpt>
      <trkpt lat="43.37955" lon="5.42758">
        <ele>433.98</ele>
        <time>2021-06-27T08:04:06.000Z</time>
      </trkpt>
      <trkpt lat="43.37966" lon="5.42736">
        <ele>435.03</ele>
        <time>2021-06-27T08:04:16.000Z</time>
      </trkpt>
      <trkpt lat="43.37975" lon="5.4271">
        <ele>435.92</ele>
        <time>2021-06-27T08:04:24.000Z</time>
      </trkpt>
      <trkpt lat="43.37983" lon="5.42688">
        <ele>436.52</ele>
        <time>2021-06-27T08:04:31.000Z</time>
      </trkpt>
      <trkpt lat="43.3799" lon="5.42661">
        <ele>437.44</ele>
        <time>2021-06-27T08:04:39.000Z</time>
      </trkpt>
      <trkpt lat="43.38001" lon="5.42639">
        <ele>437.57</ele>
        <time>2021-06-27T08:04:46.000Z</time>
      </trkpt>
      <trkpt lat="43.38018" lon="5.42628">
        <ele>438.05</ele>
        <time>2021-06-27T08:04:53.000Z</time>
      </trkpt>
      <trkpt lat="43.38036" lon="5.42617">
        <ele>438.5</ele>
        <time>2021-06-27T08:05:00.000Z</time>
      </trkpt>
      <trkpt lat="43.38053" lon="5.42601">
        <ele>439.47</ele>
        <time>2021-06-27T08:05:08.000Z</time>
      </trkpt>
      <trkpt lat="43.38069" lon="5.42588">
        <ele>439.95</ele>
        <time>2021-06-27T08:05:15.000Z</time>
      </trkpt>
      <trkpt lat="43.38085" lon="5.42572">
        <ele>440.58</ele>
        <time>2021-06-27T08:05:23.000Z</time>
      </trkpt>
      <trkpt lat="43.38088" lon="5.42544">
        <ele>440.36</ele>
        <time>2021-06-27T08:05:30.000Z</time>
      </trkpt>
      <trkpt lat="43.38086" lon="5.42516">
        <ele>441.16</ele>
        <time>2021-06-27T08:05:36.000Z</time>
      </trkpt>
      <trkpt lat="43.3808" lon="5.42488">
        <ele>440.94</ele>
        <time>2021-06-27T08:05:42.000Z</time>
      </trkpt>
      <trkpt lat="43.38067" lon="5.42467">
        <ele>441.09</ele>
        <time>2021-06-27T08:05:47.000Z</time>
      </trkpt>
      <trkpt lat="43.3805" lon="5.4245">
        <ele>441.61</ele>
        <time>2021-06-27T08:05:53.000Z</time>
      </trkpt>
      <trkpt lat="43.38032" lon="5.42435">
        <ele>442.07</ele>
        <time>2021-06-27T08:05:59.000Z</time>
      </trkpt>
      <trkpt lat="43.38014" lon="5.42422">
        <ele>442.73</ele>
        <time>2021-06-27T08:06:05.000Z</time>
      </trkpt>
      <trkpt lat="43.37997" lon="5.42406">
        <ele>442.66</ele>
        <time>2021-06-27T08:06:11.000Z</time>
      </trkpt>
      <trkpt lat="43.3798" lon="5.42393">
        <ele>442.83</ele>
        <time>2021-06-27T08:06:16.000Z</time>
      </trkpt>
      <trkpt lat="43.37963" lon="5.42374">
        <ele>442.48</ele>
        <time>2021-06-27T08:06:21.000Z</time>
      </trkpt>
      <trkpt lat="43.37949" lon="5.42352">
        <ele>442.23</ele>
        <time>2021-06-27T08:06:26.000Z</time>
      </trkpt>
      <trkpt lat="43.37942" lon="5.42326">
        <ele>442.06</ele>
        <time>2021-06-27T08:06:31.000Z</time>
      </trkpt>
      <trkpt lat="43.37946" lon="5.42297">
        <ele>441.91</ele>
        <time>2021-06-27T08:06:36.000Z</time>
      </trkpt>
      <trkpt lat="43.37951" lon="5.4227">
        <ele>442.94</ele>
        <time>2021-06-27T08:06:41.000Z</time>
      </trkpt>
      <trkpt lat="43.37963" lon="5.42248">
        <ele>443.51</ele>
        <time>2021-06-27T08:06:47.000Z</time>
      </trkpt>
      <trkpt lat="43.3798" lon="5.4223">
        <ele>445.78</ele>
        <time>2021-06-27T08:06:54.000Z</time>
      </trkpt>
      <trkpt lat="43.37995" lon="5.42211">
        <ele>446.61</ele>
        <time>2021-06-27T08:07:01.000Z</time>
      </trkpt>
      <trkpt lat="43.38007" lon="5.4219">
        <ele>448.13</ele>
        <time>2021-06-27T08:07:08.000Z</time>
      </trkpt>
      <trkpt lat="43.38016" lon="5.42169">
        <ele>448.93</ele>
        <time>2021-06-27T08:07:15.000Z</time>
      </trkpt>
      <trkpt lat="43.38019" lon="5.42141">
        <ele>449.81</ele>
        <time>2021-06-27T08:07:22.000Z</time>
      </trkpt>
      <trkpt lat="43.3802" lon="5.42114">
        <ele>450.35</ele>
        <time>2021-06-27T08:07:29.000Z</time>
      </trkpt>
      <trkpt lat="43.38021" lon="5.42088">
        <ele>450.35</ele>
        <time>2021-06-27T08:07:35.000Z</time>
      </trkpt>
      <trkpt lat="43.38022" lon="5.42063">
        <ele>450.82</ele>
        <time>2021-06-27T08:07:41.000Z</time>
      </trkpt>
      <trkpt lat="43.38025" lon="5.42036">
        <ele>452.11</ele>
        <time>2021-06-27T08:07:49.000Z</time>
      </trkpt>
      <trkpt lat="43.3804" lon="5.42022">
        <ele>452.8</ele>
        <time>2021-06-27T08:16:17.000Z</time>
      </trkpt>
      <trkpt lat="43.38058" lon="5.42009">
        <ele>453.48</ele>
        <time>2021-06-27T08:16:25.000Z</time>
      </trkpt>
      <trkpt lat="43.38077" lon="5.42008">
        <ele>455.13</ele>
        <time>2021-06-27T08:16:33.000Z</time>
      </trkpt>
      <trkpt lat="43.38095" lon="5.42013">
        <ele>457.12</ele>
        <time>2021-06-27T08:16:41.000Z</time>
      </trkpt>
      <trkpt lat="43.38113" lon="5.42023">
        <ele>458.4</ele>
        <time>2021-06-27T08:16:49.000Z</time>
      </trkpt>
      <trkpt lat="43.3813" lon="5.42033">
        <ele>460.16</ele>
        <time>2021-06-27T08:16:57.000Z</time>
      </trkpt>
      <trkpt lat="43.38147" lon="5.42047">
        <ele>462.09</ele>
        <time>2021-06-27T08:17:06.000Z</time>
      </trkpt>
      <trkpt lat="43.38163" lon="5.42061">
        <ele>463.84</ele>
        <time>2021-06-27T08:17:15.000Z</time>
      </trkpt>
      <trkpt lat="43.38179" lon="5.42077">
        <ele>465.95</ele>
        <time>2021-06-27T08:17:25.000Z</time>
      </trkpt>
      <trkpt lat="43.38199" lon="5.42079">
        <ele>467.22</ele>
        <time>2021-06-27T08:17:33.000Z</time>
      </trkpt>
      <trkpt lat="43.38216" lon="5.42069">
        <ele>468.82</ele>
        <time>2021-06-27T08:17:41.000Z</time>
      </trkpt>
      <trkpt lat="43.38234" lon="5.42061">
        <ele>470.03</ele>
        <time>2021-06-27T08:17:49.000Z</time>
      </trkpt>
      <trkpt lat="43.38253" lon="5.42053">
        <ele>471.63</ele>
        <time>2021-06-27T08:17:58.000Z</time>
      </trkpt>
      <trkpt lat="43.38269" lon="5.42043">
        <ele>473.34</ele>
        <time>2021-06-27T08:18:06.000Z</time>
      </trkpt>
      <trkpt lat="43.38288" lon="5.42041">
        <ele>474.73</ele>
        <time>2021-06-27T08:18:14.000Z</time>
      </trkpt>
      <trkpt lat="43.38305" lon="5.42051">
        <ele>476.74</ele>
        <time>2021-06-27T08:18:22.000Z</time>
      </trkpt>
      <trkpt lat="43.3832" lon="5.42064">
        <ele>478.01</ele>
        <time>2021-06-27T08:18:30.000Z</time>
      </trkpt>
      <trkpt lat="43.38335" lon="5.42078">
        <ele>480.64</ele>
        <time>2021-06-27T08:18:39.000Z</time>
      </trkpt>
      <trkpt lat="43.38349" lon="5.42096">
        <ele>483</ele>
        <time>2021-06-27T08:18:48.000Z</time>
      </trkpt>
      <trkpt lat="43.38362" lon="5.42117">
        <ele>484.88</ele>
        <time>2021-06-27T08:18:58.000Z</time>
      </trkpt>
      <trkpt lat="43.38367" lon="5.42141">
        <ele>487.34</ele>
        <time>2021-06-27T08:19:09.000Z</time>
      </trkpt>
      <trkpt lat="43.38372" lon="5.42166">
        <ele>488.7</ele>
        <time>2021-06-27T08:19:17.000Z</time>
      </trkpt>
      <trkpt lat="43.38378" lon="5.42192">
        <ele>491.4</ele>
        <time>2021-06-27T08:19:28.000Z</time>
      </trkpt>
      <trkpt lat="43.38393" lon="5.42209">
        <ele>493.23</ele>
        <time>2021-06-27T08:19:40.000Z</time>
      </trkpt>
      <trkpt lat="43.3841" lon="5.42197">
        <ele>494.87</ele>
        <time>2021-06-27T08:19:49.000Z</time>
      </trkpt>
      <trkpt lat="43.38425" lon="5.4218">
        <ele>496.35</ele>
        <time>2021-06-27T08:19:59.000Z</time>
      </trkpt>
      <trkpt lat="43.38441" lon="5.42168">
        <ele>497.68</ele>
        <time>2021-06-27T08:20:09.000Z</time>
      </trkpt>
      <trkpt lat="43.38452" lon="5.42147">
        <ele>498.15</ele>
        <time>2021-06-27T08:20:17.000Z</time>
      </trkpt>
      <trkpt lat="43.38455" lon="5.42121">
        <ele>499.38</ele>
        <time>2021-06-27T08:20:26.000Z</time>
      </trkpt>
      <trkpt lat="43.38463" lon="5.42096">
        <ele>500.97</ele>
        <time>2021-06-27T08:20:36.000Z</time>
      </trkpt>
      <trkpt lat="43.38477" lon="5.4208">
        <ele>503</ele>
        <time>2021-06-27T08:20:47.000Z</time>
      </trkpt>
      <trkpt lat="43.3849" lon="5.4206">
        <ele>505.43</ele>
        <time>2021-06-27T08:21:00.000Z</time>
      </trkpt>
      <trkpt lat="43.3849" lon="5.42035">
        <ele>506.75</ele>
        <time>2021-06-27T08:21:11.000Z</time>
      </trkpt>
      <trkpt lat="43.38486" lon="5.42011">
        <ele>508.62</ele>
        <time>2021-06-27T08:21:22.000Z</time>
      </trkpt>
      <trkpt lat="43.38486" lon="5.41985">
        <ele>509.57</ele>
        <time>2021-06-27T08:21:33.000Z</time>
      </trkpt>
      <trkpt lat="43.38491" lon="5.4196">
        <ele>511.18</ele>
        <time>2021-06-27T08:21:45.000Z</time>
      </trkpt>
      <trkpt lat="43.38497" lon="5.41935">
        <ele>513.34</ele>
        <time>2021-06-27T08:21:58.000Z</time>
      </trkpt>
      <trkpt lat="43.38515" lon="5.41928">
        <ele>514.91</ele>
        <time>2021-06-27T08:22:09.000Z</time>
      </trkpt>
      <trkpt lat="43.38533" lon="5.41938">
        <ele>516.65</ele>
        <time>2021-06-27T08:22:21.000Z</time>
      </trkpt>
      <trkpt lat="43.38544" lon="5.41959">
        <ele>518.99</ele>
        <time>2021-06-27T08:22:32.000Z</time>
      </trkpt>
      <trkpt lat="43.38558" lon="5.41974">
        <ele>520.74</ele>
        <time>2021-06-27T08:22:43.000Z</time>
      </trkpt>
      <trkpt lat="43.38578" lon="5.41978">
        <ele>522.32</ele>
        <time>2021-06-27T08:22:55.000Z</time>
      </trkpt>
      <trkpt lat="43.38597" lon="5.41976">
        <ele>523.94</ele>
        <time>2021-06-27T08:23:07.000Z</time>
      </trkpt>
      <trkpt lat="43.38615" lon="5.4197">
        <ele>525.01</ele>
        <time>2021-06-27T08:23:17.000Z</time>
      </trkpt>
      <trkpt lat="43.38633" lon="5.4196">
        <ele>526.52</ele>
        <time>2021-06-27T08:23:27.000Z</time>
      </trkpt>
      <trkpt lat="43.38646" lon="5.41941">
        <ele>526.05</ele>
        <time>2021-06-27T08:27:39.000Z</time>
      </trkpt>
      <trkpt lat="43.38662" lon="5.41922">
        <ele>526.52</ele>
        <time>2021-06-27T08:27:47.000Z</time>
      </trkpt>
      <trkpt lat="43.38677" lon="5.41904">
        <ele>526.45</ele>
        <time>2021-06-27T08:27:54.000Z</time>
      </trkpt>
      <trkpt lat="43.38693" lon="5.41884">
        <ele>526.61</ele>
        <time>2021-06-27T08:28:01.000Z</time>
      </trkpt>
      <trkpt lat="43.38706" lon="5.41867">
        <ele>525.97</ele>
        <time>2021-06-27T08:28:06.000Z</time>
      </trkpt>
      <trkpt lat="43.3872" lon="5.41848">
        <ele>525.04</ele>
        <time>2021-06-27T08:28:11.000Z</time>
      </trkpt>
      <trkpt lat="43.38734" lon="5.41829">
        <ele>524.34</ele>
        <time>2021-06-27T08:28:15.000Z</time>
      </trkpt>
      <trkpt lat="43.38748" lon="5.41807">
        <ele>523.16</ele>
        <time>2021-06-27T08:28:19.000Z</time>
      </trkpt>
      <trkpt lat="43.38766" lon="5.41787">
        <ele>521.78</ele>
        <time>2021-06-27T08:28:23.000Z</time>
      </trkpt>
      <trkpt lat="43.38781" lon="5.41768">
        <ele>520.85</ele>
        <time>2021-06-27T08:28:26.000Z</time>
      </trkpt>
      <trkpt lat="43.38798" lon="5.41748">
        <ele>520.31</ele>
        <time>2021-06-27T08:28:30.000Z</time>
      </trkpt>
      <trkpt lat="43.38813" lon="5.41733">
        <ele>520.1</ele>
        <time>2021-06-27T08:28:34.000Z</time>
      </trkpt>
      <trkpt lat="43.38829" lon="5.4172">
        <ele>520</ele>
        <time>2021-06-27T08:28:40.000Z</time>
      </trkpt>
      <trkpt lat="43.38843" lon="5.41702">
        <ele>521.21</ele>
        <time>2021-06-27T08:28:46.000Z</time>
      </trkpt>
      <trkpt lat="43.38851" lon="5.41678">
        <ele>524.14</ele>
        <time>2021-06-27T08:28:54.000Z</time>
      </trkpt>
      <trkpt lat="43.38855" lon="5.41653">
        <ele>526.25</ele>
        <time>2021-06-27T08:29:03.000Z</time>
      </trkpt>
      <trkpt lat="43.38867" lon="5.41632">
        <ele>527.7</ele>
        <time>2021-06-27T08:29:12.000Z</time>
      </trkpt>
      <trkpt lat="43.38885" lon="5.41627">
        <ele>529.11</ele>
        <time>2021-06-27T08:29:20.000Z</time>
      </trkpt>
      <trkpt lat="43.389" lon="5.41611">
        <ele>530.5</ele>
        <time>2021-06-27T08:29:29.000Z</time>
      </trkpt>
      <trkpt lat="43.38912" lon="5.41591">
        <ele>532.13</ele>
        <time>2021-06-27T08:29:39.000Z</time>
      </trkpt>
      <trkpt lat="43.38922" lon="5.4157">
        <ele>532.33</ele>
        <time>2021-06-27T08:29:49.000Z</time>
      </trkpt>
      <trkpt lat="43.38935" lon="5.41546">
        <ele>531.69</ele>
        <time>2021-06-27T08:29:57.000Z</time>
      </trkpt>
      <trkpt lat="43.38945" lon="5.41522">
        <ele>529.64</ele>
        <time>2021-06-27T08:30:02.000Z</time>
      </trkpt>
      <trkpt lat="43.38945" lon="5.41496">
        <ele>527.89</ele>
        <time>2021-06-27T08:30:06.000Z</time>
      </trkpt>
      <trkpt lat="43.38947" lon="5.41469">
        <ele>526.84</ele>
        <time>2021-06-27T08:30:11.000Z</time>
      </trkpt>
      <trkpt lat="43.38955" lon="5.41446">
        <ele>525.38</ele>
        <time>2021-06-27T08:30:15.000Z</time>
      </trkpt>
      <trkpt lat="43.38965" lon="5.41423">
        <ele>523.66</ele>
        <time>2021-06-27T08:30:19.000Z</time>
      </trkpt>
      <trkpt lat="43.38976" lon="5.41397">
        <ele>520.57</ele>
        <time>2021-06-27T08:30:23.000Z</time>
      </trkpt>
      <trkpt lat="43.3899" lon="5.41371">
        <ele>518.72</ele>
        <time>2021-06-27T08:30:27.000Z</time>
      </trkpt>
      <trkpt lat="43.39004" lon="5.41355">
        <ele>517.76</ele>
        <time>2021-06-27T08:30:30.000Z</time>
      </trkpt>
      <trkpt lat="43.39014" lon="5.41333">
        <ele>517.78</ele>
        <time>2021-06-27T08:30:34.000Z</time>
      </trkpt>
      <trkpt lat="43.39021" lon="5.41308">
        <ele>518.01</ele>
        <time>2021-06-27T08:30:39.000Z</time>
      </trkpt>
      <trkpt lat="43.39023" lon="5.41283">
        <ele>518.38</ele>
        <time>2021-06-27T08:30:44.000Z</time>
      </trkpt>
      <trkpt lat="43.39021" lon="5.41257">
        <ele>517.63</ele>
        <time>2021-06-27T08:30:49.000Z</time>
      </trkpt>
      <trkpt lat="43.39014" lon="5.41226">
        <ele>516.08</ele>
        <time>2021-06-27T08:30:53.000Z</time>
      </trkpt>
      <trkpt lat="43.39005" lon="5.41195">
        <ele>514.97</ele>
        <time>2021-06-27T08:30:57.000Z</time>
      </trkpt>
      <trkpt lat="43.39006" lon="5.41167">
        <ele>515.11</ele>
        <time>2021-06-27T08:31:01.000Z</time>
      </trkpt>
      <trkpt lat="43.39012" lon="5.41142">
        <ele>517.44</ele>
        <time>2021-06-27T08:31:08.000Z</time>
      </trkpt>
      <trkpt lat="43.39015" lon="5.41116">
        <ele>520.17</ele>
        <time>2021-06-27T08:31:17.000Z</time>
      </trkpt>
      <trkpt lat="43.39021" lon="5.41091">
        <ele>522.04</ele>
        <time>2021-06-27T08:31:26.000Z</time>
      </trkpt>
      <trkpt lat="43.39028" lon="5.41067">
        <ele>522.74</ele>
        <time>2021-06-27T08:31:35.000Z</time>
      </trkpt>
      <trkpt lat="43.39031" lon="5.41039">
        <ele>523.8</ele>
        <time>2021-06-27T08:31:44.000Z</time>
      </trkpt>
      <trkpt lat="43.39027" lon="5.41014">
        <ele>525.41</ele>
        <time>2021-06-27T08:31:53.000Z</time>
      </trkpt>
      <trkpt lat="43.3903" lon="5.40986">
        <ele>525.77</ele>
        <time>2021-06-27T08:32:02.000Z</time>
      </trkpt>
      <trkpt lat="43.39036" lon="5.40959">
        <ele>525.74</ele>
        <time>2021-06-27T08:32:10.000Z</time>
      </trkpt>
      <trkpt lat="43.39041" lon="5.40936">
        <ele>526</ele>
        <time>2021-06-27T08:32:17.000Z</time>
      </trkpt>
      <trkpt lat="43.39047" lon="5.40911">
        <ele>527.3</ele>
        <time>2021-06-27T08:32:25.000Z</time>
      </trkpt>
      <trkpt lat="43.39056" lon="5.40887">
        <ele>529.64</ele>
        <time>2021-06-27T08:32:35.000Z</time>
      </trkpt>
      <trkpt lat="43.39063" lon="5.40864">
        <ele>532.29</ele>
        <time>2021-06-27T08:32:44.000Z</time>
      </trkpt>
      <trkpt lat="43.39071" lon="5.40842">
        <ele>533.82</ele>
        <time>2021-06-27T08:32:53.000Z</time>
      </trkpt>
      <trkpt lat="43.3908" lon="5.40818">
        <ele>535.96</ele>
        <time>2021-06-27T08:33:03.000Z</time>
      </trkpt>
      <trkpt lat="43.39094" lon="5.40802">
        <ele>536.2</ele>
        <time>2021-06-27T08:36:06.000Z</time>
      </trkpt>
      <trkpt lat="43.39111" lon="5.40788">
        <ele>533.13</ele>
        <time>2021-06-27T08:36:13.000Z</time>
      </trkpt>
      <trkpt lat="43.39131" lon="5.40775">
        <ele>528.08</ele>
        <time>2021-06-27T08:36:18.000Z</time>
      </trkpt>
      <trkpt lat="43.39147" lon="5.40761">
        <ele>523.25</ele>
        <time>2021-06-27T08:36:23.000Z</time>
      </trkpt>
      <trkpt lat="43.39163" lon="5.40748">
        <ele>520.42</ele>
        <time>2021-06-27T08:36:27.000Z</time>
      </trkpt>
      <trkpt lat="43.39182" lon="5.40731">
        <ele>515.14</ele>
        <time>2021-06-27T08:36:32.000Z</time>
      </trkpt>
      <trkpt lat="43.39198" lon="5.40715">
        <ele>511.78</ele>
        <time>2021-06-27T08:36:36.000Z</time>
      </trkpt>
      <trkpt lat="43.39218" lon="5.40712">
        <ele>507.65</ele>
        <time>2021-06-27T08:36:40.000Z</time>
      </trkpt>
      <trkpt lat="43.39241" lon="5.40717">
        <ele>503.15</ele>
        <time>2021-06-27T08:36:44.000Z</time>
      </trkpt>
      <trkpt lat="43.39259" lon="5.40719">
        <ele>500.3</ele>
        <time>2021-06-27T08:36:47.000Z</time>
      </trkpt>
      <trkpt lat="43.39277" lon="5.40714">
        <ele>498.49</ele>
        <time>2021-06-27T08:36:50.000Z</time>
      </trkpt>
      <trkpt lat="43.39296" lon="5.40708">
        <ele>497.47</ele>
        <time>2021-06-27T08:36:54.000Z</time>
      </trkpt>
      <trkpt lat="43.39318" lon="5.40703">
        <ele>494.59</ele>
        <time>2021-06-27T08:36:59.000Z</time>
      </trkpt>
      <trkpt lat="43.39337" lon="5.407">
        <ele>490.6</ele>
        <time>2021-06-27T08:37:03.000Z</time>
      </trkpt>
      <trkpt lat="43.39357" lon="5.40706">
        <ele>484.85</ele>
        <time>2021-06-27T08:37:07.000Z</time>
      </trkpt>
      <trkpt lat="43.39378" lon="5.40716">
        <ele>478.95</ele>
        <time>2021-06-27T08:37:11.000Z</time>
      </trkpt>
      <trkpt lat="43.39401" lon="5.40712">
        <ele>471.71</ele>
        <time>2021-06-27T08:37:15.000Z</time>
      </trkpt>
      <trkpt lat="43.39421" lon="5.4071">
        <ele>467.45</ele>
        <time>2021-06-27T08:37:19.000Z</time>
      </trkpt>
      <trkpt lat="43.3944" lon="5.40711">
        <ele>463.78</ele>
        <time>2021-06-27T08:37:24.000Z</time>
      </trkpt>
      <trkpt lat="43.3944" lon="5.40686">
        <ele>461.33</ele>
        <time>2021-06-27T08:37:56.000Z</time>
      </trkpt>
      <trkpt lat="43.39422" lon="5.40669">
        <ele>460</ele>
        <time>2021-06-27T08:38:02.000Z</time>
      </trkpt>
      <trkpt lat="43.39409" lon="5.40649">
        <ele>458.4</ele>
        <time>2021-06-27T08:38:06.000Z</time>
      </trkpt>
      <trkpt lat="43.39397" lon="5.40626">
        <ele>456.04</ele>
        <time>2021-06-27T08:38:10.000Z</time>
      </trkpt>
      <trkpt lat="43.39389" lon="5.40601">
        <ele>453.67</ele>
        <time>2021-06-27T08:38:14.000Z</time>
      </trkpt>
      <trkpt lat="43.39381" lon="5.40573">
        <ele>450.94</ele>
        <time>2021-06-27T08:38:18.000Z</time>
      </trkpt>
      <trkpt lat="43.39369" lon="5.40549">
        <ele>448.68</ele>
        <time>2021-06-27T08:38:22.000Z</time>
      </trkpt>
      <trkpt lat="43.39354" lon="5.40535">
        <ele>446.39</ele>
        <time>2021-06-27T08:38:26.000Z</time>
      </trkpt>
      <trkpt lat="43.39337" lon="5.40525">
        <ele>444.55</ele>
        <time>2021-06-27T08:38:30.000Z</time>
      </trkpt>
      <trkpt lat="43.3932" lon="5.40514">
        <ele>442.13</ele>
        <time>2021-06-27T08:38:34.000Z</time>
      </trkpt>
      <trkpt lat="43.39297" lon="5.40506">
        <ele>438.19</ele>
        <time>2021-06-27T08:38:39.000Z</time>
      </trkpt>
      <trkpt lat="43.39275" lon="5.40501">
        <ele>435.23</ele>
        <time>2021-06-27T08:38:43.000Z</time>
      </trkpt>
      <trkpt lat="43.39258" lon="5.40484">
        <ele>432.65</ele>
        <time>2021-06-27T08:38:47.000Z</time>
      </trkpt>
      <trkpt lat="43.39243" lon="5.40469">
        <ele>430.05</ele>
        <time>2021-06-27T08:38:51.000Z</time>
      </trkpt>
      <trkpt lat="43.39223" lon="5.40457">
        <ele>427.37</ele>
        <time>2021-06-27T08:38:56.000Z</time>
      </trkpt>
      <trkpt lat="43.3921" lon="5.40435">
        <ele>424.41</ele>
        <time>2021-06-27T08:39:00.000Z</time>
      </trkpt>
      <trkpt lat="43.39191" lon="5.40427">
        <ele>423.26</ele>
        <time>2021-06-27T08:39:04.000Z</time>
      </trkpt>
      <trkpt lat="43.3917" lon="5.40408">
        <ele>420.23</ele>
        <time>2021-06-27T08:39:08.000Z</time>
      </trkpt>
      <trkpt lat="43.3916" lon="5.40388">
        <ele>420.02</ele>
        <time>2021-06-27T08:39:11.000Z</time>
      </trkpt>
      <trkpt lat="43.39144" lon="5.4037">
        <ele>420.54</ele>
        <time>2021-06-27T08:39:17.000Z</time>
      </trkpt>
      <trkpt lat="43.39125" lon="5.40366">
        <ele>421.83</ele>
        <time>2021-06-27T08:39:24.000Z</time>
      </trkpt>
      <trkpt lat="43.39107" lon="5.40359">
        <ele>422.62</ele>
        <time>2021-06-27T08:39:31.000Z</time>
      </trkpt>
      <trkpt lat="43.39091" lon="5.40343">
        <ele>424.15</ele>
        <time>2021-06-27T08:39:39.000Z</time>
      </trkpt>
      <trkpt lat="43.39076" lon="5.40327">
        <ele>424.6</ele>
        <time>2021-06-27T08:39:46.000Z</time>
      </trkpt>
      <trkpt lat="43.39061" lon="5.40311">
        <ele>424.78</ele>
        <time>2021-06-27T08:39:54.000Z</time>
      </trkpt>
      <trkpt lat="43.39043" lon="5.40298">
        <ele>425.11</ele>
        <time>2021-06-27T08:40:03.000Z</time>
      </trkpt>
      <trkpt lat="43.39025" lon="5.40293">
        <ele>425.28</ele>
        <time>2021-06-27T08:40:11.000Z</time>
      </trkpt>
      <trkpt lat="43.39009" lon="5.40305">
        <ele>426.28</ele>
        <time>2021-06-27T08:40:19.000Z</time>
      </trkpt>
      <trkpt lat="43.38998" lon="5.40325">
        <ele>427.53</ele>
        <time>2021-06-27T08:40:28.000Z</time>
      </trkpt>
      <trkpt lat="43.38988" lon="5.40346">
        <ele>429.82</ele>
        <time>2021-06-27T08:40:39.000Z</time>
      </trkpt>
      <trkpt lat="43.38973" lon="5.40363">
        <ele>431.4</ele>
        <time>2021-06-27T08:40:50.000Z</time>
      </trkpt>
      <trkpt lat="43.38959" lon="5.4038">
        <ele>432.67</ele>
        <time>2021-06-27T08:41:00.000Z</time>
      </trkpt>
      <trkpt lat="43.38943" lon="5.40395">
        <ele>433.86</ele>
        <time>2021-06-27T08:41:09.000Z</time>
      </trkpt>
      <trkpt lat="43.38926" lon="5.40411">
        <ele>435.09</ele>
        <time>2021-06-27T08:41:18.000Z</time>
      </trkpt>
      <trkpt lat="43.38907" lon="5.4042">
        <ele>435.73</ele>
        <time>2021-06-27T08:41:26.000Z</time>
      </trkpt>
      <trkpt lat="43.38889" lon="5.40418">
        <ele>436.36</ele>
        <time>2021-06-27T08:41:33.000Z</time>
      </trkpt>
      <trkpt lat="43.38872" lon="5.40408">
        <ele>437.67</ele>
        <time>2021-06-27T08:41:41.000Z</time>
      </trkpt>
      <trkpt lat="43.38869" lon="5.40433">
        <ele>439.09</ele>
        <time>2021-06-27T08:41:54.000Z</time>
      </trkpt>
      <trkpt lat="43.38879" lon="5.40455">
        <ele>440.21</ele>
        <time>2021-06-27T08:42:02.000Z</time>
      </trkpt>
      <trkpt lat="43.38888" lon="5.40477">
        <ele>440.67</ele>
        <time>2021-06-27T08:42:12.000Z</time>
      </trkpt>
      <trkpt lat="43.38896" lon="5.405">
        <ele>441.98</ele>
        <time>2021-06-27T08:42:22.000Z</time>
      </trkpt>
      <trkpt lat="43.38906" lon="5.40521">
        <ele>443.47</ele>
        <time>2021-06-27T08:42:32.000Z</time>
      </trkpt>
      <trkpt lat="43.38913" lon="5.40545">
        <ele>444.93</ele>
        <time>2021-06-27T08:42:42.000Z</time>
      </trkpt>
      <trkpt lat="43.38915" lon="5.40571">
        <ele>446.13</ele>
        <time>2021-06-27T08:42:52.000Z</time>
      </trkpt>
      <trkpt lat="43.38919" lon="5.40597">
        <ele>447.96</ele>
        <time>2021-06-27T08:43:02.000Z</time>
      </trkpt>
      <trkpt lat="43.38918" lon="5.40623">
        <ele>449.11</ele>
        <time>2021-06-27T08:43:12.000Z</time>
      </trkpt>
      <trkpt lat="43.38918" lon="5.4065">
        <ele>451.1</ele>
        <time>2021-06-27T08:43:23.000Z</time>
      </trkpt>
      <trkpt lat="43.38916" lon="5.40676">
        <ele>452.35</ele>
        <time>2021-06-27T08:43:33.000Z</time>
      </trkpt>
      <trkpt lat="43.38919" lon="5.40702">
        <ele>453.33</ele>
        <time>2021-06-27T08:43:42.000Z</time>
      </trkpt>
      <trkpt lat="43.38923" lon="5.40727">
        <ele>454.85</ele>
        <time>2021-06-27T08:43:51.000Z</time>
      </trkpt>
      <trkpt lat="43.38931" lon="5.4075">
        <ele>456.25</ele>
        <time>2021-06-27T08:44:00.000Z</time>
      </trkpt>
      <trkpt lat="43.38936" lon="5.40776">
        <ele>458.14</ele>
        <time>2021-06-27T08:44:10.000Z</time>
      </trkpt>
      <trkpt lat="43.38935" lon="5.40801">
        <ele>460.01</ele>
        <time>2021-06-27T08:44:19.000Z</time>
      </trkpt>
      <trkpt lat="43.38931" lon="5.40826">
        <ele>462.78</ele>
        <time>2021-06-27T08:44:29.000Z</time>
      </trkpt>
      <trkpt lat="43.38924" lon="5.40849">
        <ele>464.47</ele>
        <time>2021-06-27T08:44:39.000Z</time>
      </trkpt>
      <trkpt lat="43.38913" lon="5.4087">
        <ele>466.16</ele>
        <time>2021-06-27T08:44:49.000Z</time>
      </trkpt>
      <trkpt lat="43.38894" lon="5.40876">
        <ele>468.11</ele>
        <time>2021-06-27T08:44:58.000Z</time>
      </trkpt>
      <trkpt lat="43.38876" lon="5.40881">
        <ele>470.3</ele>
        <time>2021-06-27T08:45:07.000Z</time>
      </trkpt>
      <trkpt lat="43.38862" lon="5.409">
        <ele>472.03</ele>
        <time>2021-06-27T08:45:18.000Z</time>
      </trkpt>
      <trkpt lat="43.38855" lon="5.40924">
        <ele>473.4</ele>
        <time>2021-06-27T08:45:28.000Z</time>
      </trkpt>
      <trkpt lat="43.38851" lon="5.40949">
        <ele>475.62</ele>
        <time>2021-06-27T08:45:38.000Z</time>
      </trkpt>
      <trkpt lat="43.38852" lon="5.40976">
        <ele>477.19</ele>
        <time>2021-06-27T08:45:48.000Z</time>
      </trkpt>
      <trkpt lat="43.38847" lon="5.41">
        <ele>478.08</ele>
        <time>2021-06-27T08:45:56.000Z</time>
      </trkpt>
      <trkpt lat="43.38834" lon="5.4102">
        <ele>478.91</ele>
        <time>2021-06-27T08:46:05.000Z</time>
      </trkpt>
      <trkpt lat="43.38815" lon="5.41018">
        <ele>479.98</ele>
        <time>2021-06-27T08:46:13.000Z</time>
      </trkpt>
      <trkpt lat="43.38798" lon="5.41004">
        <ele>480.45</ele>
        <time>2021-06-27T08:46:36.000Z</time>
      </trkpt>
      <trkpt lat="43.38782" lon="5.4099">
        <ele>481.06</ele>
        <time>2021-06-27T08:46:44.000Z</time>
      </trkpt>
      <trkpt lat="43.38769" lon="5.40973">
        <ele>481.61</ele>
        <time>2021-06-27T08:46:52.000Z</time>
      </trkpt>
      <trkpt lat="43.38755" lon="5.40953">
        <ele>482.28</ele>
        <time>2021-06-27T08:46:59.000Z</time>
      </trkpt>
      <trkpt lat="43.38741" lon="5.40935">
        <ele>482.72</ele>
        <time>2021-06-27T08:47:06.000Z</time>
      </trkpt>
      <trkpt lat="43.38729" lon="5.40915">
        <ele>483.7</ele>
        <time>2021-06-27T08:47:13.000Z</time>
      </trkpt>
      <trkpt lat="43.38715" lon="5.40897">
        <ele>483.95</ele>
        <time>2021-06-27T08:47:20.000Z</time>
      </trkpt>
      <trkpt lat="43.38703" lon="5.40878">
        <ele>484.31</ele>
        <time>2021-06-27T08:47:27.000Z</time>
      </trkpt>
      <trkpt lat="43.3869" lon="5.40856">
        <ele>484.75</ele>
        <time>2021-06-27T08:47:35.000Z</time>
      </trkpt>
      <trkpt lat="43.38676" lon="5.40838">
        <ele>485.12</ele>
        <time>2021-06-27T08:47:42.000Z</time>
      </trkpt>
      <trkpt lat="43.38663" lon="5.4082">
        <ele>485.51</ele>
        <time>2021-06-27T08:47:49.000Z</time>
      </trkpt>
      <trkpt lat="43.38647" lon="5.40805">
        <ele>485.28</ele>
        <time>2021-06-27T08:47:56.000Z</time>
      </trkpt>
      <trkpt lat="43.38629" lon="5.4081">
        <ele>486</ele>
        <time>2021-06-27T08:48:04.000Z</time>
      </trkpt>
      <trkpt lat="43.38614" lon="5.40828">
        <ele>487.44</ele>
        <time>2021-06-27T08:48:12.000Z</time>
      </trkpt>
      <trkpt lat="43.38599" lon="5.40842">
        <ele>487.96</ele>
        <time>2021-06-27T08:48:19.000Z</time>
      </trkpt>
      <trkpt lat="43.38582" lon="5.40854">
        <ele>488.51</ele>
        <time>2021-06-27T08:48:26.000Z</time>
      </trkpt>
      <trkpt lat="43.38565" lon="5.40864">
        <ele>489.07</ele>
        <time>2021-06-27T08:48:33.000Z</time>
      </trkpt>
      <trkpt lat="43.38548" lon="5.40873">
        <ele>489.18</ele>
        <time>2021-06-27T08:48:40.000Z</time>
      </trkpt>
      <trkpt lat="43.38529" lon="5.4088">
        <ele>490</ele>
        <time>2021-06-27T08:48:48.000Z</time>
      </trkpt>
      <trkpt lat="43.38509" lon="5.40882">
        <ele>490.89</ele>
        <time>2021-06-27T08:48:56.000Z</time>
      </trkpt>
      <trkpt lat="43.38489" lon="5.40881">
        <ele>491.44</ele>
        <time>2021-06-27T08:49:04.000Z</time>
      </trkpt>
      <trkpt lat="43.38475" lon="5.409">
        <ele>492.51</ele>
        <time>2021-06-27T08:49:13.000Z</time>
      </trkpt>
      <trkpt lat="43.38468" lon="5.40924">
        <ele>492.49</ele>
        <time>2021-06-27T08:49:21.000Z</time>
      </trkpt>
      <trkpt lat="43.38462" lon="5.4095">
        <ele>492.86</ele>
        <time>2021-06-27T08:49:30.000Z</time>
      </trkpt>
      <trkpt lat="43.38453" lon="5.40975">
        <ele>493.05</ele>
        <time>2021-06-27T08:49:38.000Z</time>
      </trkpt>
      <trkpt lat="43.38442" lon="5.40996">
        <ele>493.68</ele>
        <time>2021-06-27T08:49:46.000Z</time>
      </trkpt>
      <trkpt lat="43.38433" lon="5.41018">
        <ele>493.68</ele>
        <time>2021-06-27T08:49:53.000Z</time>
      </trkpt>
      <trkpt lat="43.38425" lon="5.41042">
        <ele>494.41</ele>
        <time>2021-06-27T08:50:01.000Z</time>
      </trkpt>
      <trkpt lat="43.38437" lon="5.41062">
        <ele>495.26</ele>
        <time>2021-06-27T08:50:10.000Z</time>
      </trkpt>
      <trkpt lat="43.38456" lon="5.41065">
        <ele>495.64</ele>
        <time>2021-06-27T08:50:18.000Z</time>
      </trkpt>
      <trkpt lat="43.38476" lon="5.41066">
        <ele>495.62</ele>
        <time>2021-06-27T08:50:25.000Z</time>
      </trkpt>
      <trkpt lat="43.38495" lon="5.4107">
        <ele>496.44</ele>
        <time>2021-06-27T08:50:32.000Z</time>
      </trkpt>
      <trkpt lat="43.38514" lon="5.41074">
        <ele>496.59</ele>
        <time>2021-06-27T08:50:39.000Z</time>
      </trkpt>
      <trkpt lat="43.38534" lon="5.41075">
        <ele>497.04</ele>
        <time>2021-06-27T08:50:45.000Z</time>
      </trkpt>
      <trkpt lat="43.38554" lon="5.41075">
        <ele>497.13</ele>
        <time>2021-06-27T08:50:51.000Z</time>
      </trkpt>
      <trkpt lat="43.38574" lon="5.41077">
        <ele>497.02</ele>
        <time>2021-06-27T08:50:56.000Z</time>
      </trkpt>
      <trkpt lat="43.38594" lon="5.41082">
        <ele>496.86</ele>
        <time>2021-06-27T08:51:01.000Z</time>
      </trkpt>
      <trkpt lat="43.38611" lon="5.41094">
        <ele>497.25</ele>
        <time>2021-06-27T08:51:06.000Z</time>
      </trkpt>
      <trkpt lat="43.38628" lon="5.41109">
        <ele>497.87</ele>
        <time>2021-06-27T08:51:12.000Z</time>
      </trkpt>
      <trkpt lat="43.38643" lon="5.41129">
        <ele>498.17</ele>
        <time>2021-06-27T08:51:18.000Z</time>
      </trkpt>
      <trkpt lat="43.3865" lon="5.41155">
        <ele>499.05</ele>
        <time>2021-06-27T08:51:24.000Z</time>
      </trkpt>
      <trkpt lat="43.38656" lon="5.41182">
        <ele>499.92</ele>
        <time>2021-06-27T08:51:31.000Z</time>
      </trkpt>
      <trkpt lat="43.38656" lon="5.41207">
        <ele>500.61</ele>
        <time>2021-06-27T08:51:37.000Z</time>
      </trkpt>
      <trkpt lat="43.38657" lon="5.41233">
        <ele>500.89</ele>
        <time>2021-06-27T08:51:43.000Z</time>
      </trkpt>
      <trkpt lat="43.38665" lon="5.41257">
        <ele>501.51</ele>
        <time>2021-06-27T08:51:49.000Z</time>
      </trkpt>
      <trkpt lat="43.38682" lon="5.41272">
        <ele>501.64</ele>
        <time>2021-06-27T08:51:55.000Z</time>
      </trkpt>
      <trkpt lat="43.38702" lon="5.41281">
        <ele>501.51</ele>
        <time>2021-06-27T08:52:01.000Z</time>
      </trkpt>
      <trkpt lat="43.38721" lon="5.41291">
        <ele>501.91</ele>
        <time>2021-06-27T08:52:07.000Z</time>
      </trkpt>
      <trkpt lat="43.38738" lon="5.41303">
        <ele>501.8</ele>
        <time>2021-06-27T08:52:13.000Z</time>
      </trkpt>
      <trkpt lat="43.38753" lon="5.4132">
        <ele>503.09</ele>
        <time>2021-06-27T08:52:20.000Z</time>
      </trkpt>
      <trkpt lat="43.38767" lon="5.41337">
        <ele>504.58</ele>
        <time>2021-06-27T08:52:27.000Z</time>
      </trkpt>
      <trkpt lat="43.38786" lon="5.41337">
        <ele>504.92</ele>
        <time>2021-06-27T08:52:33.000Z</time>
      </trkpt>
      <trkpt lat="43.38804" lon="5.41336">
        <ele>505.69</ele>
        <time>2021-06-27T08:52:39.000Z</time>
      </trkpt>
      <trkpt lat="43.38821" lon="5.41352">
        <ele>506.32</ele>
        <time>2021-06-27T08:52:46.000Z</time>
      </trkpt>
      <trkpt lat="43.38828" lon="5.41376">
        <ele>507.22</ele>
        <time>2021-06-27T08:52:53.000Z</time>
      </trkpt>
      <trkpt lat="43.38829" lon="5.41403">
        <ele>507.91</ele>
        <time>2021-06-27T08:53:01.000Z</time>
      </trkpt>
      <trkpt lat="43.38832" lon="5.41429">
        <ele>508.62</ele>
        <time>2021-06-27T08:53:10.000Z</time>
      </trkpt>
      <trkpt lat="43.3884" lon="5.41453">
        <ele>509.6</ele>
        <time>2021-06-27T08:53:20.000Z</time>
      </trkpt>
      <trkpt lat="43.38851" lon="5.41476">
        <ele>510.12</ele>
        <time>2021-06-27T08:53:30.000Z</time>
      </trkpt>
      <trkpt lat="43.38862" lon="5.41496">
        <ele>511.65</ele>
        <time>2021-06-27T08:53:40.000Z</time>
      </trkpt>
      <trkpt lat="43.38864" lon="5.41522">
        <ele>512.83</ele>
        <time>2021-06-27T08:53:49.000Z</time>
      </trkpt>
      <trkpt lat="43.38859" lon="5.41547">
        <ele>513.85</ele>
        <time>2021-06-27T08:53:58.000Z</time>
      </trkpt>
      <trkpt lat="43.3885" lon="5.4157">
        <ele>514.62</ele>
        <time>2021-06-27T08:54:07.000Z</time>
      </trkpt>
      <trkpt lat="43.38837" lon="5.41588">
        <ele>515.41</ele>
        <time>2021-06-27T08:54:16.000Z</time>
      </trkpt>
      <trkpt lat="43.38829" lon="5.41614">
        <ele>515.45</ele>
        <time>2021-06-27T08:54:25.000Z</time>
      </trkpt>
      <trkpt lat="43.38826" lon="5.41639">
        <ele>515.98</ele>
        <time>2021-06-27T08:54:33.000Z</time>
      </trkpt>
      <trkpt lat="43.38826" lon="5.41664">
        <ele>516.28</ele>
        <time>2021-06-27T08:54:41.000Z</time>
      </trkpt>
      <trkpt lat="43.38821" lon="5.41689">
        <ele>517.09</ele>
        <time>2021-06-27T08:54:49.000Z</time>
      </trkpt>
      <trkpt lat="43.38813" lon="5.41714">
        <ele>517.84</ele>
        <time>2021-06-27T08:54:58.000Z</time>
      </trkpt>
      <trkpt lat="43.3881" lon="5.41739">
        <ele>518.47</ele>
        <time>2021-06-27T08:55:06.000Z</time>
      </trkpt>
      <trkpt lat="43.38793" lon="5.41754">
        <ele>518.43</ele>
        <time>2021-06-27T08:55:13.000Z</time>
      </trkpt>
      <trkpt lat="43.38779" lon="5.4177">
        <ele>518.3</ele>
        <time>2021-06-27T08:55:19.000Z</time>
      </trkpt>
      <trkpt lat="43.38766" lon="5.41789">
        <ele>519.29</ele>
        <time>2021-06-27T08:55:27.000Z</time>
      </trkpt>
      <trkpt lat="43.3875" lon="5.41804">
        <ele>520.48</ele>
        <time>2021-06-27T08:55:35.000Z</time>
      </trkpt>
      <trkpt lat="43.38738" lon="5.41824">
        <ele>521.66</ele>
        <time>2021-06-27T08:55:42.000Z</time>
      </trkpt>
      <trkpt lat="43.38722" lon="5.41842">
        <ele>522.83</ele>
        <time>2021-06-27T08:55:50.000Z</time>
      </trkpt>
      <trkpt lat="43.38709" lon="5.41859">
        <ele>523.72</ele>
        <time>2021-06-27T08:55:57.000Z</time>
      </trkpt>
      <trkpt lat="43.38696" lon="5.41878">
        <ele>524.4</ele>
        <time>2021-06-27T08:56:05.000Z</time>
      </trkpt>
      <trkpt lat="43.38684" lon="5.41896">
        <ele>525.01</ele>
        <time>2021-06-27T08:56:12.000Z</time>
      </trkpt>
      <trkpt lat="43.3867" lon="5.41916">
        <ele>524.79</ele>
        <time>2021-06-27T08:56:20.000Z</time>
      </trkpt>
      <trkpt lat="43.38656" lon="5.41932">
        <ele>524.68</ele>
        <time>2021-06-27T08:56:27.000Z</time>
      </trkpt>
      <trkpt lat="43.38641" lon="5.41947">
        <ele>524.23</ele>
        <time>2021-06-27T08:56:34.000Z</time>
      </trkpt>
      <trkpt lat="43.38627" lon="5.41965">
        <ele>524.59</ele>
        <time>2021-06-27T08:56:45.000Z</time>
      </trkpt>
      <trkpt lat="43.38616" lon="5.41984">
        <ele>524.51</ele>
        <time>2021-06-27T09:01:08.000Z</time>
      </trkpt>
      <trkpt lat="43.38602" lon="5.42005">
        <ele>525.4</ele>
        <time>2021-06-27T09:01:15.000Z</time>
      </trkpt>
      <trkpt lat="43.38588" lon="5.42023">
        <ele>526.65</ele>
        <time>2021-06-27T09:01:21.000Z</time>
      </trkpt>
      <trkpt lat="43.3858" lon="5.42046">
        <ele>527.73</ele>
        <time>2021-06-27T09:01:28.000Z</time>
      </trkpt>
      <trkpt lat="43.38574" lon="5.4207">
        <ele>528.85</ele>
        <time>2021-06-27T09:01:35.000Z</time>
      </trkpt>
      <trkpt lat="43.38569" lon="5.42095">
        <ele>530.27</ele>
        <time>2021-06-27T09:01:43.000Z</time>
      </trkpt>
      <trkpt lat="43.38563" lon="5.4212">
        <ele>531.7</ele>
        <time>2021-06-27T09:01:52.000Z</time>
      </trkpt>
      <trkpt lat="43.38551" lon="5.42142">
        <ele>532.76</ele>
        <time>2021-06-27T09:02:01.000Z</time>
      </trkpt>
      <trkpt lat="43.38547" lon="5.42167">
        <ele>533.88</ele>
        <time>2021-06-27T09:02:09.000Z</time>
      </trkpt>
      <trkpt lat="43.38554" lon="5.42192">
        <ele>535.53</ele>
        <time>2021-06-27T09:02:19.000Z</time>
      </trkpt>
      <trkpt lat="43.38565" lon="5.42213">
        <ele>537.09</ele>
        <time>2021-06-27T09:02:28.000Z</time>
      </trkpt>
      <trkpt lat="43.38578" lon="5.4223">
        <ele>538.13</ele>
        <time>2021-06-27T09:02:36.000Z</time>
      </trkpt>
      <trkpt lat="43.3859" lon="5.42252">
        <ele>539.19</ele>
        <time>2021-06-27T09:02:44.000Z</time>
      </trkpt>
      <trkpt lat="43.38592" lon="5.42278">
        <ele>540.8</ele>
        <time>2021-06-27T09:02:52.000Z</time>
      </trkpt>
      <trkpt lat="43.38575" lon="5.42293">
        <ele>541.63</ele>
        <time>2021-06-27T09:03:01.000Z</time>
      </trkpt>
      <trkpt lat="43.38561" lon="5.4231">
        <ele>542.78</ele>
        <time>2021-06-27T09:03:09.000Z</time>
      </trkpt>
      <trkpt lat="43.38552" lon="5.42332">
        <ele>544.33</ele>
        <time>2021-06-27T09:03:18.000Z</time>
      </trkpt>
      <trkpt lat="43.38545" lon="5.42356">
        <ele>546</ele>
        <time>2021-06-27T09:03:27.000Z</time>
      </trkpt>
      <trkpt lat="43.38535" lon="5.42379">
        <ele>547.86</ele>
        <time>2021-06-27T09:03:36.000Z</time>
      </trkpt>
      <trkpt lat="43.3852" lon="5.42399">
        <ele>549.49</ele>
        <time>2021-06-27T09:03:44.000Z</time>
      </trkpt>
      <trkpt lat="43.38512" lon="5.42423">
        <ele>551.26</ele>
        <time>2021-06-27T09:03:53.000Z</time>
      </trkpt>
      <trkpt lat="43.38503" lon="5.42446">
        <ele>552.67</ele>
        <time>2021-06-27T09:04:02.000Z</time>
      </trkpt>
      <trkpt lat="43.38502" lon="5.42471">
        <ele>553.39</ele>
        <time>2021-06-27T09:04:10.000Z</time>
      </trkpt>
      <trkpt lat="43.38505" lon="5.42497">
        <ele>554.06</ele>
        <time>2021-06-27T09:04:18.000Z</time>
      </trkpt>
      <trkpt lat="43.38516" lon="5.42517">
        <ele>554.6</ele>
        <time>2021-06-27T09:04:25.000Z</time>
      </trkpt>
      <trkpt lat="43.38519" lon="5.42544">
        <ele>555.47</ele>
        <time>2021-06-27T09:04:33.000Z</time>
      </trkpt>
      <trkpt lat="43.38507" lon="5.42565">
        <ele>556.17</ele>
        <time>2021-06-27T09:04:41.000Z</time>
      </trkpt>
      <trkpt lat="43.3849" lon="5.42577">
        <ele>556.95</ele>
        <time>2021-06-27T09:04:49.000Z</time>
      </trkpt>
      <trkpt lat="43.38479" lon="5.42597">
        <ele>559.93</ele>
        <time>2021-06-27T09:04:59.000Z</time>
      </trkpt>
      <trkpt lat="43.38476" lon="5.42624">
        <ele>560.99</ele>
        <time>2021-06-27T09:05:06.000Z</time>
      </trkpt>
      <trkpt lat="43.38483" lon="5.42649">
        <ele>562.02</ele>
        <time>2021-06-27T09:05:13.000Z</time>
      </trkpt>
      <trkpt lat="43.38488" lon="5.42673">
        <ele>562.75</ele>
        <time>2021-06-27T09:05:20.000Z</time>
      </trkpt>
      <trkpt lat="43.3849" lon="5.42701">
        <ele>563.87</ele>
        <time>2021-06-27T09:05:28.000Z</time>
      </trkpt>
      <trkpt lat="43.38502" lon="5.42722">
        <ele>565.05</ele>
        <time>2021-06-27T09:05:39.000Z</time>
      </trkpt>
      <trkpt lat="43.3852" lon="5.42716">
        <ele>565.41</ele>
        <time>2021-06-27T09:05:45.000Z</time>
      </trkpt>
      <trkpt lat="43.38539" lon="5.42707">
        <ele>564.54</ele>
        <time>2021-06-27T09:05:50.000Z</time>
      </trkpt>
      <trkpt lat="43.3856" lon="5.42702">
        <ele>564.19</ele>
        <time>2021-06-27T09:05:54.000Z</time>
      </trkpt>
      <trkpt lat="43.38581" lon="5.42701">
        <ele>563.15</ele>
        <time>2021-06-27T09:05:58.000Z</time>
      </trkpt>
      <trkpt lat="43.386" lon="5.42706">
        <ele>562.7</ele>
        <time>2021-06-27T09:06:02.000Z</time>
      </trkpt>
      <trkpt lat="43.38616" lon="5.42719">
        <ele>563.05</ele>
        <time>2021-06-27T09:06:07.000Z</time>
      </trkpt>
      <trkpt lat="43.38621" lon="5.42747">
        <ele>563.56</ele>
        <time>2021-06-27T09:06:14.000Z</time>
      </trkpt>
      <trkpt lat="43.38612" lon="5.42772">
        <ele>565.5</ele>
        <time>2021-06-27T09:06:22.000Z</time>
      </trkpt>
      <trkpt lat="43.38603" lon="5.42793">
        <ele>566.39</ele>
        <time>2021-06-27T09:06:28.000Z</time>
      </trkpt>
      <trkpt lat="43.3859" lon="5.42817">
        <ele>568.22</ele>
        <time>2021-06-27T09:06:36.000Z</time>
      </trkpt>
      <trkpt lat="43.38578" lon="5.42836">
        <ele>569.14</ele>
        <time>2021-06-27T09:06:42.000Z</time>
      </trkpt>
      <trkpt lat="43.38561" lon="5.42848">
        <ele>569.85</ele>
        <time>2021-06-27T09:06:48.000Z</time>
      </trkpt>
      <trkpt lat="43.38542" lon="5.42856">
        <ele>571.12</ele>
        <time>2021-06-27T09:06:54.000Z</time>
      </trkpt>
      <trkpt lat="43.38526" lon="5.42868">
        <ele>571.48</ele>
        <time>2021-06-27T09:07:00.000Z</time>
      </trkpt>
      <trkpt lat="43.38513" lon="5.42887">
        <ele>571.17</ele>
        <time>2021-06-27T09:07:06.000Z</time>
      </trkpt>
      <trkpt lat="43.38501" lon="5.4291">
        <ele>571.42</ele>
        <time>2021-06-27T09:07:12.000Z</time>
      </trkpt>
      <trkpt lat="43.38503" lon="5.42942">
        <ele>568.74</ele>
        <time>2021-06-27T09:07:16.000Z</time>
      </trkpt>
      <trkpt lat="43.38512" lon="5.4297">
        <ele>567.56</ele>
        <time>2021-06-27T09:07:19.000Z</time>
      </trkpt>
      <trkpt lat="43.38522" lon="5.42999">
        <ele>565.85</ele>
        <time>2021-06-27T09:07:22.000Z</time>
      </trkpt>
      <trkpt lat="43.38537" lon="5.43025">
        <ele>565.29</ele>
        <time>2021-06-27T09:07:25.000Z</time>
      </trkpt>
      <trkpt lat="43.3855" lon="5.43046">
        <ele>565.11</ele>
        <time>2021-06-27T09:07:28.000Z</time>
      </trkpt>
      <trkpt lat="43.38561" lon="5.43075">
        <ele>565</ele>
        <time>2021-06-27T09:07:32.000Z</time>
      </trkpt>
      <trkpt lat="43.38569" lon="5.43098">
        <ele>564.65</ele>
        <time>2021-06-27T09:07:35.000Z</time>
      </trkpt>
      <trkpt lat="43.38578" lon="5.43126">
        <ele>564.4</ele>
        <time>2021-06-27T09:07:39.000Z</time>
      </trkpt>
      <trkpt lat="43.38589" lon="5.43147">
        <ele>564.68</ele>
        <time>2021-06-27T09:07:44.000Z</time>
      </trkpt>
      <trkpt lat="43.38572" lon="5.43161">
        <ele>558.38</ele>
        <time>2021-06-27T09:09:03.000Z</time>
      </trkpt>
      <trkpt lat="43.38555" lon="5.43172">
        <ele>552.11</ele>
        <time>2021-06-27T09:09:12.000Z</time>
      </trkpt>
      <trkpt lat="43.38537" lon="5.43181">
        <ele>545.15</ele>
        <time>2021-06-27T09:09:22.000Z</time>
      </trkpt>
      <trkpt lat="43.38519" lon="5.43187">
        <ele>539.27</ele>
        <time>2021-06-27T09:09:30.000Z</time>
      </trkpt>
      <trkpt lat="43.38501" lon="5.43182">
        <ele>534.64</ele>
        <time>2021-06-27T09:09:38.000Z</time>
      </trkpt>
      <trkpt lat="43.38481" lon="5.43176">
        <ele>530.14</ele>
        <time>2021-06-27T09:09:47.000Z</time>
      </trkpt>
      <trkpt lat="43.38462" lon="5.43171">
        <ele>526.3</ele>
        <time>2021-06-27T09:09:56.000Z</time>
      </trkpt>
      <trkpt lat="43.38444" lon="5.43172">
        <ele>521.99</ele>
        <time>2021-06-27T09:10:05.000Z</time>
      </trkpt>
      <trkpt lat="43.38425" lon="5.43179">
        <ele>517.45</ele>
        <time>2021-06-27T09:10:14.000Z</time>
      </trkpt>
      <trkpt lat="43.38406" lon="5.43173">
        <ele>514.89</ele>
        <time>2021-06-27T09:10:34.000Z</time>
      </trkpt>
      <trkpt lat="43.38389" lon="5.43183">
        <ele>511.27</ele>
        <time>2021-06-27T09:10:44.000Z</time>
      </trkpt>
      <trkpt lat="43.38372" lon="5.43196">
        <ele>507.76</ele>
        <time>2021-06-27T09:10:53.000Z</time>
      </trkpt>
      <trkpt lat="43.38355" lon="5.43201">
        <ele>502.91</ele>
        <time>2021-06-27T09:11:03.000Z</time>
      </trkpt>
      <trkpt lat="43.3834" lon="5.43217">
        <ele>498.05</ele>
        <time>2021-06-27T09:11:15.000Z</time>
      </trkpt>
      <trkpt lat="43.38323" lon="5.43228">
        <ele>491.84</ele>
        <time>2021-06-27T09:11:27.000Z</time>
      </trkpt>
      <trkpt lat="43.38307" lon="5.43242">
        <ele>486.81</ele>
        <time>2021-06-27T09:13:26.000Z</time>
      </trkpt>
      <trkpt lat="43.38291" lon="5.43259">
        <ele>481.91</ele>
        <time>2021-06-27T09:13:38.000Z</time>
      </trkpt>
      <trkpt lat="43.38277" lon="5.43276">
        <ele>477.28</ele>
        <time>2021-06-27T09:14:50.000Z</time>
      </trkpt>
      <trkpt lat="43.3826" lon="5.43286">
        <ele>474.72</ele>
        <time>2021-06-27T09:14:57.000Z</time>
      </trkpt>
      <trkpt lat="43.38246" lon="5.43305">
        <ele>472.36</ele>
        <time>2021-06-27T09:15:04.000Z</time>
      </trkpt>
      <trkpt lat="43.3823" lon="5.43316">
        <ele>469.7</ele>
        <time>2021-06-27T09:15:10.000Z</time>
      </trkpt>
      <trkpt lat="43.38215" lon="5.4333">
        <ele>468.23</ele>
        <time>2021-06-27T09:15:18.000Z</time>
      </trkpt>
      <trkpt lat="43.38198" lon="5.43345">
        <ele>465.02</ele>
        <time>2021-06-27T09:15:27.000Z</time>
      </trkpt>
      <trkpt lat="43.3818" lon="5.43357">
        <ele>460.75</ele>
        <time>2021-06-27T09:15:36.000Z</time>
      </trkpt>
      <trkpt lat="43.38162" lon="5.43362">
        <ele>457.01</ele>
        <time>2021-06-27T09:15:44.000Z</time>
      </trkpt>
      <trkpt lat="43.38152" lon="5.43337">
        <ele>456.3</ele>
        <time>2021-06-27T09:15:51.000Z</time>
      </trkpt>
      <trkpt lat="43.38142" lon="5.43315">
        <ele>454.94</ele>
        <time>2021-06-27T09:15:56.000Z</time>
      </trkpt>
      <trkpt lat="43.38131" lon="5.43292">
        <ele>453.87</ele>
        <time>2021-06-27T09:16:02.000Z</time>
      </trkpt>
      <trkpt lat="43.38115" lon="5.4328">
        <ele>450.15</ele>
        <time>2021-06-27T09:16:10.000Z</time>
      </trkpt>
      <trkpt lat="43.38104" lon="5.43259">
        <ele>448</ele>
        <time>2021-06-27T09:16:17.000Z</time>
      </trkpt>
      <trkpt lat="43.38114" lon="5.43234">
        <ele>447.08</ele>
        <time>2021-06-27T09:16:23.000Z</time>
      </trkpt>
      <trkpt lat="43.38129" lon="5.43217">
        <ele>445.25</ele>
        <time>2021-06-27T09:16:29.000Z</time>
      </trkpt>
      <trkpt lat="43.38145" lon="5.43203">
        <ele>444.27</ele>
        <time>2021-06-27T09:16:35.000Z</time>
      </trkpt>
      <trkpt lat="43.38161" lon="5.43186">
        <ele>442.31</ele>
        <time>2021-06-27T09:16:42.000Z</time>
      </trkpt>
      <trkpt lat="43.38176" lon="5.43167">
        <ele>440.22</ele>
        <time>2021-06-27T09:16:49.000Z</time>
      </trkpt>
      <trkpt lat="43.3819" lon="5.43148">
        <ele>438.08</ele>
        <time>2021-06-27T09:16:55.000Z</time>
      </trkpt>
      <trkpt lat="43.38202" lon="5.43126">
        <ele>436.97</ele>
        <time>2021-06-27T09:17:01.000Z</time>
      </trkpt>
      <trkpt lat="43.38201" lon="5.43101">
        <ele>437.84</ele>
        <time>2021-06-27T09:17:08.000Z</time>
      </trkpt>
      <trkpt lat="43.3818" lon="5.43099">
        <ele>434.26</ele>
        <time>2021-06-27T09:17:15.000Z</time>
      </trkpt>
      <trkpt lat="43.38161" lon="5.43095">
        <ele>432.23</ele>
        <time>2021-06-27T09:17:20.000Z</time>
      </trkpt>
      <trkpt lat="43.38143" lon="5.43082">
        <ele>430.61</ele>
        <time>2021-06-27T09:17:25.000Z</time>
      </trkpt>
      <trkpt lat="43.38128" lon="5.43069">
        <ele>428.79</ele>
        <time>2021-06-27T09:17:30.000Z</time>
      </trkpt>
      <trkpt lat="43.3811" lon="5.43051">
        <ele>426.4</ele>
        <time>2021-06-27T09:17:35.000Z</time>
      </trkpt>
      <trkpt lat="43.38107" lon="5.43026">
        <ele>424.92</ele>
        <time>2021-06-27T09:17:39.000Z</time>
      </trkpt>
      <trkpt lat="43.38104" lon="5.42999">
        <ele>423.81</ele>
        <time>2021-06-27T09:17:43.000Z</time>
      </trkpt>
      <trkpt lat="43.38093" lon="5.42973">
        <ele>422.21</ele>
        <time>2021-06-27T09:17:48.000Z</time>
      </trkpt>
      <trkpt lat="43.38081" lon="5.42954">
        <ele>420.01</ele>
        <time>2021-06-27T09:17:55.000Z</time>
      </trkpt>
      <trkpt lat="43.38064" lon="5.42965">
        <ele>415.75</ele>
        <time>2021-06-27T09:18:03.000Z</time>
      </trkpt>
      <trkpt lat="43.38061" lon="5.42993">
        <ele>413.26</ele>
        <time>2021-06-27T09:20:35.000Z</time>
      </trkpt>
      <trkpt lat="43.38044" lon="5.43015">
        <ele>411.06</ele>
        <time>2021-06-27T09:20:40.000Z</time>
      </trkpt>
      <trkpt lat="43.38032" lon="5.43037">
        <ele>408.89</ele>
        <time>2021-06-27T09:20:44.000Z</time>
      </trkpt>
      <trkpt lat="43.38016" lon="5.43055">
        <ele>406.68</ele>
        <time>2021-06-27T09:21:11.000Z</time>
      </trkpt>
      <trkpt lat="43.37995" lon="5.43066">
        <ele>404.16</ele>
        <time>2021-06-27T09:21:15.000Z</time>
      </trkpt>
      <trkpt lat="43.37977" lon="5.43071">
        <ele>403.37</ele>
        <time>2021-06-27T09:21:21.000Z</time>
      </trkpt>
      <trkpt lat="43.37958" lon="5.43071">
        <ele>403.42</ele>
        <time>2021-06-27T09:21:28.000Z</time>
      </trkpt>
      <trkpt lat="43.37943" lon="5.43086">
        <ele>403.32</ele>
        <time>2021-06-27T09:21:35.000Z</time>
      </trkpt>
      <trkpt lat="43.37935" lon="5.43111">
        <ele>401.95</ele>
        <time>2021-06-27T09:21:41.000Z</time>
      </trkpt>
      <trkpt lat="43.37927" lon="5.43136">
        <ele>398.95</ele>
        <time>2021-06-27T09:21:48.000Z</time>
      </trkpt>
      <trkpt lat="43.37912" lon="5.43154">
        <ele>396.72</ele>
        <time>2021-06-27T09:21:56.000Z</time>
      </trkpt>
      <trkpt lat="43.37898" lon="5.43175">
        <ele>393.92</ele>
        <time>2021-06-27T09:22:03.000Z</time>
      </trkpt>
      <trkpt lat="43.37886" lon="5.43196">
        <ele>391.05</ele>
        <time>2021-06-27T09:22:09.000Z</time>
      </trkpt>
      <trkpt lat="43.37872" lon="5.43213">
        <ele>389.02</ele>
        <time>2021-06-27T09:22:14.000Z</time>
      </trkpt>
      <trkpt lat="43.37854" lon="5.43222">
        <ele>387.08</ele>
        <time>2021-06-27T09:22:20.000Z</time>
      </trkpt>
      <trkpt lat="43.37836" lon="5.43238">
        <ele>384.79</ele>
        <time>2021-06-27T09:22:26.000Z</time>
      </trkpt>
      <trkpt lat="43.37821" lon="5.43253">
        <ele>382.87</ele>
        <time>2021-06-27T09:22:34.000Z</time>
      </trkpt>
      <trkpt lat="43.37812" lon="5.43278">
        <ele>380.12</ele>
        <time>2021-06-27T09:22:39.000Z</time>
      </trkpt>
      <trkpt lat="43.37819" lon="5.43303">
        <ele>376.53</ele>
        <time>2021-06-27T09:22:45.000Z</time>
      </trkpt>
      <trkpt lat="43.37837" lon="5.43294">
        <ele>374.81</ele>
        <time>2021-06-27T09:22:48.000Z</time>
      </trkpt>
      <trkpt lat="43.37859" lon="5.43301">
        <ele>372.96</ele>
        <time>2021-06-27T09:22:52.000Z</time>
      </trkpt>
      <trkpt lat="43.37865" lon="5.43326">
        <ele>373.89</ele>
        <time>2021-06-27T09:22:57.000Z</time>
      </trkpt>
      <trkpt lat="43.37858" lon="5.43349">
        <ele>374.02</ele>
        <time>2021-06-27T09:23:02.000Z</time>
      </trkpt>
      <trkpt lat="43.37854" lon="5.43375">
        <ele>374.46</ele>
        <time>2021-06-27T09:23:07.000Z</time>
      </trkpt>
      <trkpt lat="43.37857" lon="5.43401">
        <ele>375.15</ele>
        <time>2021-06-27T09:23:12.000Z</time>
      </trkpt>
      <trkpt lat="43.37867" lon="5.43428">
        <ele>375.75</ele>
        <time>2021-06-27T09:23:17.000Z</time>
      </trkpt>
      <trkpt lat="43.37883" lon="5.43446">
        <ele>376.2</ele>
        <time>2021-06-27T09:23:22.000Z</time>
      </trkpt>
      <trkpt lat="43.37902" lon="5.43453">
        <ele>376.37</ele>
        <time>2021-06-27T09:23:27.000Z</time>
      </trkpt>
      <trkpt lat="43.3792" lon="5.43459">
        <ele>376.94</ele>
        <time>2021-06-27T09:23:32.000Z</time>
      </trkpt>
      <trkpt lat="43.37924" lon="5.43487">
        <ele>377.56</ele>
        <time>2021-06-27T09:23:39.000Z</time>
      </trkpt>
      <trkpt lat="43.37914" lon="5.43511">
        <ele>377.65</ele>
        <time>2021-06-27T09:23:45.000Z</time>
      </trkpt>
      <trkpt lat="43.37908" lon="5.43535">
        <ele>378.66</ele>
        <time>2021-06-27T09:23:51.000Z</time>
      </trkpt>
      <trkpt lat="43.37904" lon="5.43561">
        <ele>379.02</ele>
        <time>2021-06-27T09:23:57.000Z</time>
      </trkpt>
      <trkpt lat="43.37905" lon="5.43588">
        <ele>379.63</ele>
        <time>2021-06-27T09:24:04.000Z</time>
      </trkpt>
      <trkpt lat="43.37907" lon="5.43616">
        <ele>379.99</ele>
        <time>2021-06-27T09:24:11.000Z</time>
      </trkpt>
      <trkpt lat="43.37916" lon="5.4364">
        <ele>380.53</ele>
        <time>2021-06-27T09:24:18.000Z</time>
      </trkpt>
      <trkpt lat="43.37933" lon="5.43656">
        <ele>381.13</ele>
        <time>2021-06-27T09:24:24.000Z</time>
      </trkpt>
      <trkpt lat="43.37951" lon="5.43664">
        <ele>381</ele>
        <time>2021-06-27T09:24:30.000Z</time>
      </trkpt>
      <trkpt lat="43.37968" lon="5.4367">
        <ele>381.48</ele>
        <time>2021-06-27T09:24:36.000Z</time>
      </trkpt>
      <trkpt lat="43.37989" lon="5.43676">
        <ele>381.91</ele>
        <time>2021-06-27T09:24:43.000Z</time>
      </trkpt>
      <trkpt lat="43.38008" lon="5.43678">
        <ele>382.73</ele>
        <time>2021-06-27T09:24:49.000Z</time>
      </trkpt>
      <trkpt lat="43.38027" lon="5.43673">
        <ele>383.19</ele>
        <time>2021-06-27T09:24:55.000Z</time>
      </trkpt>
      <trkpt lat="43.38048" lon="5.43671">
        <ele>382.94</ele>
        <time>2021-06-27T09:25:01.000Z</time>
      </trkpt>
      <trkpt lat="43.38066" lon="5.43684">
        <ele>383.84</ele>
        <time>2021-06-27T09:25:07.000Z</time>
      </trkpt>
      <trkpt lat="43.38083" lon="5.43695">
        <ele>384.37</ele>
        <time>2021-06-27T09:25:13.000Z</time>
      </trkpt>
      <trkpt lat="43.38102" lon="5.43693">
        <ele>384.95</ele>
        <time>2021-06-27T09:25:19.000Z</time>
      </trkpt>
      <trkpt lat="43.38117" lon="5.43678">
        <ele>385.38</ele>
        <time>2021-06-27T09:25:25.000Z</time>
      </trkpt>
      <trkpt lat="43.38132" lon="5.43693">
        <ele>386.31</ele>
        <time>2021-06-27T09:25:32.000Z</time>
      </trkpt>
      <trkpt lat="43.3813" lon="5.43719">
        <ele>387.06</ele>
        <time>2021-06-27T09:25:38.000Z</time>
      </trkpt>
      <trkpt lat="43.38127" lon="5.43746">
        <ele>387.53</ele>
        <time>2021-06-27T09:25:44.000Z</time>
      </trkpt>
      <trkpt lat="43.38123" lon="5.43771">
        <ele>387.87</ele>
        <time>2021-06-27T09:25:50.000Z</time>
      </trkpt>
      <trkpt lat="43.38116" lon="5.43794">
        <ele>388.59</ele>
        <time>2021-06-27T09:25:56.000Z</time>
      </trkpt>
      <trkpt lat="43.38115" lon="5.4382">
        <ele>389.52</ele>
        <time>2021-06-27T09:26:03.000Z</time>
      </trkpt>
      <trkpt lat="43.38132" lon="5.43834">
        <ele>390.02</ele>
        <time>2021-06-27T09:26:09.000Z</time>
      </trkpt>
      <trkpt lat="43.3815" lon="5.43847">
        <ele>390.5</ele>
        <time>2021-06-27T09:26:15.000Z</time>
      </trkpt>
      <trkpt lat="43.38164" lon="5.43865">
        <ele>390.6</ele>
        <time>2021-06-27T09:26:21.000Z</time>
      </trkpt>
      <trkpt lat="43.38177" lon="5.43884">
        <ele>391.03</ele>
        <time>2021-06-27T09:26:27.000Z</time>
      </trkpt>
      <trkpt lat="43.38191" lon="5.439">
        <ele>391.41</ele>
        <time>2021-06-27T09:26:33.000Z</time>
      </trkpt>
      <trkpt lat="43.38206" lon="5.43915">
        <ele>391.67</ele>
        <time>2021-06-27T09:26:39.000Z</time>
      </trkpt>
      <trkpt lat="43.38221" lon="5.43928">
        <ele>392.43</ele>
        <time>2021-06-27T09:26:45.000Z</time>
      </trkpt>
      <trkpt lat="43.3824" lon="5.43939">
        <ele>392.89</ele>
        <time>2021-06-27T09:26:52.000Z</time>
      </trkpt>
      <trkpt lat="43.38258" lon="5.43945">
        <ele>393.37</ele>
        <time>2021-06-27T09:26:58.000Z</time>
      </trkpt>
      <trkpt lat="43.38274" lon="5.43956">
        <ele>393.75</ele>
        <time>2021-06-27T09:27:03.000Z</time>
      </trkpt>
      <trkpt lat="43.38292" lon="5.43963">
        <ele>394.15</ele>
        <time>2021-06-27T09:27:08.000Z</time>
      </trkpt>
      <trkpt lat="43.38295" lon="5.43988">
        <ele>394.73</ele>
        <time>2021-06-27T09:27:16.000Z</time>
      </trkpt>
      <trkpt lat="43.38276" lon="5.43993">
        <ele>395.09</ele>
        <time>2021-06-27T09:27:21.000Z</time>
      </trkpt>
      <trkpt lat="43.38256" lon="5.44">
        <ele>396.06</ele>
        <time>2021-06-27T09:27:27.000Z</time>
      </trkpt>
      <trkpt lat="43.38239" lon="5.44012">
        <ele>396.67</ele>
        <time>2021-06-27T09:27:33.000Z</time>
      </trkpt>
      <trkpt lat="43.38222" lon="5.44022">
        <ele>397.41</ele>
        <time>2021-06-27T09:27:39.000Z</time>
      </trkpt>
      <trkpt lat="43.38204" lon="5.44026">
        <ele>398.22</ele>
        <time>2021-06-27T09:27:45.000Z</time>
      </trkpt>
      <trkpt lat="43.38185" lon="5.44038">
        <ele>398.77</ele>
        <time>2021-06-27T09:27:52.000Z</time>
      </trkpt>
      <trkpt lat="43.38167" lon="5.44049">
        <ele>399.32</ele>
        <time>2021-06-27T09:27:59.000Z</time>
      </trkpt>
      <trkpt lat="43.38151" lon="5.44067">
        <ele>400.08</ele>
        <time>2021-06-27T09:28:06.000Z</time>
      </trkpt>
      <trkpt lat="43.38144" lon="5.44094">
        <ele>400.26</ele>
        <time>2021-06-27T09:28:13.000Z</time>
      </trkpt>
      <trkpt lat="43.38134" lon="5.44119">
        <ele>400.61</ele>
        <time>2021-06-27T09:28:20.000Z</time>
      </trkpt>
      <trkpt lat="43.38121" lon="5.44142">
        <ele>401.38</ele>
        <time>2021-06-27T09:28:27.000Z</time>
      </trkpt>
      <trkpt lat="43.38112" lon="5.44166">
        <ele>401.55</ele>
        <time>2021-06-27T09:28:33.000Z</time>
      </trkpt>
      <trkpt lat="43.38119" lon="5.4419">
        <ele>401.96</ele>
        <time>2021-06-27T09:28:39.000Z</time>
      </trkpt>
      <trkpt lat="43.3814" lon="5.44191">
        <ele>402.33</ele>
        <time>2021-06-27T09:28:45.000Z</time>
      </trkpt>
      <trkpt lat="43.3816" lon="5.44183">
        <ele>402.45</ele>
        <time>2021-06-27T09:28:51.000Z</time>
      </trkpt>
      <trkpt lat="43.38178" lon="5.44183">
        <ele>403.08</ele>
        <time>2021-06-27T09:28:57.000Z</time>
      </trkpt>
      <trkpt lat="43.38191" lon="5.44201">
        <ele>403.65</ele>
        <time>2021-06-27T09:29:02.000Z</time>
      </trkpt>
      <trkpt lat="43.38198" lon="5.44229">
        <ele>403.39</ele>
        <time>2021-06-27T09:29:08.000Z</time>
      </trkpt>
      <trkpt lat="43.382" lon="5.44256">
        <ele>404.08</ele>
        <time>2021-06-27T09:29:14.000Z</time>
      </trkpt>
      <trkpt lat="43.38198" lon="5.44284">
        <ele>404.25</ele>
        <time>2021-06-27T09:29:20.000Z</time>
      </trkpt>
      <trkpt lat="43.3819" lon="5.4431">
        <ele>404.51</ele>
        <time>2021-06-27T09:29:27.000Z</time>
      </trkpt>
      <trkpt lat="43.38191" lon="5.44337">
        <ele>404.99</ele>
        <time>2021-06-27T09:29:33.000Z</time>
      </trkpt>
      <trkpt lat="43.38196" lon="5.44363">
        <ele>405.51</ele>
        <time>2021-06-27T09:29:39.000Z</time>
      </trkpt>
      <trkpt lat="43.38206" lon="5.44386">
        <ele>405.7</ele>
        <time>2021-06-27T09:29:45.000Z</time>
      </trkpt>
      <trkpt lat="43.38222" lon="5.44402">
        <ele>406.12</ele>
        <time>2021-06-27T09:29:51.000Z</time>
      </trkpt>
      <trkpt lat="43.38241" lon="5.44403">
        <ele>406.28</ele>
        <time>2021-06-27T09:29:57.000Z</time>
      </trkpt>
      <trkpt lat="43.38261" lon="5.44393">
        <ele>406.55</ele>
        <time>2021-06-27T09:30:03.000Z</time>
      </trkpt>
      <trkpt lat="43.38278" lon="5.4438">
        <ele>406.75</ele>
        <time>2021-06-27T09:30:09.000Z</time>
      </trkpt>
      <trkpt lat="43.38298" lon="5.44374">
        <ele>407.03</ele>
        <time>2021-06-27T09:30:16.000Z</time>
      </trkpt>
      <trkpt lat="43.38319" lon="5.44377">
        <ele>407.1</ele>
        <time>2021-06-27T09:30:22.000Z</time>
      </trkpt>
      <trkpt lat="43.38334" lon="5.44391">
        <ele>407.4</ele>
        <time>2021-06-27T09:30:27.000Z</time>
      </trkpt>
      <trkpt lat="43.38342" lon="5.44416">
        <ele>407.84</ele>
        <time>2021-06-27T09:30:32.000Z</time>
      </trkpt>
      <trkpt lat="43.38345" lon="5.44444">
        <ele>407.58</ele>
        <time>2021-06-27T09:30:38.000Z</time>
      </trkpt>
      <trkpt lat="43.38348" lon="5.44473">
        <ele>407.67</ele>
        <time>2021-06-27T09:30:44.000Z</time>
      </trkpt>
      <trkpt lat="43.38352" lon="5.44499">
        <ele>408.06</ele>
        <time>2021-06-27T09:30:50.000Z</time>
      </trkpt>
      <trkpt lat="43.38356" lon="5.44527">
        <ele>409.94</ele>
        <time>2021-06-27T09:51:45.000Z</time>
      </trkpt>
      <trkpt lat="43.38356" lon="5.44553">
        <ele>410.42</ele>
        <time>2021-06-27T09:51:51.000Z</time>
      </trkpt>
      <trkpt lat="43.38354" lon="5.4458">
        <ele>410.76</ele>
        <time>2021-06-27T09:51:57.000Z</time>
      </trkpt>
      <trkpt lat="43.38371" lon="5.44596">
        <ele>411.1</ele>
        <time>2021-06-27T09:52:03.000Z</time>
      </trkpt>
      <trkpt lat="43.38391" lon="5.44593">
        <ele>411.54</ele>
        <time>2021-06-27T09:52:09.000Z</time>
      </trkpt>
      <trkpt lat="43.38409" lon="5.44584">
        <ele>411.92</ele>
        <time>2021-06-27T09:52:14.000Z</time>
      </trkpt>
      <trkpt lat="43.38429" lon="5.44576">
        <ele>412.42</ele>
        <time>2021-06-27T09:52:20.000Z</time>
      </trkpt>
      <trkpt lat="43.38448" lon="5.44571">
        <ele>412.83</ele>
        <time>2021-06-27T09:52:25.000Z</time>
      </trkpt>
      <trkpt lat="43.38467" lon="5.44568">
        <ele>412.61</ele>
        <time>2021-06-27T09:52:30.000Z</time>
      </trkpt>
      <trkpt lat="43.38485" lon="5.44562">
        <ele>412.71</ele>
        <time>2021-06-27T09:52:35.000Z</time>
      </trkpt>
      <trkpt lat="43.38503" lon="5.44556">
        <ele>412.84</ele>
        <time>2021-06-27T09:52:40.000Z</time>
      </trkpt>
      <trkpt lat="43.38524" lon="5.44551">
        <ele>412.84</ele>
        <time>2021-06-27T09:52:46.000Z</time>
      </trkpt>
      <trkpt lat="43.38537" lon="5.44568">
        <ele>413.06</ele>
        <time>2021-06-27T09:52:53.000Z</time>
      </trkpt>
      <trkpt lat="43.38522" lon="5.44585">
        <ele>413.36</ele>
        <time>2021-06-27T09:52:58.000Z</time>
      </trkpt>
      <trkpt lat="43.3851" lon="5.44604">
        <ele>413.22</ele>
        <time>2021-06-27T09:53:03.000Z</time>
      </trkpt>
      <trkpt lat="43.38497" lon="5.44621">
        <ele>412.86</ele>
        <time>2021-06-27T09:53:08.000Z</time>
      </trkpt>
      <trkpt lat="43.38483" lon="5.44644">
        <ele>412.12</ele>
        <time>2021-06-27T09:53:13.000Z</time>
      </trkpt>
      <trkpt lat="43.38471" lon="5.44664">
        <ele>411.65</ele>
        <time>2021-06-27T09:53:17.000Z</time>
      </trkpt>
      <trkpt lat="43.3846" lon="5.44684">
        <ele>411.39</ele>
        <time>2021-06-27T09:53:21.000Z</time>
      </trkpt>
      <trkpt lat="43.3845" lon="5.44707">
        <ele>410.79</ele>
        <time>2021-06-27T09:53:25.000Z</time>
      </trkpt>
      <trkpt lat="43.3844" lon="5.44728">
        <ele>410.53</ele>
        <time>2021-06-27T09:53:29.000Z</time>
      </trkpt>
      <trkpt lat="43.38431" lon="5.44754">
        <ele>410.64</ele>
        <time>2021-06-27T09:53:34.000Z</time>
      </trkpt>
      <trkpt lat="43.38431" lon="5.44782">
        <ele>411.46</ele>
        <time>2021-06-27T09:53:39.000Z</time>
      </trkpt>
      <trkpt lat="43.38433" lon="5.44811">
        <ele>412.75</ele>
        <time>2021-06-27T09:53:45.000Z</time>
      </trkpt>
      <trkpt lat="43.38444" lon="5.44836">
        <ele>414.39</ele>
        <time>2021-06-27T09:53:51.000Z</time>
      </trkpt>
      <trkpt lat="43.38457" lon="5.4486">
        <ele>415.3</ele>
        <time>2021-06-27T09:53:57.000Z</time>
      </trkpt>
      <trkpt lat="43.38464" lon="5.44885">
        <ele>415.51</ele>
        <time>2021-06-27T09:54:03.000Z</time>
      </trkpt>
      <trkpt lat="43.38461" lon="5.44913">
        <ele>416.27</ele>
        <time>2021-06-27T09:54:09.000Z</time>
      </trkpt>
      <trkpt lat="43.38453" lon="5.44935">
        <ele>416.79</ele>
        <time>2021-06-27T09:54:15.000Z</time>
      </trkpt>
      <trkpt lat="43.3844" lon="5.44953">
        <ele>417.38</ele>
        <time>2021-06-27T09:54:22.000Z</time>
      </trkpt>
      <trkpt lat="43.38432" lon="5.44976">
        <ele>419.08</ele>
        <time>2021-06-27T09:54:29.000Z</time>
      </trkpt>
      <trkpt lat="43.38431" lon="5.45002">
        <ele>420.82</ele>
        <time>2021-06-27T09:54:39.000Z</time>
      </trkpt>
      <trkpt lat="43.38449" lon="5.45006">
        <ele>420.41</ele>
        <time>2021-06-27T09:54:45.000Z</time>
      </trkpt>
      <trkpt lat="43.38469" lon="5.45008">
        <ele>419.75</ele>
        <time>2021-06-27T09:54:50.000Z</time>
      </trkpt>
      <trkpt lat="43.38487" lon="5.45014">
        <ele>419.93</ele>
        <time>2021-06-27T09:54:54.000Z</time>
      </trkpt>
      <trkpt lat="43.38509" lon="5.45023">
        <ele>419.41</ele>
        <time>2021-06-27T09:54:59.000Z</time>
      </trkpt>
      <trkpt lat="43.38529" lon="5.4503">
        <ele>418.56</ele>
        <time>2021-06-27T09:55:03.000Z</time>
      </trkpt>
      <trkpt lat="43.38551" lon="5.4503">
        <ele>418.38</ele>
        <time>2021-06-27T09:55:07.000Z</time>
      </trkpt>
      <trkpt lat="43.38573" lon="5.45024">
        <ele>417.96</ele>
        <time>2021-06-27T09:55:11.000Z</time>
      </trkpt>
      <trkpt lat="43.38591" lon="5.45018">
        <ele>417.54</ele>
        <time>2021-06-27T09:55:14.000Z</time>
      </trkpt>
      <trkpt lat="43.38615" lon="5.45014">
        <ele>416.97</ele>
        <time>2021-06-27T09:55:18.000Z</time>
      </trkpt>
      <trkpt lat="43.38633" lon="5.45012">
        <ele>416.9</ele>
        <time>2021-06-27T09:55:21.000Z</time>
      </trkpt>
      <trkpt lat="43.38652" lon="5.45011">
        <ele>416.56</ele>
        <time>2021-06-27T09:55:24.000Z</time>
      </trkpt>
      <trkpt lat="43.3867" lon="5.45011">
        <ele>416.15</ele>
        <time>2021-06-27T09:55:27.000Z</time>
      </trkpt>
      <trkpt lat="43.3869" lon="5.45007">
        <ele>415.99</ele>
        <time>2021-06-27T09:55:30.000Z</time>
      </trkpt>
      <trkpt lat="43.38708" lon="5.45001">
        <ele>415.84</ele>
        <time>2021-06-27T09:55:33.000Z</time>
      </trkpt>
      <trkpt lat="43.38726" lon="5.44994">
        <ele>415.53</ele>
        <time>2021-06-27T09:55:36.000Z</time>
      </trkpt>
      <trkpt lat="43.38745" lon="5.44986">
        <ele>415.06</ele>
        <time>2021-06-27T09:55:39.000Z</time>
      </trkpt>
      <trkpt lat="43.38763" lon="5.44978">
        <ele>414.46</ele>
        <time>2021-06-27T09:55:42.000Z</time>
      </trkpt>
      <trkpt lat="43.38781" lon="5.44966">
        <ele>414.33</ele>
        <time>2021-06-27T09:55:45.000Z</time>
      </trkpt>
      <trkpt lat="43.38799" lon="5.44956">
        <ele>413.82</ele>
        <time>2021-06-27T09:55:48.000Z</time>
      </trkpt>
      <trkpt lat="43.38819" lon="5.44948">
        <ele>413.42</ele>
        <time>2021-06-27T09:55:51.000Z</time>
      </trkpt>
      <trkpt lat="43.38836" lon="5.44936">
        <ele>412.9</ele>
        <time>2021-06-27T09:55:54.000Z</time>
      </trkpt>
      <trkpt lat="43.38852" lon="5.44919">
        <ele>412.45</ele>
        <time>2021-06-27T09:55:57.000Z</time>
      </trkpt>
      <trkpt lat="43.38862" lon="5.44889">
        <ele>412.15</ele>
        <time>2021-06-27T09:56:01.000Z</time>
      </trkpt>
      <trkpt lat="43.38881" lon="5.44882">
        <ele>411.5</ele>
        <time>2021-06-27T09:56:05.000Z</time>
      </trkpt>
      <trkpt lat="43.38902" lon="5.44881">
        <ele>411.04</ele>
        <time>2021-06-27T09:56:09.000Z</time>
      </trkpt>
      <trkpt lat="43.38921" lon="5.44869">
        <ele>411.12</ele>
        <time>2021-06-27T09:56:13.000Z</time>
      </trkpt>
      <trkpt lat="43.38942" lon="5.44856">
        <ele>410.32</ele>
        <time>2021-06-27T09:56:17.000Z</time>
      </trkpt>
      <trkpt lat="43.38965" lon="5.44851">
        <ele>409.87</ele>
        <time>2021-06-27T09:56:21.000Z</time>
      </trkpt>
      <trkpt lat="43.38987" lon="5.44839">
        <ele>409.35</ele>
        <time>2021-06-27T09:56:25.000Z</time>
      </trkpt>
      <trkpt lat="43.39009" lon="5.44831">
        <ele>409</ele>
        <time>2021-06-27T09:56:29.000Z</time>
      </trkpt>
      <trkpt lat="43.39027" lon="5.44814">
        <ele>408.81</ele>
        <time>2021-06-27T09:56:33.000Z</time>
      </trkpt>
      <trkpt lat="43.39048" lon="5.44812">
        <ele>408.38</ele>
        <time>2021-06-27T09:56:39.000Z</time>
      </trkpt>
      <trkpt lat="43.39066" lon="5.44818">
        <ele>407.37</ele>
        <time>2021-06-27T09:56:43.000Z</time>
      </trkpt>
      <trkpt lat="43.39085" lon="5.44818">
        <ele>407.04</ele>
        <time>2021-06-27T09:56:47.000Z</time>
      </trkpt>
      <trkpt lat="43.39104" lon="5.44821">
        <ele>407.3</ele>
        <time>2021-06-27T09:56:51.000Z</time>
      </trkpt>
      <trkpt lat="43.39125" lon="5.4482">
        <ele>410.09</ele>
        <time>2021-06-27T09:57:00.000Z</time>
      </trkpt>
      <trkpt lat="43.39143" lon="5.44818">
        <ele>411.42</ele>
        <time>2021-06-27T09:57:07.000Z</time>
      </trkpt>
      <trkpt lat="43.3915" lon="5.44842">
        <ele>411.34</ele>
        <time>2021-06-27T09:58:34.000Z</time>
      </trkpt>
      <trkpt lat="43.39131" lon="5.44851">
        <ele>411.75</ele>
        <time>2021-06-27T09:58:40.000Z</time>
      </trkpt>
      <trkpt lat="43.39114" lon="5.44859">
        <ele>412.7</ele>
        <time>2021-06-27T09:58:45.000Z</time>
      </trkpt>
      <trkpt lat="43.39097" lon="5.44867">
        <ele>413.38</ele>
        <time>2021-06-27T09:58:50.000Z</time>
      </trkpt>
      <trkpt lat="43.3908" lon="5.44878">
        <ele>414.65</ele>
        <time>2021-06-27T09:58:56.000Z</time>
      </trkpt>
      <trkpt lat="43.39066" lon="5.44894">
        <ele>416.46</ele>
        <time>2021-06-27T09:59:03.000Z</time>
      </trkpt>
      <trkpt lat="43.39054" lon="5.44915">
        <ele>418.78</ele>
        <time>2021-06-27T09:59:14.000Z</time>
      </trkpt>
      <trkpt lat="43.39044" lon="5.44937">
        <ele>421.65</ele>
        <time>2021-06-27T09:59:26.000Z</time>
      </trkpt>
      <trkpt lat="43.39033" lon="5.44959">
        <ele>425.01</ele>
        <time>2021-06-27T09:59:38.000Z</time>
      </trkpt>
      <trkpt lat="43.39023" lon="5.44983">
        <ele>427.52</ele>
        <time>2021-06-27T09:59:51.000Z</time>
      </trkpt>
      <trkpt lat="43.39014" lon="5.45004">
        <ele>430.9</ele>
        <time>2021-06-27T10:00:03.000Z</time>
      </trkpt>
      <trkpt lat="43.39003" lon="5.45027">
        <ele>433.81</ele>
        <time>2021-06-27T10:00:17.000Z</time>
      </trkpt>
      <trkpt lat="43.38993" lon="5.45047">
        <ele>436.06</ele>
        <time>2021-06-27T10:00:30.000Z</time>
      </trkpt>
      <trkpt lat="43.38981" lon="5.45068">
        <ele>438.01</ele>
        <time>2021-06-27T10:00:41.000Z</time>
      </trkpt>
      <trkpt lat="43.38976" lon="5.45092">
        <ele>440.38</ele>
        <time>2021-06-27T10:00:55.000Z</time>
      </trkpt>
      <trkpt lat="43.38982" lon="5.45116">
        <ele>442.95</ele>
        <time>2021-06-27T10:01:06.000Z</time>
      </trkpt>
      <trkpt lat="43.38997" lon="5.45132">
        <ele>445.98</ele>
        <time>2021-06-27T10:01:19.000Z</time>
      </trkpt>
      <trkpt lat="43.39011" lon="5.45148">
        <ele>448.55</ele>
        <time>2021-06-27T10:01:32.000Z</time>
      </trkpt>
      <trkpt lat="43.39028" lon="5.45161">
        <ele>451.7</ele>
        <time>2021-06-27T10:01:47.000Z</time>
      </trkpt>
      <trkpt lat="43.39045" lon="5.45171">
        <ele>454.49</ele>
        <time>2021-06-27T10:02:01.000Z</time>
      </trkpt>
      <trkpt lat="43.39062" lon="5.45182">
        <ele>457.43</ele>
        <time>2021-06-27T10:02:18.000Z</time>
      </trkpt>
      <trkpt lat="43.3908" lon="5.45187">
        <ele>460.04</ele>
        <time>2021-06-27T10:02:33.000Z</time>
      </trkpt>
      <trkpt lat="43.39097" lon="5.45195">
        <ele>462.51</ele>
        <time>2021-06-27T10:02:48.000Z</time>
      </trkpt>
      <trkpt lat="43.39115" lon="5.45201">
        <ele>465.34</ele>
        <time>2021-06-27T10:03:04.000Z</time>
      </trkpt>
      <trkpt lat="43.39134" lon="5.45204">
        <ele>467.79</ele>
        <time>2021-06-27T10:03:20.000Z</time>
      </trkpt>
      <trkpt lat="43.39152" lon="5.45212">
        <ele>470.83</ele>
        <time>2021-06-27T10:03:34.000Z</time>
      </trkpt>
      <trkpt lat="43.3917" lon="5.45217">
        <ele>473.68</ele>
        <time>2021-06-27T10:03:49.000Z</time>
      </trkpt>
      <trkpt lat="43.39189" lon="5.45223">
        <ele>476.29</ele>
        <time>2021-06-27T10:04:03.000Z</time>
      </trkpt>
      <trkpt lat="43.39206" lon="5.45232">
        <ele>478.77</ele>
        <time>2021-06-27T10:04:16.000Z</time>
      </trkpt>
      <trkpt lat="43.39225" lon="5.45235">
        <ele>481.34</ele>
        <time>2021-06-27T10:04:29.000Z</time>
      </trkpt>
      <trkpt lat="43.39241" lon="5.4525">
        <ele>483.11</ele>
        <time>2021-06-27T10:04:44.000Z</time>
      </trkpt>
      <trkpt lat="43.39239" lon="5.45276">
        <ele>484.93</ele>
        <time>2021-06-27T10:04:56.000Z</time>
      </trkpt>
      <trkpt lat="43.39232" lon="5.45298">
        <ele>486.61</ele>
        <time>2021-06-27T10:05:08.000Z</time>
      </trkpt>
      <trkpt lat="43.39225" lon="5.45321">
        <ele>488.64</ele>
        <time>2021-06-27T10:05:20.000Z</time>
      </trkpt>
      <trkpt lat="43.39216" lon="5.45344">
        <ele>490.98</ele>
        <time>2021-06-27T10:05:32.000Z</time>
      </trkpt>
      <trkpt lat="43.39208" lon="5.45367">
        <ele>493.94</ele>
        <time>2021-06-27T10:05:45.000Z</time>
      </trkpt>
      <trkpt lat="43.39199" lon="5.45391">
        <ele>496.65</ele>
        <time>2021-06-27T10:05:59.000Z</time>
      </trkpt>
      <trkpt lat="43.39195" lon="5.45416">
        <ele>499.52</ele>
        <time>2021-06-27T10:06:12.000Z</time>
      </trkpt>
      <trkpt lat="43.39189" lon="5.45441">
        <ele>501.71</ele>
        <time>2021-06-27T10:06:25.000Z</time>
      </trkpt>
      <trkpt lat="43.39181" lon="5.45464">
        <ele>504.04</ele>
        <time>2021-06-27T10:06:37.000Z</time>
      </trkpt>
      <trkpt lat="43.39169" lon="5.45485">
        <ele>507.11</ele>
        <time>2021-06-27T10:06:50.000Z</time>
      </trkpt>
      <trkpt lat="43.39158" lon="5.45507">
        <ele>509.91</ele>
        <time>2021-06-27T10:07:03.000Z</time>
      </trkpt>
      <trkpt lat="43.39146" lon="5.45527">
        <ele>512.35</ele>
        <time>2021-06-27T10:07:16.000Z</time>
      </trkpt>
      <trkpt lat="43.39135" lon="5.45548">
        <ele>514.99</ele>
        <time>2021-06-27T10:07:29.000Z</time>
      </trkpt>
      <trkpt lat="43.39124" lon="5.45569">
        <ele>517.32</ele>
        <time>2021-06-27T10:07:41.000Z</time>
      </trkpt>
      <trkpt lat="43.3912" lon="5.45594">
        <ele>519.98</ele>
        <time>2021-06-27T10:07:54.000Z</time>
      </trkpt>
      <trkpt lat="43.39101" lon="5.45596">
        <ele>519.37</ele>
        <time>2021-06-27T10:15:44.000Z</time>
      </trkpt>
      <trkpt lat="43.39083" lon="5.45603">
        <ele>519</ele>
        <time>2021-06-27T10:15:53.000Z</time>
      </trkpt>
      <trkpt lat="43.39064" lon="5.45611">
        <ele>519.17</ele>
        <time>2021-06-27T10:16:01.000Z</time>
      </trkpt>
      <trkpt lat="43.39046" lon="5.45619">
        <ele>519.81</ele>
        <time>2021-06-27T10:16:10.000Z</time>
      </trkpt>
      <trkpt lat="43.39028" lon="5.45624">
        <ele>520.88</ele>
        <time>2021-06-27T10:16:19.000Z</time>
      </trkpt>
      <trkpt lat="43.39009" lon="5.45621">
        <ele>522.78</ele>
        <time>2021-06-27T10:16:30.000Z</time>
      </trkpt>
      <trkpt lat="43.38991" lon="5.45615">
        <ele>522.87</ele>
        <time>2021-06-27T10:16:39.000Z</time>
      </trkpt>
      <trkpt lat="43.38971" lon="5.4561">
        <ele>523.25</ele>
        <time>2021-06-27T10:16:49.000Z</time>
      </trkpt>
      <trkpt lat="43.38952" lon="5.4561">
        <ele>524.28</ele>
        <time>2021-06-27T10:16:59.000Z</time>
      </trkpt>
      <trkpt lat="43.38933" lon="5.45611">
        <ele>525.09</ele>
        <time>2021-06-27T10:17:09.000Z</time>
      </trkpt>
      <trkpt lat="43.38913" lon="5.45607">
        <ele>523.67</ele>
        <time>2021-06-27T10:17:17.000Z</time>
      </trkpt>
      <trkpt lat="43.38898" lon="5.45589">
        <ele>522.49</ele>
        <time>2021-06-27T10:17:24.000Z</time>
      </trkpt>
      <trkpt lat="43.38881" lon="5.4558">
        <ele>520.91</ele>
        <time>2021-06-27T10:17:31.000Z</time>
      </trkpt>
      <trkpt lat="43.38862" lon="5.45585">
        <ele>517.81</ele>
        <time>2021-06-27T10:17:40.000Z</time>
      </trkpt>
      <trkpt lat="43.38843" lon="5.45591">
        <ele>512.71</ele>
        <time>2021-06-27T10:17:49.000Z</time>
      </trkpt>
      <trkpt lat="43.38826" lon="5.456">
        <ele>507.22</ele>
        <time>2021-06-27T10:17:58.000Z</time>
      </trkpt>
      <trkpt lat="43.38808" lon="5.45611">
        <ele>502.48</ele>
        <time>2021-06-27T10:18:07.000Z</time>
      </trkpt>
      <trkpt lat="43.3879" lon="5.45617">
        <ele>498.07</ele>
        <time>2021-06-27T10:18:15.000Z</time>
      </trkpt>
      <trkpt lat="43.38771" lon="5.45626">
        <ele>494.36</ele>
        <time>2021-06-27T10:18:23.000Z</time>
      </trkpt>
      <trkpt lat="43.38755" lon="5.45639">
        <ele>490.56</ele>
        <time>2021-06-27T10:18:30.000Z</time>
      </trkpt>
      <trkpt lat="43.38738" lon="5.45648">
        <ele>486.27</ele>
        <time>2021-06-27T10:18:38.000Z</time>
      </trkpt>
      <trkpt lat="43.38722" lon="5.45661">
        <ele>482.05</ele>
        <time>2021-06-27T10:18:47.000Z</time>
      </trkpt>
      <trkpt lat="43.38704" lon="5.45674">
        <ele>478.09</ele>
        <time>2021-06-27T10:18:55.000Z</time>
      </trkpt>
      <trkpt lat="43.38687" lon="5.45684">
        <ele>475.87</ele>
        <time>2021-06-27T10:19:01.000Z</time>
      </trkpt>
      <trkpt lat="43.38667" lon="5.45693">
        <ele>473.25</ele>
        <time>2021-06-27T10:19:08.000Z</time>
      </trkpt>
      <trkpt lat="43.38651" lon="5.45705">
        <ele>471.55</ele>
        <time>2021-06-27T10:19:15.000Z</time>
      </trkpt>
      <trkpt lat="43.38632" lon="5.45715">
        <ele>468.37</ele>
        <time>2021-06-27T10:19:23.000Z</time>
      </trkpt>
      <trkpt lat="43.38613" lon="5.45723">
        <ele>466.45</ele>
        <time>2021-06-27T10:19:31.000Z</time>
      </trkpt>
      <trkpt lat="43.38594" lon="5.45733">
        <ele>464.34</ele>
        <time>2021-06-27T10:19:39.000Z</time>
      </trkpt>
      <trkpt lat="43.38576" lon="5.45737">
        <ele>462.44</ele>
        <time>2021-06-27T10:19:47.000Z</time>
      </trkpt>
      <trkpt lat="43.38557" lon="5.45733">
        <ele>460.92</ele>
        <time>2021-06-27T10:19:56.000Z</time>
      </trkpt>
      <trkpt lat="43.38537" lon="5.45728">
        <ele>459.55</ele>
        <time>2021-06-27T10:20:02.000Z</time>
      </trkpt>
      <trkpt lat="43.38517" lon="5.45719">
        <ele>458.54</ele>
        <time>2021-06-27T10:20:09.000Z</time>
      </trkpt>
      <trkpt lat="43.38499" lon="5.4571">
        <ele>458.37</ele>
        <time>2021-06-27T10:20:16.000Z</time>
      </trkpt>
      <trkpt lat="43.38482" lon="5.457">
        <ele>457.51</ele>
        <time>2021-06-27T10:20:23.000Z</time>
      </trkpt>
      <trkpt lat="43.38465" lon="5.45692">
        <ele>455.51</ele>
        <time>2021-06-27T10:20:31.000Z</time>
      </trkpt>
      <trkpt lat="43.38445" lon="5.45687">
        <ele>453.35</ele>
        <time>2021-06-27T10:20:40.000Z</time>
      </trkpt>
      <trkpt lat="43.38427" lon="5.45683">
        <ele>450.8</ele>
        <time>2021-06-27T10:20:50.000Z</time>
      </trkpt>
      <trkpt lat="43.38407" lon="5.45688">
        <ele>446.41</ele>
        <time>2021-06-27T10:21:00.000Z</time>
      </trkpt>
      <trkpt lat="43.38389" lon="5.45686">
        <ele>441.39</ele>
        <time>2021-06-27T10:21:11.000Z</time>
      </trkpt>
      <trkpt lat="43.38371" lon="5.4569">
        <ele>436.86</ele>
        <time>2021-06-27T10:21:19.000Z</time>
      </trkpt>
      <trkpt lat="43.38352" lon="5.45693">
        <ele>433.2</ele>
        <time>2021-06-27T10:21:27.000Z</time>
      </trkpt>
      <trkpt lat="43.38333" lon="5.45699">
        <ele>429.02</ele>
        <time>2021-06-27T10:21:37.000Z</time>
      </trkpt>
      <trkpt lat="43.38324" lon="5.45722">
        <ele>424.6</ele>
        <time>2021-06-27T10:21:47.000Z</time>
      </trkpt>
      <trkpt lat="43.38307" lon="5.45732">
        <ele>418.36</ele>
        <time>2021-06-27T10:22:22.000Z</time>
      </trkpt>
      <trkpt lat="43.38289" lon="5.45731">
        <ele>412.6</ele>
        <time>2021-06-27T10:23:09.000Z</time>
      </trkpt>
      <trkpt lat="43.3828" lon="5.45753">
        <ele>407.97</ele>
        <time>2021-06-27T10:23:22.000Z</time>
      </trkpt>
      <trkpt lat="43.38267" lon="5.45769">
        <ele>401.84</ele>
        <time>2021-06-27T10:23:33.000Z</time>
      </trkpt>
      <trkpt lat="43.38252" lon="5.45783">
        <ele>395.17</ele>
        <time>2021-06-27T10:23:46.000Z</time>
      </trkpt>
      <trkpt lat="43.38234" lon="5.45776">
        <ele>391.14</ele>
        <time>2021-06-27T10:23:59.000Z</time>
      </trkpt>
      <trkpt lat="43.38217" lon="5.45765">
        <ele>386.51</ele>
        <time>2021-06-27T10:24:12.000Z</time>
      </trkpt>
      <trkpt lat="43.38198" lon="5.45769">
        <ele>382.21</ele>
        <time>2021-06-27T10:24:24.000Z</time>
      </trkpt>
      <trkpt lat="43.38179" lon="5.45759">
        <ele>377.06</ele>
        <time>2021-06-27T10:24:38.000Z</time>
      </trkpt>
      <trkpt lat="43.38165" lon="5.45744">
        <ele>374.69</ele>
        <time>2021-06-27T10:24:47.000Z</time>
      </trkpt>
      <trkpt lat="43.38146" lon="5.45743">
        <ele>371.49</ele>
        <time>2021-06-27T10:24:58.000Z</time>
      </trkpt>
      <trkpt lat="43.38126" lon="5.45743">
        <ele>368.58</ele>
        <time>2021-06-27T10:25:06.000Z</time>
      </trkpt>
      <trkpt lat="43.38109" lon="5.45751">
        <ele>363.67</ele>
        <time>2021-06-27T10:25:21.000Z</time>
      </trkpt>
      <trkpt lat="43.38092" lon="5.45741">
        <ele>363.61</ele>
        <time>2021-06-27T10:25:32.000Z</time>
      </trkpt>
      <trkpt lat="43.38073" lon="5.45733">
        <ele>364.19</ele>
        <time>2021-06-27T10:25:47.000Z</time>
      </trkpt>
      <trkpt lat="43.38064" lon="5.45755">
        <ele>357.29</ele>
        <time>2021-06-27T10:27:10.000Z</time>
      </trkpt>
      <trkpt lat="43.3806" lon="5.45779">
        <ele>350.33</ele>
        <time>2021-06-27T10:27:29.000Z</time>
      </trkpt>
      <trkpt lat="43.38044" lon="5.45791">
        <ele>346.01</ele>
        <time>2021-06-27T10:27:42.000Z</time>
      </trkpt>
      <trkpt lat="43.38025" lon="5.45793">
        <ele>342.12</ele>
        <time>2021-06-27T10:27:52.000Z</time>
      </trkpt>
      <trkpt lat="43.38006" lon="5.45796">
        <ele>338.55</ele>
        <time>2021-06-27T10:28:04.000Z</time>
      </trkpt>
      <trkpt lat="43.37989" lon="5.45808">
        <ele>336.04</ele>
        <time>2021-06-27T10:28:12.000Z</time>
      </trkpt>
      <trkpt lat="43.37972" lon="5.45816">
        <ele>333.65</ele>
        <time>2021-06-27T10:28:20.000Z</time>
      </trkpt>
      <trkpt lat="43.37957" lon="5.45831">
        <ele>331.46</ele>
        <time>2021-06-27T10:28:28.000Z</time>
      </trkpt>
      <trkpt lat="43.3794" lon="5.45843">
        <ele>328.43</ele>
        <time>2021-06-27T10:28:37.000Z</time>
      </trkpt>
      <trkpt lat="43.37926" lon="5.45859">
        <ele>327.1</ele>
        <time>2021-06-27T10:28:44.000Z</time>
      </trkpt>
      <trkpt lat="43.37907" lon="5.45867">
        <ele>325.3</ele>
        <time>2021-06-27T10:28:53.000Z</time>
      </trkpt>
      <trkpt lat="43.37888" lon="5.45872">
        <ele>322.59</ele>
        <time>2021-06-27T10:29:01.000Z</time>
      </trkpt>
      <trkpt lat="43.37871" lon="5.45883">
        <ele>321</ele>
        <time>2021-06-27T10:29:08.000Z</time>
      </trkpt>
      <trkpt lat="43.37854" lon="5.45889">
        <ele>319.45</ele>
        <time>2021-06-27T10:29:15.000Z</time>
      </trkpt>
      <trkpt lat="43.37836" lon="5.459">
        <ele>317.89</ele>
        <time>2021-06-27T10:29:22.000Z</time>
      </trkpt>
      <trkpt lat="43.37819" lon="5.4591">
        <ele>316.19</ele>
        <time>2021-06-27T10:29:29.000Z</time>
      </trkpt>
      <trkpt lat="43.37802" lon="5.45919">
        <ele>314.47</ele>
        <time>2021-06-27T10:29:36.000Z</time>
      </trkpt>
      <trkpt lat="43.37785" lon="5.45933">
        <ele>312.32</ele>
        <time>2021-06-27T10:29:44.000Z</time>
      </trkpt>
      <trkpt lat="43.37766" lon="5.45932">
        <ele>310.85</ele>
        <time>2021-06-27T10:29:52.000Z</time>
      </trkpt>
      <trkpt lat="43.37748" lon="5.45943">
        <ele>308.8</ele>
        <time>2021-06-27T10:30:01.000Z</time>
      </trkpt>
      <trkpt lat="43.3773" lon="5.45944">
        <ele>307.71</ele>
        <time>2021-06-27T10:30:09.000Z</time>
      </trkpt>
      <trkpt lat="43.37711" lon="5.45951">
        <ele>306.23</ele>
        <time>2021-06-27T10:30:19.000Z</time>
      </trkpt>
      <trkpt lat="43.37693" lon="5.45958">
        <ele>304.09</ele>
        <time>2021-06-27T10:30:28.000Z</time>
      </trkpt>
      <trkpt lat="43.37674" lon="5.45956">
        <ele>301.9</ele>
        <time>2021-06-27T10:30:36.000Z</time>
      </trkpt>
      <trkpt lat="43.37653" lon="5.45955">
        <ele>301.08</ele>
        <time>2021-06-27T10:30:44.000Z</time>
      </trkpt>
      <trkpt lat="43.37634" lon="5.45954">
        <ele>299.32</ele>
        <time>2021-06-27T10:30:52.000Z</time>
      </trkpt>
      <trkpt lat="43.37619" lon="5.45972">
        <ele>296.85</ele>
        <time>2021-06-27T10:31:02.000Z</time>
      </trkpt>
      <trkpt lat="43.37605" lon="5.45991">
        <ele>294.91</ele>
        <time>2021-06-27T10:31:12.000Z</time>
      </trkpt>
      <trkpt lat="43.37587" lon="5.45997">
        <ele>293.14</ele>
        <time>2021-06-27T10:31:21.000Z</time>
      </trkpt>
      <trkpt lat="43.37568" lon="5.45991">
        <ele>291.52</ele>
        <time>2021-06-27T10:31:30.000Z</time>
      </trkpt>
      <trkpt lat="43.3755" lon="5.45982">
        <ele>289.57</ele>
        <time>2021-06-27T10:31:39.000Z</time>
      </trkpt>
      <trkpt lat="43.3753" lon="5.45979">
        <ele>288.04</ele>
        <time>2021-06-27T10:31:47.000Z</time>
      </trkpt>
      <trkpt lat="43.37513" lon="5.45985">
        <ele>287.21</ele>
        <time>2021-06-27T10:31:59.000Z</time>
      </trkpt>
      <trkpt lat="43.37496" lon="5.45978">
        <ele>286.13</ele>
        <time>2021-06-27T10:32:09.000Z</time>
      </trkpt>
      <trkpt lat="43.37478" lon="5.4599">
        <ele>285.4</ele>
        <time>2021-06-27T10:32:18.000Z</time>
      </trkpt>
      <trkpt lat="43.37465" lon="5.46007">
        <ele>283.86</ele>
        <time>2021-06-27T10:32:27.000Z</time>
      </trkpt>
      <trkpt lat="43.37446" lon="5.46013">
        <ele>283.23</ele>
        <time>2021-06-27T10:32:38.000Z</time>
      </trkpt>
      <trkpt lat="43.37428" lon="5.46005">
        <ele>281.9</ele>
        <time>2021-06-27T10:32:48.000Z</time>
      </trkpt>
      <trkpt lat="43.3741" lon="5.46012">
        <ele>281.05</ele>
        <time>2021-06-27T10:32:58.000Z</time>
      </trkpt>
      <trkpt lat="43.37393" lon="5.46">
        <ele>280.77</ele>
        <time>2021-06-27T10:33:07.000Z</time>
      </trkpt>
      <trkpt lat="43.37376" lon="5.46007">
        <ele>279.23</ele>
        <time>2021-06-27T10:33:15.000Z</time>
      </trkpt>
      <trkpt lat="43.37364" lon="5.46028">
        <ele>277.83</ele>
        <time>2021-06-27T10:33:25.000Z</time>
      </trkpt>
      <trkpt lat="43.37348" lon="5.46041">
        <ele>276.93</ele>
        <time>2021-06-27T10:33:38.000Z</time>
      </trkpt>
      <trkpt lat="43.3733" lon="5.46037">
        <ele>275.12</ele>
        <time>2021-06-27T10:35:05.000Z</time>
      </trkpt>
      <trkpt lat="43.37312" lon="5.46038">
        <ele>274.32</ele>
        <time>2021-06-27T10:35:14.000Z</time>
      </trkpt>
      <trkpt lat="43.37297" lon="5.46023">
        <ele>273.23</ele>
        <time>2021-06-27T10:35:23.000Z</time>
      </trkpt>
      <trkpt lat="43.37281" lon="5.46036">
        <ele>270.5</ele>
        <time>2021-06-27T10:35:58.000Z</time>
      </trkpt>
      <trkpt lat="43.37266" lon="5.46053">
        <ele>268.37</ele>
        <time>2021-06-27T10:36:07.000Z</time>
      </trkpt>
      <trkpt lat="43.37249" lon="5.46067">
        <ele>267.03</ele>
        <time>2021-06-27T10:36:15.000Z</time>
      </trkpt>
      <trkpt lat="43.37232" lon="5.46084">
        <ele>266.2</ele>
        <time>2021-06-27T10:36:22.000Z</time>
      </trkpt>
      <trkpt lat="43.37215" lon="5.46093">
        <ele>265.3</ele>
        <time>2021-06-27T10:36:29.000Z</time>
      </trkpt>
      <trkpt lat="43.37198" lon="5.46104">
        <ele>264.36</ele>
        <time>2021-06-27T10:36:35.000Z</time>
      </trkpt>
      <trkpt lat="43.37179" lon="5.46108">
        <ele>263.33</ele>
        <time>2021-06-27T10:36:41.000Z</time>
      </trkpt>
      <trkpt lat="43.37161" lon="5.46101">
        <ele>261.49</ele>
        <time>2021-06-27T10:36:50.000Z</time>
      </trkpt>
      <trkpt lat="43.37143" lon="5.46097">
        <ele>260.64</ele>
        <time>2021-06-27T10:37:03.000Z</time>
      </trkpt>
      <trkpt lat="43.37126" lon="5.46089">
        <ele>261.61</ele>
        <time>2021-06-27T10:37:14.000Z</time>
      </trkpt>
      <trkpt lat="43.37108" lon="5.46078">
        <ele>263.88</ele>
        <time>2021-06-27T10:37:24.000Z</time>
      </trkpt>
      <trkpt lat="43.3709" lon="5.46073">
        <ele>265.23</ele>
        <time>2021-06-27T10:37:35.000Z</time>
      </trkpt>
      <trkpt lat="43.37071" lon="5.46071">
        <ele>267.46</ele>
        <time>2021-06-27T10:37:46.000Z</time>
      </trkpt>
      <trkpt lat="43.37058" lon="5.46052">
        <ele>269.63</ele>
        <time>2021-06-27T10:37:57.000Z</time>
      </trkpt>
      <trkpt lat="43.37046" lon="5.46033">
        <ele>271.12</ele>
        <time>2021-06-27T10:38:07.000Z</time>
      </trkpt>
      <trkpt lat="43.3703" lon="5.46019">
        <ele>272.97</ele>
        <time>2021-06-27T10:38:19.000Z</time>
      </trkpt>
      <trkpt lat="43.37011" lon="5.46013">
        <ele>274.72</ele>
        <time>2021-06-27T10:38:30.000Z</time>
      </trkpt>
      <trkpt lat="43.36993" lon="5.46014">
        <ele>276.72</ele>
        <time>2021-06-27T10:38:41.000Z</time>
      </trkpt>
      <trkpt lat="43.36975" lon="5.46012">
        <ele>278.55</ele>
        <time>2021-06-27T10:38:52.000Z</time>
      </trkpt>
      <trkpt lat="43.36956" lon="5.46009">
        <ele>280.48</ele>
        <time>2021-06-27T10:39:05.000Z</time>
      </trkpt>
      <trkpt lat="43.36937" lon="5.46008">
        <ele>282.45</ele>
        <time>2021-06-27T10:39:15.000Z</time>
      </trkpt>
      <trkpt lat="43.36925" lon="5.45987">
        <ele>283.94</ele>
        <time>2021-06-27T10:40:07.000Z</time>
      </trkpt>
      <trkpt lat="43.36925" lon="5.4596">
        <ele>280.54</ele>
        <time>2021-06-27T10:40:17.000Z</time>
      </trkpt>
      <trkpt lat="43.36927" lon="5.45936">
        <ele>276.69</ele>
        <time>2021-06-27T10:40:28.000Z</time>
      </trkpt>
      <trkpt lat="43.36909" lon="5.45938">
        <ele>273</ele>
        <time>2021-06-27T10:40:43.000Z</time>
      </trkpt>
      <trkpt lat="43.36895" lon="5.45955">
        <ele>271.32</ele>
        <time>2021-06-27T10:40:51.000Z</time>
      </trkpt>
      <trkpt lat="43.36879" lon="5.45971">
        <ele>268.52</ele>
        <time>2021-06-27T10:41:02.000Z</time>
      </trkpt>
      <trkpt lat="43.36863" lon="5.45984">
        <ele>266.73</ele>
        <time>2021-06-27T10:41:11.000Z</time>
      </trkpt>
      <trkpt lat="43.36844" lon="5.45996">
        <ele>264.44</ele>
        <time>2021-06-27T10:41:20.000Z</time>
      </trkpt>
      <trkpt lat="43.36827" lon="5.46006">
        <ele>261.95</ele>
        <time>2021-06-27T10:41:28.000Z</time>
      </trkpt>
      <trkpt lat="43.3681" lon="5.46017">
        <ele>259.19</ele>
        <time>2021-06-27T10:41:37.000Z</time>
      </trkpt>
      <trkpt lat="43.36796" lon="5.46032">
        <ele>255.83</ele>
        <time>2021-06-27T10:41:47.000Z</time>
      </trkpt>
      <trkpt lat="43.36781" lon="5.46048">
        <ele>252.46</ele>
        <time>2021-06-27T10:41:57.000Z</time>
      </trkpt>
      <trkpt lat="43.36769" lon="5.46069">
        <ele>248.18</ele>
        <time>2021-06-27T10:42:06.000Z</time>
      </trkpt>
      <trkpt lat="43.36757" lon="5.46088">
        <ele>245.13</ele>
        <time>2021-06-27T10:42:12.000Z</time>
      </trkpt>
      <trkpt lat="43.36742" lon="5.46108">
        <ele>243.41</ele>
        <time>2021-06-27T10:42:18.000Z</time>
      </trkpt>
      <trkpt lat="43.36725" lon="5.46118">
        <ele>239.12</ele>
        <time>2021-06-27T10:42:28.000Z</time>
      </trkpt>
      <trkpt lat="43.36706" lon="5.4612">
        <ele>234.91</ele>
        <time>2021-06-27T10:42:36.000Z</time>
      </trkpt>
      <trkpt lat="43.36687" lon="5.46124">
        <ele>231.31</ele>
        <time>2021-06-27T10:42:43.000Z</time>
      </trkpt>
      <trkpt lat="43.36668" lon="5.46129">
        <ele>230.06</ele>
        <time>2021-06-27T10:42:51.000Z</time>
      </trkpt>
      <trkpt lat="43.36653" lon="5.46143">
        <ele>230.53</ele>
        <time>2021-06-27T10:43:26.000Z</time>
      </trkpt>
      <trkpt lat="43.36633" lon="5.46142">
        <ele>228.16</ele>
        <time>2021-06-27T10:43:37.000Z</time>
      </trkpt>
      <trkpt lat="43.36615" lon="5.46143">
        <ele>226.75</ele>
        <time>2021-06-27T10:43:42.000Z</time>
      </trkpt>
      <trkpt lat="43.36596" lon="5.46146">
        <ele>225.32</ele>
        <time>2021-06-27T10:43:46.000Z</time>
      </trkpt>
      <trkpt lat="43.36578" lon="5.4614">
        <ele>224.07</ele>
        <time>2021-06-27T10:43:50.000Z</time>
      </trkpt>
      <trkpt lat="43.36557" lon="5.46136">
        <ele>224.64</ele>
        <time>2021-06-27T10:43:56.000Z</time>
      </trkpt>
      <trkpt lat="43.36539" lon="5.4614">
        <ele>224.68</ele>
        <time>2021-06-27T10:44:02.000Z</time>
      </trkpt>
      <trkpt lat="43.36517" lon="5.46142">
        <ele>224.28</ele>
        <time>2021-06-27T10:44:08.000Z</time>
      </trkpt>
      <trkpt lat="43.36498" lon="5.46139">
        <ele>223.04</ele>
        <time>2021-06-27T10:44:14.000Z</time>
      </trkpt>
      <trkpt lat="43.36486" lon="5.46163">
        <ele>221.12</ele>
        <time>2021-06-27T10:44:20.000Z</time>
      </trkpt>
      <trkpt lat="43.36499" lon="5.46195">
        <ele>219.36</ele>
        <time>2021-06-27T10:44:24.000Z</time>
      </trkpt>
      <trkpt lat="43.36501" lon="5.46223">
        <ele>218.04</ele>
        <time>2021-06-27T10:44:28.000Z</time>
      </trkpt>
      <trkpt lat="43.36492" lon="5.46251">
        <ele>216.53</ele>
        <time>2021-06-27T10:44:32.000Z</time>
      </trkpt>
      <trkpt lat="43.36475" lon="5.46263">
        <ele>214.7</ele>
        <time>2021-06-27T10:44:35.000Z</time>
      </trkpt>
      <trkpt lat="43.36456" lon="5.46265">
        <ele>214.12</ele>
        <time>2021-06-27T10:44:38.000Z</time>
      </trkpt>
      <trkpt lat="43.36438" lon="5.46261">
        <ele>213.91</ele>
        <time>2021-06-27T10:44:41.000Z</time>
      </trkpt>
      <trkpt lat="43.36419" lon="5.46246">
        <ele>212.49</ele>
        <time>2021-06-27T10:44:45.000Z</time>
      </trkpt>
      <trkpt lat="43.36397" lon="5.46238">
        <ele>210.11</ele>
        <time>2021-06-27T10:44:49.000Z</time>
      </trkpt>
      <trkpt lat="43.36381" lon="5.4625">
        <ele>208.02</ele>
        <time>2021-06-27T10:44:52.000Z</time>
      </trkpt>
      <trkpt lat="43.36361" lon="5.46261">
        <ele>207.4</ele>
        <time>2021-06-27T10:44:55.000Z</time>
      </trkpt>
      <trkpt lat="43.36343" lon="5.46271">
        <ele>206.91</ele>
        <time>2021-06-27T10:44:58.000Z</time>
      </trkpt>
      <trkpt lat="43.36324" lon="5.46291">
        <ele>206.27</ele>
        <time>2021-06-27T10:45:02.000Z</time>
      </trkpt>
      <trkpt lat="43.36306" lon="5.46312">
        <ele>204.41</ele>
        <time>2021-06-27T10:45:06.000Z</time>
      </trkpt>
      <trkpt lat="43.36291" lon="5.46329">
        <ele>205.44</ele>
        <time>2021-06-27T10:45:10.000Z</time>
      </trkpt>
      <trkpt lat="43.36276" lon="5.46346">
        <ele>203.9</ele>
        <time>2021-06-27T10:45:14.000Z</time>
      </trkpt>
      <trkpt lat="43.36264" lon="5.46365">
        <ele>201.88</ele>
        <time>2021-06-27T10:45:17.000Z</time>
      </trkpt>
      <trkpt lat="43.36251" lon="5.46383">
        <ele>201.05</ele>
        <time>2021-06-27T10:45:29.000Z</time>
      </trkpt>
      <trkpt lat="43.36229" lon="5.46381">
        <ele>199.91</ele>
        <time>2021-06-27T10:45:37.000Z</time>
      </trkpt>
      <trkpt lat="43.36207" lon="5.46377">
        <ele>199.07</ele>
        <time>2021-06-27T10:45:42.000Z</time>
      </trkpt>
      <trkpt lat="43.36187" lon="5.46375">
        <ele>198.18</ele>
        <time>2021-06-27T10:45:46.000Z</time>
      </trkpt>
      <trkpt lat="43.36164" lon="5.46377">
        <ele>197.51</ele>
        <time>2021-06-27T10:45:50.000Z</time>
      </trkpt>
      <trkpt lat="43.36143" lon="5.46379">
        <ele>196.64</ele>
        <time>2021-06-27T10:45:54.000Z</time>
      </trkpt>
      <trkpt lat="43.36122" lon="5.46376">
        <ele>195.34</ele>
        <time>2021-06-27T10:45:58.000Z</time>
      </trkpt>
      <trkpt lat="43.36104" lon="5.46371">
        <ele>194.83</ele>
        <time>2021-06-27T10:46:03.000Z</time>
      </trkpt>
      <trkpt lat="43.36089" lon="5.4635">
        <ele>192.93</ele>
        <time>2021-06-27T10:46:09.000Z</time>
      </trkpt>
      <trkpt lat="43.36075" lon="5.4633">
        <ele>191.49</ele>
        <time>2021-06-27T10:46:12.000Z</time>
      </trkpt>
      <trkpt lat="43.36061" lon="5.46311">
        <ele>190.98</ele>
        <time>2021-06-27T10:46:15.000Z</time>
      </trkpt>
      <trkpt lat="43.36048" lon="5.46289">
        <ele>190.44</ele>
        <time>2021-06-27T10:46:18.000Z</time>
      </trkpt>
      <trkpt lat="43.36033" lon="5.46267">
        <ele>189.41</ele>
        <time>2021-06-27T10:46:21.000Z</time>
      </trkpt>
      <trkpt lat="43.36021" lon="5.46246">
        <ele>188.85</ele>
        <time>2021-06-27T10:46:24.000Z</time>
      </trkpt>
      <trkpt lat="43.3601" lon="5.46221">
        <ele>187.79</ele>
        <time>2021-06-27T10:46:28.000Z</time>
      </trkpt>
      <trkpt lat="43.35997" lon="5.46194">
        <ele>186.75</ele>
        <time>2021-06-27T10:46:31.000Z</time>
      </trkpt>
      <trkpt lat="43.35984" lon="5.46168">
        <ele>186.02</ele>
        <time>2021-06-27T10:46:34.000Z</time>
      </trkpt>
      <trkpt lat="43.3597" lon="5.46143">
        <ele>185.68</ele>
        <time>2021-06-27T10:46:37.000Z</time>
      </trkpt>
      <trkpt lat="43.35956" lon="5.46121">
        <ele>185.18</ele>
        <time>2021-06-27T10:46:40.000Z</time>
      </trkpt>
      <trkpt lat="43.35941" lon="5.46096">
        <ele>184.34</ele>
        <time>2021-06-27T10:46:43.000Z</time>
      </trkpt>
      <trkpt lat="43.35928" lon="5.46077">
        <ele>183.66</ele>
        <time>2021-06-27T10:46:46.000Z</time>
      </trkpt>
      <trkpt lat="43.35919" lon="5.46053">
        <ele>183.22</ele>
        <time>2021-06-27T10:46:50.000Z</time>
      </trkpt>
      <trkpt lat="43.3593" lon="5.46032">
        <ele>183.77</ele>
        <time>2021-06-27T10:46:55.000Z</time>
      </trkpt>
      <trkpt lat="43.35942" lon="5.46013">
        <ele>184.92</ele>
        <time>2021-06-27T10:47:00.000Z</time>
      </trkpt>
      <trkpt lat="43.35954" lon="5.45993">
        <ele>187.58</ele>
        <time>2021-06-27T10:47:07.000Z</time>
      </trkpt>
      <trkpt lat="43.35947" lon="5.45968">
        <ele>189.72</ele>
        <time>2021-06-27T10:47:13.000Z</time>
      </trkpt>
      <trkpt lat="43.35937" lon="5.45945">
        <ele>190.23</ele>
        <time>2021-06-27T10:47:19.000Z</time>
      </trkpt>
      <trkpt lat="43.35917" lon="5.4593">
        <ele>189.42</ele>
        <time>2021-06-27T10:47:25.000Z</time>
      </trkpt>
      <trkpt lat="43.35901" lon="5.45919">
        <ele>188.78</ele>
        <time>2021-06-27T10:47:28.000Z</time>
      </trkpt>
      <trkpt lat="43.35883" lon="5.45898">
        <ele>188.54</ele>
        <time>2021-06-27T10:47:32.000Z</time>
      </trkpt>
      <trkpt lat="43.35867" lon="5.45873">
        <ele>187.85</ele>
        <time>2021-06-27T10:47:36.000Z</time>
      </trkpt>
      <trkpt lat="43.35855" lon="5.45853">
        <ele>187.65</ele>
        <time>2021-06-27T10:47:39.000Z</time>
      </trkpt>
      <trkpt lat="43.35846" lon="5.45824">
        <ele>187.41</ele>
        <time>2021-06-27T10:47:43.000Z</time>
      </trkpt>
      <trkpt lat="43.35839" lon="5.458">
        <ele>186.94</ele>
        <time>2021-06-27T10:47:46.000Z</time>
      </trkpt>
      <trkpt lat="43.35831" lon="5.45774">
        <ele>186.44</ele>
        <time>2021-06-27T10:47:49.000Z</time>
      </trkpt>
      <trkpt lat="43.3582" lon="5.4575">
        <ele>185.51</ele>
        <time>2021-06-27T10:47:52.000Z</time>
      </trkpt>
      <trkpt lat="43.35809" lon="5.45724">
        <ele>184.34</ele>
        <time>2021-06-27T10:47:55.000Z</time>
      </trkpt>
      <trkpt lat="43.35797" lon="5.45697">
        <ele>183.45</ele>
        <time>2021-06-27T10:47:58.000Z</time>
      </trkpt>
      <trkpt lat="43.35787" lon="5.45668">
        <ele>182.73</ele>
        <time>2021-06-27T10:48:01.000Z</time>
      </trkpt>
      <trkpt lat="43.35779" lon="5.45641">
        <ele>182.61</ele>
        <time>2021-06-27T10:48:04.000Z</time>
      </trkpt>
      <trkpt lat="43.35768" lon="5.45619">
        <ele>182.75</ele>
        <time>2021-06-27T10:48:07.000Z</time>
      </trkpt>
      <trkpt lat="43.35756" lon="5.456">
        <ele>183.01</ele>
        <time>2021-06-27T10:48:10.000Z</time>
      </trkpt>
      <trkpt lat="43.35743" lon="5.45576">
        <ele>182.84</ele>
        <time>2021-06-27T10:48:14.000Z</time>
      </trkpt>
      <trkpt lat="43.3573" lon="5.45553">
        <ele>181.8</ele>
        <time>2021-06-27T10:48:17.000Z</time>
      </trkpt>
      <trkpt lat="43.35718" lon="5.4553">
        <ele>181.01</ele>
        <time>2021-06-27T10:48:20.000Z</time>
      </trkpt>
      <trkpt lat="43.35704" lon="5.45502">
        <ele>179.44</ele>
        <time>2021-06-27T10:48:23.000Z</time>
      </trkpt>
      <trkpt lat="43.35692" lon="5.45474">
        <ele>177.63</ele>
        <time>2021-06-27T10:48:26.000Z</time>
      </trkpt>
      <trkpt lat="43.35682" lon="5.45451">
        <ele>176.77</ele>
        <time>2021-06-27T10:48:28.000Z</time>
      </trkpt>
      <trkpt lat="43.35672" lon="5.4543">
        <ele>175.89</ele>
        <time>2021-06-27T10:48:30.000Z</time>
      </trkpt>
      <trkpt lat="43.35659" lon="5.454">
        <ele>175.85</ele>
        <time>2021-06-27T10:48:33.000Z</time>
      </trkpt>
      <trkpt lat="43.35646" lon="5.4537">
        <ele>175.2</ele>
        <time>2021-06-27T10:48:36.000Z</time>
      </trkpt>
      <trkpt lat="43.35634" lon="5.45342">
        <ele>174.56</ele>
        <time>2021-06-27T10:48:39.000Z</time>
      </trkpt>
      <trkpt lat="43.35623" lon="5.45317">
        <ele>174.23</ele>
        <time>2021-06-27T10:48:42.000Z</time>
      </trkpt>
      <trkpt lat="43.3561" lon="5.45293">
        <ele>173.93</ele>
        <time>2021-06-27T10:48:45.000Z</time>
      </trkpt>
      <trkpt lat="43.35597" lon="5.45271">
        <ele>173.53</ele>
        <time>2021-06-27T10:48:48.000Z</time>
      </trkpt>
      <trkpt lat="43.35586" lon="5.45247">
        <ele>172.65</ele>
        <time>2021-06-27T10:48:51.000Z</time>
      </trkpt>
      <trkpt lat="43.35573" lon="5.45227">
        <ele>171.43</ele>
        <time>2021-06-27T10:48:55.000Z</time>
      </trkpt>
      <trkpt lat="43.35577" lon="5.45197">
        <ele>171.01</ele>
        <time>2021-06-27T10:49:00.000Z</time>
      </trkpt>
      <trkpt lat="43.35576" lon="5.45163">
        <ele>171.54</ele>
        <time>2021-06-27T10:49:04.000Z</time>
      </trkpt>
      <trkpt lat="43.35566" lon="5.45142">
        <ele>171.64</ele>
        <time>2021-06-27T10:49:07.000Z</time>
      </trkpt>
      <trkpt lat="43.35547" lon="5.4512">
        <ele>170.9</ele>
        <time>2021-06-27T10:49:11.000Z</time>
      </trkpt>
      <trkpt lat="43.35533" lon="5.45104">
        <ele>170.63</ele>
        <time>2021-06-27T10:49:14.000Z</time>
      </trkpt>
      <trkpt lat="43.3552" lon="5.45086">
        <ele>170.53</ele>
        <time>2021-06-27T10:49:17.000Z</time>
      </trkpt>
      <trkpt lat="43.355" lon="5.45065">
        <ele>170.18</ele>
        <time>2021-06-27T10:49:21.000Z</time>
      </trkpt>
      <trkpt lat="43.35484" lon="5.45048">
        <ele>169.49</ele>
        <time>2021-06-27T10:49:24.000Z</time>
      </trkpt>
      <trkpt lat="43.35467" lon="5.4503">
        <ele>168.76</ele>
        <time>2021-06-27T10:49:27.000Z</time>
      </trkpt>
      <trkpt lat="43.35452" lon="5.45011">
        <ele>167.73</ele>
        <time>2021-06-27T10:49:30.000Z</time>
      </trkpt>
      <trkpt lat="43.35434" lon="5.44992">
        <ele>167.47</ele>
        <time>2021-06-27T10:49:33.000Z</time>
      </trkpt>
      <trkpt lat="43.35416" lon="5.44974">
        <ele>166.89</ele>
        <time>2021-06-27T10:49:36.000Z</time>
      </trkpt>
      <trkpt lat="43.354" lon="5.44954">
        <ele>165.88</ele>
        <time>2021-06-27T10:49:39.000Z</time>
      </trkpt>
      <trkpt lat="43.35389" lon="5.44927">
        <ele>163.94</ele>
        <time>2021-06-27T10:49:42.000Z</time>
      </trkpt>
      <trkpt lat="43.35382" lon="5.44902">
        <ele>162.91</ele>
        <time>2021-06-27T10:49:44.000Z</time>
      </trkpt>
      <trkpt lat="43.35368" lon="5.44872">
        <ele>163.03</ele>
        <time>2021-06-27T10:49:47.000Z</time>
      </trkpt>
      <trkpt lat="43.35358" lon="5.44848">
        <ele>163.65</ele>
        <time>2021-06-27T10:49:50.000Z</time>
      </trkpt>
      <trkpt lat="43.35347" lon="5.44822">
        <ele>164.21</ele>
        <time>2021-06-27T10:49:54.000Z</time>
      </trkpt>
      <trkpt lat="43.35339" lon="5.44797">
        <ele>165.51</ele>
        <time>2021-06-27T10:49:58.000Z</time>
      </trkpt>
      <trkpt lat="43.35329" lon="5.44769">
        <ele>165.35</ele>
        <time>2021-06-27T10:50:02.000Z</time>
      </trkpt>
      <trkpt lat="43.3532" lon="5.44747">
        <ele>165.49</ele>
        <time>2021-06-27T10:50:05.000Z</time>
      </trkpt>
      <trkpt lat="43.35313" lon="5.44722">
        <ele>165.03</ele>
        <time>2021-06-27T10:50:08.000Z</time>
      </trkpt>
      <trkpt lat="43.35305" lon="5.44698">
        <ele>164.47</ele>
        <time>2021-06-27T10:50:11.000Z</time>
      </trkpt>
      <trkpt lat="43.35295" lon="5.44673">
        <ele>163.99</ele>
        <time>2021-06-27T10:50:14.000Z</time>
      </trkpt>
      <trkpt lat="43.35284" lon="5.44648">
        <ele>163.13</ele>
        <time>2021-06-27T10:50:17.000Z</time>
      </trkpt>
      <trkpt lat="43.35274" lon="5.44623">
        <ele>162.43</ele>
        <time>2021-06-27T10:50:20.000Z</time>
      </trkpt>
      <trkpt lat="43.35262" lon="5.44597">
        <ele>161.68</ele>
        <time>2021-06-27T10:50:23.000Z</time>
      </trkpt>
      <trkpt lat="43.35254" lon="5.44567">
        <ele>160.5</ele>
        <time>2021-06-27T10:50:26.000Z</time>
      </trkpt>
      <trkpt lat="43.35252" lon="5.44538">
        <ele>159.58</ele>
        <time>2021-06-27T10:50:29.000Z</time>
      </trkpt>
      <trkpt lat="43.35244" lon="5.44502">
        <ele>157.75</ele>
        <time>2021-06-27T10:50:32.000Z</time>
      </trkpt>
      <trkpt lat="43.35237" lon="5.4447">
        <ele>157.58</ele>
        <time>2021-06-27T10:50:35.000Z</time>
      </trkpt>
      <trkpt lat="43.35228" lon="5.44439">
        <ele>156.43</ele>
        <time>2021-06-27T10:50:38.000Z</time>
      </trkpt>
      <trkpt lat="43.35211" lon="5.44426">
        <ele>155.46</ele>
        <time>2021-06-27T10:50:43.000Z</time>
      </trkpt>
      <trkpt lat="43.35195" lon="5.44439">
        <ele>154.33</ele>
        <time>2021-06-27T10:50:47.000Z</time>
      </trkpt>
      <trkpt lat="43.35178" lon="5.44451">
        <ele>154.11</ele>
        <time>2021-06-27T10:50:51.000Z</time>
      </trkpt>
      <trkpt lat="43.35161" lon="5.4444">
        <ele>152.33</ele>
        <time>2021-06-27T10:51:26.000Z</time>
      </trkpt>
    </trkseg>
  </trk>
</gpx>